Darstellungsparameter: Aktuell verwendete Einstellungen:
Skalierung der Graphiken ... ?
xyx+y,   Skalierungsfaktor:      Skalierung: Modus: x, Faktor: 1
Darstellungszeitraum ... ?
Vom - - bis: - -   Zeitraum: 07.07.2016 - 06.08.2016
Min/Max/Avg-Anzeige ... ?
Zeige MMA aktuell
Zeige MMA Monat
Zeige MMA alles
Zeige --A aktuell
Zeige --A Monat
Zeige --A alles
Keine MMA-Anzeige
MMA:
Keine MMA-Graphiken
MMA-Basis: 07.07.2016 - 06.08.2016
Quicknavigation für Darstellung... ?
Tage:      1T, 2T, 3T, 5T -1T -2T -3T -5T +1T +2T +3T +5T
Wochen: 1W, 2W, 3W -1W -2W -3W +1W +2W +3W
Monate: 1M, 3M, 6M -1M -3M -6M +1M +3M +6M
Jahre:    1J, 3J, 5J, 10J -1J -3J -5J -10J +1J +3J +5J +10J
Nutze für die Darstellung ... ?
Originaldaten oder Mittelwerte auf ...
Stundenbasis Tagesbasis Wochenbasis
Monatsbasis Jahresbasis      Datenbasis: Original-Daten
Darstellen als:
Statistik (Auto) Statistik J:M      Darstellung:
Zur Graphik,    zurück zur Übersicht aller Sensoren.
 
Tabellarische Datenbersicht: ?
 
Sensor: Nr:Datum:Temp:Feuchte:Taupunkt:
Aussen-T/F 1 07-07-2016 00:00:00 13.8 C 85 % 11.32 C
2 07-07-2016 00:05:00 13.7 C 85 % 11.23 C
3 07-07-2016 00:10:00 13.6 C 85 % 11.13 C
4 07-07-2016 00:15:00 13.5 C 86 % 11.21 C
5 07-07-2016 00:20:00 13.4 C 86 % 11.11 C
6 07-07-2016 00:25:00 13.3 C 86 % 11.01 C
7 07-07-2016 00:30:00 13.2 C 87 % 11.09 C
8 07-07-2016 00:35:00 13.1 C 87 % 10.99 C
9 07-07-2016 00:40:00 13.1 C 87 % 10.99 C
10 07-07-2016 00:45:00 13 C 87 % 10.89 C
11 07-07-2016 00:50:00 13 C 88 % 11.06 C
12 07-07-2016 00:55:00 12.9 C 88 % 10.96 C
13 07-07-2016 01:00:00 12.9 C 88 % 10.96 C
14 07-07-2016 01:05:00 12.8 C 88 % 10.86 C
15 07-07-2016 01:10:00 12.8 C 89 % 11.03 C
16 07-07-2016 01:15:00 12.7 C 89 % 10.94 C
17 07-07-2016 01:20:00 12.7 C 89 % 10.94 C
18 07-07-2016 01:25:00 12.6 C 89 % 10.84 C
19 07-07-2016 01:30:00 12.5 C 89 % 10.74 C
20 07-07-2016 01:35:00 12.4 C 90 % 10.81 C
21 07-07-2016 01:40:00 12.4 C 90 % 10.81 C
22 07-07-2016 01:45:00 12.4 C 90 % 10.81 C
23 07-07-2016 01:50:00 12.3 C 90 % 10.71 C
24 07-07-2016 01:55:00 12.3 C 90 % 10.71 C
25 07-07-2016 02:00:00 12.3 C 91 % 10.87 C
Sensor: Nr:Datum:Temp:Feuchte:Taupunkt:
Aussen-T/F 26 07-07-2016 02:05:00 12.2 C 91 % 10.78 C
27 07-07-2016 02:10:00 12.2 C 91 % 10.78 C
28 07-07-2016 02:15:00 12.2 C 91 % 10.78 C
29 07-07-2016 02:20:00 12.2 C 91 % 10.78 C
30 07-07-2016 02:25:00 12.1 C 91 % 10.68 C
31 07-07-2016 02:30:00 12.1 C 92 % 10.84 C
32 07-07-2016 02:35:00 12.1 C 92 % 10.84 C
33 07-07-2016 02:40:00 11.9 C 92 % 10.64 C
34 07-07-2016 02:45:00 11.9 C 92 % 10.64 C
35 07-07-2016 02:50:00 11.8 C 91 % 10.38 C
36 07-07-2016 02:55:00 11.8 C 92 % 10.54 C
37 07-07-2016 03:00:00 11.7 C 92 % 10.44 C
38 07-07-2016 03:05:00 11.7 C 92 % 10.44 C
39 07-07-2016 03:10:00 11.6 C 92 % 10.35 C
40 07-07-2016 03:15:00 11.5 C 92 % 10.25 C
41 07-07-2016 03:20:00 11.4 C 92 % 10.15 C
42 07-07-2016 03:25:00 11.4 C 92 % 10.15 C
43 07-07-2016 03:30:00 11.3 C 93 % 10.21 C
44 07-07-2016 03:35:00 11.3 C 93 % 10.21 C
45 07-07-2016 03:40:00 11.3 C 93 % 10.21 C
46 07-07-2016 03:45:00 11.3 C 93 % 10.21 C
47 07-07-2016 03:50:00 11.3 C 93 % 10.21 C
48 07-07-2016 03:55:00 11.3 C 93 % 10.21 C
49 07-07-2016 04:00:00 11.3 C 93 % 10.21 C
50 07-07-2016 04:05:00 11.2 C 93 % 10.11 C
Sensor: Nr:Datum:Temp:Feuchte:Taupunkt:
Aussen-T/F 51 07-07-2016 04:10:00 11.2 C 93 % 10.11 C
52 07-07-2016 04:15:00 11.2 C 93 % 10.11 C
53 07-07-2016 04:20:00 11.2 C 93 % 10.11 C
54 07-07-2016 04:25:00 11.1 C 93 % 10.01 C
55 07-07-2016 04:30:00 11.1 C 93 % 10.01 C
56 07-07-2016 04:35:00 11 C 93 % 9.91 C
57 07-07-2016 04:40:00 11.1 C 94 % 10.17 C
58 07-07-2016 04:45:00 11.1 C 94 % 10.17 C
59 07-07-2016 04:50:00 11.1 C 94 % 10.17 C
60 07-07-2016 04:55:00 11 C 94 % 10.07 C
61 07-07-2016 05:00:00 10.9 C 94 % 9.97 C
62 07-07-2016 05:05:00 10.9 C 94 % 9.97 C
63 07-07-2016 05:10:00 10.9 C 94 % 9.97 C
64 07-07-2016 05:15:00 10.9 C 94 % 9.97 C
65 07-07-2016 05:20:00 10.8 C 94 % 9.87 C
66 07-07-2016 05:25:00 10.8 C 94 % 9.87 C
67 07-07-2016 05:30:00 10.8 C 94 % 9.87 C
68 07-07-2016 05:35:00 10.7 C 94 % 9.77 C
69 07-07-2016 05:40:00 10.7 C 94 % 9.77 C
70 07-07-2016 05:45:00 10.7 C 94 % 9.77 C
71 07-07-2016 05:50:00 10.6 C 94 % 9.68 C
72 07-07-2016 05:55:00 10.6 C 94 % 9.68 C
73 07-07-2016 06:00:00 10.6 C 94 % 9.68 C
74 07-07-2016 06:05:00 10.6 C 94 % 9.68 C
75 07-07-2016 06:10:00 10.7 C 95 % 9.93 C
Sensor: Nr:Datum:Temp:Feuchte:Taupunkt:
Aussen-T/F 76 07-07-2016 06:15:00 10.7 C 94 % 9.77 C
77 07-07-2016 06:20:00 10.7 C 94 % 9.77 C
78 07-07-2016 06:25:00 10.7 C 94 % 9.77 C
79 07-07-2016 06:30:00 10.7 C 95 % 9.93 C
80 07-07-2016 06:35:00 10.8 C 95 % 10.03 C
81 07-07-2016 06:40:00 10.8 C 95 % 10.03 C
82 07-07-2016 06:45:00 10.9 C 95 % 10.13 C
83 07-07-2016 06:50:00 10.9 C 95 % 10.13 C
84 07-07-2016 06:55:00 10.9 C 94 % 9.97 C
85 07-07-2016 07:00:00 10.9 C 94 % 9.97 C
86 07-07-2016 07:05:00 10.9 C 94 % 9.97 C
87 07-07-2016 07:10:00 10.9 C 94 % 9.97 C
88 07-07-2016 07:15:00 10.9 C 95 % 10.13 C
89 07-07-2016 07:20:00 10.9 C 95 % 10.13 C
90 07-07-2016 07:25:00 11 C 95 % 10.23 C
91 07-07-2016 07:30:00 11.1 C 95 % 10.33 C
92 07-07-2016 07:35:00 11.1 C 95 % 10.33 C
93 07-07-2016 07:40:00 11.2 C 95 % 10.43 C
94 07-07-2016 07:45:00 11.2 C 95 % 10.43 C
95 07-07-2016 07:50:00 11.3 C 95 % 10.53 C
96 07-07-2016 07:55:00 11.3 C 95 % 10.53 C
97 07-07-2016 08:00:00 11.4 C 95 % 10.63 C
98 07-07-2016 08:05:00 11.6 C 95 % 10.83 C
99 07-07-2016 08:10:00 11.7 C 95 % 10.93 C
100 07-07-2016 08:15:00 11.8 C 95 % 11.03 C
Sensor: Nr:Datum:Temp:Feuchte:Taupunkt:
Aussen-T/F 101 07-07-2016 08:20:00 11.9 C 95 % 11.13 C
102 07-07-2016 08:25:00 12 C 95 % 11.22 C
103 07-07-2016 08:30:00 12.1 C 95 % 11.32 C
104 07-07-2016 08:35:00 12.2 C 95 % 11.42 C
105 07-07-2016 08:40:00 12.3 C 95 % 11.52 C
106 07-07-2016 08:45:00 12.4 C 95 % 11.62 C
107 07-07-2016 08:50:00 12.6 C 95 % 11.82 C
108 07-07-2016 08:55:00 12.7 C 95 % 11.92 C
109 07-07-2016 09:00:00 12.8 C 95 % 12.02 C
110 07-07-2016 09:05:00 12.9 C 95 % 12.12 C
111 07-07-2016 09:10:00 13.1 C 94 % 12.16 C
112 07-07-2016 09:15:00 13.2 C 95 % 12.42 C
113 07-07-2016 09:20:00 13.3 C 94 % 12.36 C
114 07-07-2016 09:25:00 13.4 C 94 % 12.45 C
115 07-07-2016 09:30:00 13.6 C 94 % 12.65 C
116 07-07-2016 09:35:00 13.6 C 93 % 12.49 C
117 07-07-2016 09:40:00 13.8 C 93 % 12.69 C
118 07-07-2016 09:45:00 13.9 C 92 % 12.62 C
119 07-07-2016 09:50:00 14.1 C 92 % 12.82 C
120 07-07-2016 09:55:00 14.3 C 92 % 13.02 C
121 07-07-2016 10:00:00 14.4 C 91 % 12.95 C
122 07-07-2016 10:05:00 14.6 C 90 % 12.98 C
123 07-07-2016 10:10:00 14.8 C 90 % 13.18 C
124 07-07-2016 10:15:00 15.1 C 89 % 13.3 C
125 07-07-2016 10:20:00 15.4 C 88 % 13.42 C
Sensor: Nr:Datum:Temp:Feuchte:Taupunkt:
Aussen-T/F 126 07-07-2016 10:25:00 15.8 C 86 % 13.46 C
127 07-07-2016 10:30:00 16.3 C 85 % 13.77 C
128 07-07-2016 10:35:00 16.8 C 85 % 14.26 C
129 07-07-2016 10:40:00 17.2 C 84 % 14.47 C
130 07-07-2016 10:45:00 17.6 C 78 % 13.72 C
131 07-07-2016 10:50:00 18 C 80 % 14.5 C
132 07-07-2016 10:55:00 18.3 C 79 % 14.6 C
133 07-07-2016 11:00:00 18.4 C 77 % 14.3 C
134 07-07-2016 11:05:00 18.6 C 76 % 14.29 C
135 07-07-2016 11:10:00 18.7 C 80 % 15.18 C
136 07-07-2016 11:15:00 18.6 C 79 % 14.89 C
137 07-07-2016 11:20:00 18.4 C 77 % 14.3 C
138 07-07-2016 11:25:00 18.3 C 76 % 14 C
139 07-07-2016 11:30:00 18.2 C 74 % 13.49 C
140 07-07-2016 11:35:00 18.2 C 72 % 13.07 C
141 07-07-2016 11:40:00 18.3 C 75 % 13.79 C
142 07-07-2016 11:45:00 18.6 C 71 % 13.24 C
143 07-07-2016 11:50:00 18.8 C 67 % 12.55 C
144 07-07-2016 11:55:00 18.9 C 67 % 12.64 C
145 07-07-2016 12:00:00 19.2 C 68 % 13.15 C
146 07-07-2016 12:05:00 19.3 C 65 % 12.56 C
147 07-07-2016 12:10:00 19.4 C 65 % 12.66 C
148 07-07-2016 12:15:00 19.4 C 65 % 12.66 C
149 07-07-2016 12:20:00 19.4 C 64 % 12.42 C
150 07-07-2016 12:25:00 19.4 C 67 % 13.12 C
Sensor: Nr:Datum:Temp:Feuchte:Taupunkt:
Aussen-T/F 151 07-07-2016 12:30:00 19.6 C 66 % 13.08 C
152 07-07-2016 12:35:00 19.6 C 58 % 11.12 C
153 07-07-2016 12:40:00 19.7 C 60 % 11.72 C
154 07-07-2016 12:45:00 19.8 C 61 % 12.07 C
155 07-07-2016 12:50:00 19.9 C 65 % 13.13 C
156 07-07-2016 12:55:00 19.9 C 61 % 12.16 C
157 07-07-2016 13:00:00 20 C 61 % 12.26 C
158 07-07-2016 13:05:00 20 C 63 % 12.75 C
159 07-07-2016 13:10:00 20 C 55 % 10.69 C
160 07-07-2016 13:15:00 20.2 C 56 % 11.15 C
161 07-07-2016 13:20:00 20.3 C 51 % 9.84 C
162 07-07-2016 13:25:00 20.6 C 52 % 10.41 C
163 07-07-2016 13:30:00 20.7 C 53 % 10.78 C
164 07-07-2016 13:35:00 20.9 C 50 % 10.1 C
165 07-07-2016 13:40:00 21.1 C 49 % 9.98 C
166 07-07-2016 13:45:00 21.3 C 51 % 10.76 C
167 07-07-2016 13:50:00 21.5 C 49 % 10.34 C
168 07-07-2016 13:55:00 21.7 C 49 % 10.53 C
169 07-07-2016 14:00:00 21.7 C 49 % 10.53 C
170 07-07-2016 14:05:00 21.7 C 49 % 10.53 C
171 07-07-2016 14:10:00 21.9 C 51 % 11.31 C
172 07-07-2016 14:15:00 22.1 C 48 % 10.58 C
173 07-07-2016 14:20:00 22.3 C 49 % 11.08 C
174 07-07-2016 14:25:00 22.6 C 49 % 11.35 C
175 07-07-2016 14:30:00 22.7 C 47 % 10.81 C
Sensor: Nr:Datum:Temp:Feuchte:Taupunkt:
Aussen-T/F 176 07-07-2016 14:35:00 22.8 C 52 % 12.43 C
177 07-07-2016 14:40:00 23.1 C 53 % 13 C
178 07-07-2016 14:45:00 23.2 C 48 % 11.59 C
179 07-07-2016 14:50:00 23.5 C 48 % 11.86 C
180 07-07-2016 14:55:00 23.7 C 49 % 12.36 C
181 07-07-2016 15:00:00 23.8 C 46 % 11.49 C
182 07-07-2016 15:05:00 23.8 C 50 % 12.76 C
183 07-07-2016 15:10:00 23.8 C 48 % 12.14 C
184 07-07-2016 15:15:00 23.8 C 49 % 12.45 C
185 07-07-2016 15:20:00 23.8 C 47 % 11.82 C
186 07-07-2016 15:25:00 23.8 C 54 % 13.94 C
187 07-07-2016 15:30:00 23.7 C 49 % 12.36 C
188 07-07-2016 15:35:00 23.7 C 47 % 11.73 C
189 07-07-2016 15:40:00 23.8 C 59 % 15.31 C
190 07-07-2016 15:45:00 23.9 C 51 % 13.15 C
191 07-07-2016 15:50:00 24.1 C 43 % 10.75 C
192 07-07-2016 15:55:00 24.3 C 44 % 11.27 C
193 07-07-2016 16:00:00 24.6 C 52 % 14.09 C
194 07-07-2016 16:05:00 24.7 C 54 % 14.77 C
195 07-07-2016 16:10:00 24.9 C 57 % 15.8 C
196 07-07-2016 16:15:00 25.1 C 53 % 14.85 C
197 07-07-2016 16:20:00 25.2 C 44 % 12.09 C
198 07-07-2016 16:25:00 25.1 C 45 % 12.34 C
199 07-07-2016 16:30:00 24.9 C 58 % 16.07 C
200 07-07-2016 16:35:00 24.8 C 42 % 11.02 C
Sensor: Nr:Datum:Temp:Feuchte:Taupunkt:
Aussen-T/F 201 07-07-2016 16:40:00 24.8 C 57 % 15.7 C
202 07-07-2016 16:45:00 24.9 C 54 % 14.95 C
203 07-07-2016 16:50:00 24.9 C 59 % 16.34 C
204 07-07-2016 16:55:00 24.9 C 63 % 17.37 C
205 07-07-2016 17:00:00 24.9 C 63 % 17.37 C
206 07-07-2016 17:05:00 24.8 C 62 % 17.02 C
207 07-07-2016 17:10:00 24.9 C 66 % 18.11 C
208 07-07-2016 17:15:00 24.9 C 60 % 16.6 C
209 07-07-2016 17:20:00 24.8 C 63 % 17.28 C
210 07-07-2016 17:25:00 24.8 C 61 % 16.77 C
211 07-07-2016 17:30:00 24.8 C 66 % 18.01 C
212 07-07-2016 17:35:00 24.9 C 64 % 17.62 C
213 07-07-2016 17:40:00 25.1 C 61 % 17.05 C
214 07-07-2016 17:45:00 24.9 C 61 % 16.86 C
215 07-07-2016 17:50:00 24.6 C 63 % 17.09 C
216 07-07-2016 17:55:00 24.2 C 63 % 16.71 C
217 07-07-2016 18:00:00 23.8 C 64 % 16.58 C
218 07-07-2016 18:05:00 23.5 C 67 % 17.02 C
219 07-07-2016 18:10:00 23.3 C 68 % 17.06 C
220 07-07-2016 18:15:00 23.3 C 67 % 16.83 C
221 07-07-2016 18:20:00 23.2 C 69 % 17.2 C
222 07-07-2016 18:25:00 23.3 C 70 % 17.52 C
223 07-07-2016 18:30:00 23.4 C 69 % 17.39 C
224 07-07-2016 18:35:00 23.8 C 70 % 18 C
225 07-07-2016 18:40:00 24 C 68 % 17.73 C
Sensor: Nr:Datum:Temp:Feuchte:Taupunkt:
Aussen-T/F 226 07-07-2016 18:45:00 24.1 C 65 % 17.11 C
227 07-07-2016 18:50:00 24.1 C 67 % 17.59 C
228 07-07-2016 18:55:00 23.9 C 67 % 17.4 C
229 07-07-2016 19:00:00 23.7 C 66 % 16.97 C
230 07-07-2016 19:05:00 23.5 C 67 % 17.02 C
231 07-07-2016 19:10:00 23.4 C 68 % 17.16 C
232 07-07-2016 19:15:00 23.6 C 64 % 16.39 C
233 07-07-2016 19:20:00 24 C 67 % 17.49 C
234 07-07-2016 19:25:00 24.4 C 68 % 18.11 C
235 07-07-2016 19:30:00 24.6 C 65 % 17.58 C
236 07-07-2016 19:35:00 24.2 C 64 % 16.96 C
237 07-07-2016 19:40:00 23.6 C 66 % 16.88 C
238 07-07-2016 19:45:00 23.1 C 68 % 16.87 C
239 07-07-2016 19:50:00 22.5 C 69 % 16.53 C
240 07-07-2016 19:55:00 22 C 70 % 16.28 C
241 07-07-2016 20:00:00 21.6 C 71 % 16.12 C
242 07-07-2016 20:05:00 21.3 C 73 % 16.26 C
243 07-07-2016 20:10:00 21.2 C 73 % 16.17 C
244 07-07-2016 20:15:00 21 C 74 % 16.19 C
245 07-07-2016 20:20:00 20.9 C 74 % 16.09 C
246 07-07-2016 20:25:00 20.8 C 75 % 16.21 C
247 07-07-2016 20:30:00 20.8 C 75 % 16.21 C
248 07-07-2016 20:35:00 20.8 C 75 % 16.21 C
249 07-07-2016 20:40:00 20.8 C 74 % 16 C
250 07-07-2016 20:45:00 20.7 C 75 % 16.11 C
Sensor: Nr:Datum:Temp:Feuchte:Taupunkt:
Aussen-T/F 251 07-07-2016 20:50:00 20.5 C 75 % 15.92 C
252 07-07-2016 20:55:00 20.3 C 75 % 15.72 C
253 07-07-2016 21:00:00 20.1 C 76 % 15.74 C
254 07-07-2016 21:05:00 19.8 C 76 % 15.45 C
255 07-07-2016 21:10:00 19.6 C 76 % 15.26 C
256 07-07-2016 21:15:00 19.4 C 77 % 15.27 C
257 07-07-2016 21:20:00 19.3 C 76 % 14.97 C
258 07-07-2016 21:25:00 19.1 C 76 % 14.77 C
259 07-07-2016 21:30:00 19 C 76 % 14.68 C
260 07-07-2016 21:35:00 18.9 C 76 % 14.58 C
261 07-07-2016 21:40:00 18.8 C 77 % 14.68 C
262 07-07-2016 21:45:00 18.7 C 78 % 14.79 C
263 07-07-2016 21:50:00 18.5 C 78 % 14.59 C
264 07-07-2016 21:55:00 18.3 C 79 % 14.6 C
265 07-07-2016 22:00:00 18.1 C 79 % 14.4 C
266 07-07-2016 22:05:00 17.8 C 81 % 14.5 C
267 07-07-2016 22:10:00 17.7 C 81 % 14.4 C
268 07-07-2016 22:15:00 17.6 C 81 % 14.3 C
269 07-07-2016 22:20:00 17.5 C 81 % 14.2 C
270 07-07-2016 22:25:00 17.4 C 82 % 14.3 C
271 07-07-2016 22:30:00 17.2 C 82 % 14.1 C
272 07-07-2016 22:35:00 17.1 C 82 % 14 C
273 07-07-2016 22:40:00 16.9 C 83 % 14 C
274 07-07-2016 22:45:00 16.8 C 83 % 13.9 C
275 07-07-2016 22:50:00 16.7 C 83 % 13.8 C
Sensor: Nr:Datum:Temp:Feuchte:Taupunkt:
Aussen-T/F 276 07-07-2016 22:55:00 16.6 C 84 % 13.89 C
277 07-07-2016 23:00:00 16.5 C 84 % 13.79 C
278 07-07-2016 23:05:00 16.3 C 84 % 13.59 C
279 07-07-2016 23:10:00 16.2 C 85 % 13.68 C
280 07-07-2016 23:15:00 15.9 C 85 % 13.38 C
281 07-07-2016 23:20:00 15.8 C 86 % 13.46 C
282 07-07-2016 23:25:00 15.8 C 86 % 13.46 C
283 07-07-2016 23:30:00 15.7 C 87 % 13.54 C
284 07-07-2016 23:35:00 15.7 C 88 % 13.72 C
285 07-07-2016 23:40:00 15.7 C 88 % 13.72 C
286 07-07-2016 23:45:00 15.6 C 88 % 13.62 C
287 07-07-2016 23:50:00 15.4 C 88 % 13.42 C
288 07-07-2016 23:55:00 15.4 C 88 % 13.42 C
289 08-07-2016 00:00:00 15.3 C 88 % 13.33 C
290 08-07-2016 00:05:00 15.2 C 87 % 13.05 C
291 08-07-2016 00:10:00 15.1 C 88 % 13.13 C
292 08-07-2016 00:15:00 14.9 C 88 % 12.93 C
293 08-07-2016 00:20:00 14.8 C 88 % 12.83 C
294 08-07-2016 00:25:00 14.8 C 88 % 12.83 C
295 08-07-2016 00:30:00 14.7 C 89 % 12.91 C
296 08-07-2016 00:35:00 14.6 C 89 % 12.81 C
297 08-07-2016 00:40:00 14.5 C 89 % 12.71 C
298 08-07-2016 00:45:00 14.4 C 89 % 12.61 C
299 08-07-2016 00:50:00 14.3 C 89 % 12.51 C
300 08-07-2016 00:55:00 14.3 C 89 % 12.51 C
Sensor: Nr:Datum:Temp:Feuchte:Taupunkt:
Aussen-T/F 301 08-07-2016 01:00:00 14.3 C 89 % 12.51 C
302 08-07-2016 01:05:00 14.2 C 89 % 12.41 C
303 08-07-2016 01:10:00 14.2 C 89 % 12.41 C
304 08-07-2016 01:15:00 14.1 C 89 % 12.32 C
305 08-07-2016 01:20:00 14 C 89 % 12.22 C
306 08-07-2016 01:25:00 13.9 C 89 % 12.12 C
307 08-07-2016 01:30:00 13.8 C 89 % 12.02 C
308 08-07-2016 01:35:00 13.8 C 89 % 12.02 C
309 08-07-2016 01:40:00 13.8 C 90 % 12.19 C
310 08-07-2016 01:45:00 13.8 C 90 % 12.19 C
311 08-07-2016 01:50:00 13.8 C 90 % 12.19 C
312 08-07-2016 01:55:00 13.9 C 90 % 12.29 C
313 08-07-2016 02:00:00 13.8 C 90 % 12.19 C
314 08-07-2016 02:05:00 13.8 C 90 % 12.19 C
315 08-07-2016 02:10:00 13.8 C 91 % 12.36 C
316 08-07-2016 02:15:00 13.9 C 91 % 12.46 C
317 08-07-2016 02:20:00 13.9 C 92 % 12.62 C
318 08-07-2016 02:25:00 14 C 92 % 12.72 C
319 08-07-2016 02:30:00 14 C 91 % 12.56 C
320 08-07-2016 02:35:00 13.9 C 91 % 12.46 C
321 08-07-2016 02:40:00 13.9 C 91 % 12.46 C
322 08-07-2016 02:45:00 13.8 C 92 % 12.52 C
323 08-07-2016 02:50:00 13.7 C 91 % 12.26 C
324 08-07-2016 02:55:00 13.6 C 91 % 12.16 C
325 08-07-2016 03:00:00 13.5 C 92 % 12.23 C
Sensor: Nr:Datum:Temp:Feuchte:Taupunkt:
Aussen-T/F 326 08-07-2016 03:05:00 13.4 C 91 % 11.96 C
327 08-07-2016 03:10:00 13.2 C 91 % 11.76 C
328 08-07-2016 03:15:00 13.1 C 92 % 11.83 C
329 08-07-2016 03:20:00 13.1 C 92 % 11.83 C
330 08-07-2016 03:25:00 13.1 C 92 % 11.83 C
331 08-07-2016 03:30:00 13 C 92 % 11.73 C
332 08-07-2016 03:35:00 12.9 C 92 % 11.63 C
333 08-07-2016 03:40:00 12.9 C 92 % 11.63 C
334 08-07-2016 03:45:00 12.8 C 92 % 11.53 C
335 08-07-2016 03:50:00 12.9 C 93 % 11.8 C
336 08-07-2016 03:55:00 12.9 C 93 % 11.8 C
337 08-07-2016 04:00:00 12.8 C 93 % 11.7 C
338 08-07-2016 04:05:00 12.8 C 93 % 11.7 C
339 08-07-2016 04:10:00 12.8 C 93 % 11.7 C
340 08-07-2016 04:15:00 12.8 C 93 % 11.7 C
341 08-07-2016 04:20:00 12.8 C 93 % 11.7 C
342 08-07-2016 04:25:00 12.8 C 93 % 11.7 C
343 08-07-2016 04:30:00 12.8 C 93 % 11.7 C
344 08-07-2016 04:35:00 12.8 C 93 % 11.7 C
345 08-07-2016 04:40:00 12.9 C 94 % 11.96 C
346 08-07-2016 04:45:00 12.9 C 94 % 11.96 C
347 08-07-2016 04:50:00 12.9 C 93 % 11.8 C
348 08-07-2016 04:55:00 12.8 C 93 % 11.7 C
349 08-07-2016 05:00:00 12.7 C 93 % 11.6 C
350 08-07-2016 05:05:00 12.7 C 94 % 11.76 C
Sensor: Nr:Datum:Temp:Feuchte:Taupunkt:
Aussen-T/F 351 08-07-2016 05:10:00 12.8 C 93 % 11.7 C
352 08-07-2016 05:15:00 12.7 C 93 % 11.6 C
353 08-07-2016 05:20:00 12.7 C 93 % 11.6 C
354 08-07-2016 05:25:00 12.6 C 93 % 11.5 C
355 08-07-2016 05:30:00 12.6 C 93 % 11.5 C
356 08-07-2016 05:35:00 12.5 C 93 % 11.4 C
357 08-07-2016 05:40:00 12.5 C 94 % 11.56 C
358 08-07-2016 05:45:00 12.5 C 94 % 11.56 C
359 08-07-2016 05:50:00 12.4 C 94 % 11.46 C
360 08-07-2016 05:55:00 12.5 C 94 % 11.56 C
361 08-07-2016 06:00:00 12.6 C 94 % 11.66 C
362 08-07-2016 06:05:00 12.7 C 94 % 11.76 C
363 08-07-2016 06:10:00 12.7 C 94 % 11.76 C
364 08-07-2016 06:15:00 12.7 C 94 % 11.76 C
365 08-07-2016 06:20:00 12.7 C 94 % 11.76 C
366 08-07-2016 06:25:00 12.7 C 94 % 11.76 C
367 08-07-2016 06:30:00 12.8 C 95 % 12.02 C
368 08-07-2016 06:35:00 12.9 C 95 % 12.12 C
369 08-07-2016 06:40:00 12.9 C 95 % 12.12 C
370 08-07-2016 06:45:00 13 C 94 % 12.06 C
371 08-07-2016 06:50:00 13 C 94 % 12.06 C
372 08-07-2016 06:55:00 13 C 94 % 12.06 C
373 08-07-2016 07:00:00 13 C 94 % 12.06 C
374 08-07-2016 07:05:00 13 C 94 % 12.06 C
375 08-07-2016 07:10:00 12.9 C 94 % 11.96 C
Sensor: Nr:Datum:Temp:Feuchte:Taupunkt:
Aussen-T/F 376 08-07-2016 07:15:00 13 C 94 % 12.06 C
377 08-07-2016 07:20:00 13 C 94 % 12.06 C
378 08-07-2016 07:25:00 13.1 C 94 % 12.16 C
379 08-07-2016 07:30:00 13.1 C 94 % 12.16 C
380 08-07-2016 07:35:00 13.2 C 94 % 12.26 C
381 08-07-2016 07:40:00 13.2 C 94 % 12.26 C
382 08-07-2016 07:45:00 13.3 C 94 % 12.36 C
383 08-07-2016 07:50:00 13.3 C 94 % 12.36 C
384 08-07-2016 07:55:00 13.4 C 94 % 12.45 C
385 08-07-2016 08:00:00 13.6 C 94 % 12.65 C
386 08-07-2016 08:05:00 13.7 C 94 % 12.75 C
387 08-07-2016 08:10:00 13.8 C 94 % 12.85 C
388 08-07-2016 08:15:00 13.9 C 94 % 12.95 C
389 08-07-2016 08:20:00 14.1 C 94 % 13.15 C
390 08-07-2016 08:25:00 14.3 C 94 % 13.35 C
391 08-07-2016 08:30:00 14.4 C 94 % 13.45 C
392 08-07-2016 08:35:00 14.6 C 93 % 13.48 C
393 08-07-2016 08:40:00 14.8 C 93 % 13.68 C
394 08-07-2016 08:45:00 14.9 C 93 % 13.78 C
395 08-07-2016 08:50:00 15.1 C 93 % 13.98 C
396 08-07-2016 08:55:00 15.2 C 92 % 13.91 C
397 08-07-2016 09:00:00 15.4 C 91 % 13.94 C
398 08-07-2016 09:05:00 15.6 C 91 % 14.14 C
399 08-07-2016 09:10:00 15.7 C 91 % 14.24 C
400 08-07-2016 09:15:00 15.8 C 91 % 14.33 C
Sensor: Nr:Datum:Temp:Feuchte:Taupunkt:
Aussen-T/F 401 08-07-2016 09:20:00 15.9 C 91 % 14.43 C
402 08-07-2016 09:25:00 16 C 91 % 14.53 C
403 08-07-2016 09:30:00 16.2 C 91 % 14.73 C
404 08-07-2016 09:35:00 16.3 C 91 % 14.83 C
405 08-07-2016 09:40:00 16.4 C 91 % 14.93 C
406 08-07-2016 09:45:00 16.6 C 91 % 15.13 C
407 08-07-2016 09:50:00 16.8 C 91 % 15.32 C
408 08-07-2016 09:55:00 17.1 C 91 % 15.62 C
409 08-07-2016 10:00:00 17.3 C 91 % 15.82 C
410 08-07-2016 10:05:00 17.6 C 90 % 15.94 C
411 08-07-2016 10:10:00 17.8 C 90 % 16.14 C
412 08-07-2016 10:15:00 18.2 C 89 % 16.36 C
413 08-07-2016 10:20:00 18.5 C 89 % 16.65 C
414 08-07-2016 10:25:00 18.8 C 89 % 16.95 C
415 08-07-2016 10:30:00 19.1 C 88 % 17.07 C
416 08-07-2016 10:35:00 19.4 C 88 % 17.36 C
417 08-07-2016 10:40:00 19.8 C 87 % 17.57 C
418 08-07-2016 10:45:00 20.2 C 83 % 17.22 C
419 08-07-2016 10:50:00 20.7 C 80 % 17.13 C
420 08-07-2016 10:55:00 21 C 81 % 17.61 C
421 08-07-2016 11:00:00 21.2 C 78 % 17.21 C
422 08-07-2016 11:05:00 21.4 C 73 % 16.36 C
423 08-07-2016 11:10:00 21.7 C 71 % 16.21 C
424 08-07-2016 11:15:00 22 C 73 % 16.94 C
425 08-07-2016 11:20:00 22.2 C 71 % 16.69 C
Sensor: Nr:Datum:Temp:Feuchte:Taupunkt:
Aussen-T/F 426 08-07-2016 11:25:00 22.4 C 66 % 15.74 C
427 08-07-2016 11:30:00 22.7 C 71 % 17.17 C
428 08-07-2016 11:35:00 22.9 C 69 % 16.91 C
429 08-07-2016 11:40:00 23.1 C 67 % 16.64 C
430 08-07-2016 11:45:00 23.2 C 69 % 17.2 C
431 08-07-2016 11:50:00 23.3 C 69 % 17.29 C
432 08-07-2016 11:55:00 23.2 C 67 % 16.73 C
433 08-07-2016 12:00:00 23.2 C 66 % 16.5 C
434 08-07-2016 12:05:00 23.2 C 67 % 16.73 C
435 08-07-2016 12:10:00 23.3 C 68 % 17.06 C
436 08-07-2016 12:15:00 23.4 C 68 % 17.16 C
437 08-07-2016 12:20:00 23.5 C 65 % 16.54 C
438 08-07-2016 12:25:00 23.8 C 68 % 17.54 C
439 08-07-2016 12:30:00 24.1 C 62 % 16.37 C
440 08-07-2016 12:35:00 24.4 C 62 % 16.65 C
441 08-07-2016 12:40:00 24.6 C 60 % 16.32 C
442 08-07-2016 12:45:00 24.8 C 60 % 16.51 C
443 08-07-2016 12:50:00 25 C 64 % 17.72 C
444 08-07-2016 12:55:00 25.1 C 63 % 17.56 C
445 08-07-2016 13:00:00 25.1 C 63 % 17.56 C
446 08-07-2016 13:05:00 25.2 C 61 % 17.14 C
447 08-07-2016 13:10:00 25.2 C 60 % 16.88 C
448 08-07-2016 13:15:00 25.3 C 62 % 17.5 C
449 08-07-2016 13:20:00 25.4 C 64 % 18.09 C
450 08-07-2016 13:25:00 25.3 C 64 % 18 C
Sensor: Nr:Datum:Temp:Feuchte:Taupunkt:
Aussen-T/F 451 08-07-2016 13:30:00 25.3 C 67 % 18.73 C
452 08-07-2016 13:35:00 25.2 C 61 % 17.14 C
453 08-07-2016 13:40:00 25.2 C 68 % 18.87 C
454 08-07-2016 13:45:00 25.2 C 68 % 18.87 C
455 08-07-2016 13:50:00 25.2 C 64 % 17.9 C
456 08-07-2016 13:55:00 25.4 C 59 % 16.81 C
457 08-07-2016 14:00:00 25.6 C 68 % 19.25 C
458 08-07-2016 14:05:00 25.7 C 63 % 18.13 C
459 08-07-2016 14:10:00 25.9 C 62 % 18.06 C
460 08-07-2016 14:15:00 26.1 C 57 % 16.92 C
461 08-07-2016 14:20:00 26.2 C 54 % 16.16 C
462 08-07-2016 14:25:00 26.2 C 58 % 17.28 C
463 08-07-2016 14:30:00 26.1 C 56 % 16.64 C
464 08-07-2016 14:35:00 26 C 56 % 16.54 C
465 08-07-2016 14:40:00 25.9 C 59 % 17.27 C
466 08-07-2016 14:45:00 25.8 C 54 % 15.79 C
467 08-07-2016 14:50:00 25.7 C 60 % 17.35 C
468 08-07-2016 14:55:00 25.4 C 59 % 16.81 C
469 08-07-2016 15:00:00 25.3 C 62 % 17.5 C
470 08-07-2016 15:05:00 25.1 C 64 % 17.81 C
471 08-07-2016 15:10:00 24.8 C 65 % 17.77 C
472 08-07-2016 15:15:00 24.6 C 67 % 18.06 C
473 08-07-2016 15:20:00 24.4 C 68 % 18.11 C
474 08-07-2016 15:25:00 24.4 C 62 % 16.65 C
475 08-07-2016 15:30:00 24.4 C 62 % 16.65 C
Sensor: Nr:Datum:Temp:Feuchte:Taupunkt:
Aussen-T/F 476 08-07-2016 15:35:00 24.4 C 65 % 17.39 C
477 08-07-2016 15:40:00 24.3 C 66 % 17.54 C
478 08-07-2016 15:45:00 24.1 C 69 % 18.06 C
479 08-07-2016 15:50:00 23.7 C 65 % 16.73 C
480 08-07-2016 15:55:00 23.5 C 66 % 16.78 C
481 08-07-2016 16:00:00 23.4 C 67 % 16.92 C
482 08-07-2016 16:05:00 23.3 C 70 % 17.52 C
483 08-07-2016 16:10:00 23.3 C 67 % 16.83 C
484 08-07-2016 16:15:00 23.3 C 65 % 16.35 C
485 08-07-2016 16:20:00 23.4 C 68 % 17.16 C
486 08-07-2016 16:25:00 23.5 C 69 % 17.48 C
487 08-07-2016 16:30:00 23.6 C 67 % 17.11 C
488 08-07-2016 16:35:00 23.7 C 67 % 17.21 C
489 08-07-2016 16:40:00 23.7 C 67 % 17.21 C
490 08-07-2016 16:45:00 23.7 C 64 % 16.49 C
491 08-07-2016 16:50:00 23.7 C 68 % 17.44 C
492 08-07-2016 16:55:00 23.6 C 69 % 17.58 C
493 08-07-2016 17:00:00 23.4 C 70 % 17.62 C
494 08-07-2016 17:05:00 23.3 C 68 % 17.06 C
495 08-07-2016 17:10:00 23.4 C 73 % 18.28 C
496 08-07-2016 17:15:00 23.6 C 73 % 18.48 C
497 08-07-2016 17:20:00 23.9 C 71 % 18.32 C
498 08-07-2016 17:25:00 24.1 C 68 % 17.82 C
499 08-07-2016 17:30:00 24.2 C 68 % 17.92 C
500 08-07-2016 17:35:00 24.1 C 70 % 18.29 C
Sensor: Nr:Datum:Temp:Feuchte:Taupunkt:
Aussen-T/F 501 08-07-2016 17:40:00 23.8 C 70 % 18 C
502 08-07-2016 17:45:00 23.4 C 71 % 17.84 C
503 08-07-2016 17:50:00 23.2 C 72 % 17.87 C
504 08-07-2016 17:55:00 23 C 75 % 18.33 C
505 08-07-2016 18:00:00 22.8 C 75 % 18.14 C
506 08-07-2016 18:05:00 22.6 C 75 % 17.94 C
507 08-07-2016 18:10:00 22.4 C 77 % 18.17 C
508 08-07-2016 18:15:00 22.3 C 77 % 18.07 C
509 08-07-2016 18:20:00 22.2 C 76 % 17.77 C
510 08-07-2016 18:25:00 22.2 C 77 % 17.98 C
511 08-07-2016 18:30:00 22.1 C 77 % 17.88 C
512 08-07-2016 18:35:00 22.1 C 76 % 17.67 C
513 08-07-2016 18:40:00 22.1 C 76 % 17.67 C
514 08-07-2016 18:45:00 22.1 C 77 % 17.88 C
515 08-07-2016 18:50:00 22.1 C 76 % 17.67 C
516 08-07-2016 18:55:00 22.1 C 77 % 17.88 C
517 08-07-2016 19:00:00 22.1 C 77 % 17.88 C
518 08-07-2016 19:05:00 22.2 C 79 % 18.38 C
519 08-07-2016 19:10:00 22.2 C 79 % 18.38 C
520 08-07-2016 19:15:00 22.3 C 78 % 18.28 C
521 08-07-2016 19:20:00 22.3 C 78 % 18.28 C
522 08-07-2016 19:25:00 22.4 C 79 % 18.58 C
523 08-07-2016 19:30:00 22.4 C 78 % 18.37 C
524 08-07-2016 19:35:00 22.3 C 77 % 18.07 C
525 08-07-2016 19:40:00 22.3 C 77 % 18.07 C
Sensor: Nr:Datum:Temp:Feuchte:Taupunkt:
Aussen-T/F 526 08-07-2016 19:45:00 22.3 C 77 % 18.07 C
527 08-07-2016 19:50:00 22.2 C 77 % 17.98 C
528 08-07-2016 19:55:00 22.2 C 77 % 17.98 C
529 08-07-2016 20:00:00 22.2 C 78 % 18.18 C
530 08-07-2016 20:05:00 22.2 C 78 % 18.18 C
531 08-07-2016 20:10:00 22.1 C 78 % 18.08 C
532 08-07-2016 20:15:00 22.1 C 78 % 18.08 C
533 08-07-2016 20:20:00 22 C 78 % 17.99 C
534 08-07-2016 20:25:00 21.9 C 79 % 18.09 C
535 08-07-2016 20:30:00 22.1 C 79 % 18.29 C
536 08-07-2016 20:35:00 22.2 C 79 % 18.38 C
537 08-07-2016 20:40:00 22.2 C 78 % 18.18 C
538 08-07-2016 20:45:00 22.2 C 77 % 17.98 C
539 08-07-2016 20:50:00 22.1 C 77 % 17.88 C
540 08-07-2016 20:55:00 21.9 C 77 % 17.68 C
541 08-07-2016 21:00:00 21.8 C 78 % 17.79 C
542 08-07-2016 21:05:00 21.7 C 78 % 17.7 C
543 08-07-2016 21:10:00 21.6 C 77 % 17.39 C
544 08-07-2016 21:15:00 21.6 C 78 % 17.6 C
545 08-07-2016 21:20:00 21.5 C 78 % 17.5 C
546 08-07-2016 21:25:00 21.4 C 76 % 16.99 C
547 08-07-2016 21:30:00 21.3 C 78 % 17.31 C
548 08-07-2016 21:35:00 21.2 C 77 % 17.01 C
549 08-07-2016 21:40:00 21.1 C 75 % 16.5 C
550 08-07-2016 21:45:00 21.1 C 75 % 16.5 C
Sensor: Nr:Datum:Temp:Feuchte:Taupunkt:
Aussen-T/F 551 08-07-2016 21:50:00 21 C 76 % 16.61 C
552 08-07-2016 21:55:00 20.9 C 77 % 16.72 C
553 08-07-2016 22:00:00 20.8 C 78 % 16.82 C
554 08-07-2016 22:05:00 20.6 C 78 % 16.63 C
555 08-07-2016 22:10:00 20.3 C 79 % 16.54 C
556 08-07-2016 22:15:00 20.2 C 79 % 16.44 C
557 08-07-2016 22:20:00 20 C 80 % 16.44 C
558 08-07-2016 22:25:00 19.8 C 79 % 16.05 C
559 08-07-2016 22:30:00 19.9 C 79 % 16.15 C
560 08-07-2016 22:35:00 19.9 C 80 % 16.35 C
561 08-07-2016 22:40:00 19.8 C 80 % 16.25 C
562 08-07-2016 22:45:00 19.7 C 79 % 15.96 C
563 08-07-2016 22:50:00 19.8 C 80 % 16.25 C
564 08-07-2016 22:55:00 19.8 C 79 % 16.05 C
565 08-07-2016 23:00:00 19.8 C 80 % 16.25 C
566 08-07-2016 23:05:00 19.7 C 80 % 16.15 C
567 08-07-2016 23:10:00 19.5 C 81 % 16.15 C
568 08-07-2016 23:15:00 19.3 C 81 % 15.96 C
569 08-07-2016 23:20:00 19.3 C 82 % 16.15 C
570 08-07-2016 23:25:00 19.2 C 82 % 16.05 C
571 08-07-2016 23:30:00 19.2 C 82 % 16.05 C
572 08-07-2016 23:35:00 19.1 C 83 % 16.15 C
573 08-07-2016 23:40:00 19 C 83 % 16.05 C
574 08-07-2016 23:45:00 18.9 C 83 % 15.95 C
575 08-07-2016 23:50:00 18.9 C 83 % 15.95 C
Sensor: Nr:Datum:Temp:Feuchte:Taupunkt:
Aussen-T/F 576 08-07-2016 23:55:00 18.8 C 83 % 15.85 C
577 09-07-2016 00:00:00 18.8 C 83 % 15.85 C
578 09-07-2016 00:05:00 18.7 C 83 % 15.75 C
579 09-07-2016 00:10:00 18.7 C 84 % 15.94 C
580 09-07-2016 00:15:00 18.7 C 84 % 15.94 C
581 09-07-2016 00:20:00 18.7 C 84 % 15.94 C
582 09-07-2016 00:25:00 18.6 C 84 % 15.84 C
583 09-07-2016 00:30:00 18.5 C 84 % 15.75 C
584 09-07-2016 00:35:00 18.4 C 84 % 15.65 C
585 09-07-2016 00:40:00 18.3 C 84 % 15.55 C
586 09-07-2016 00:45:00 18.2 C 84 % 15.45 C
587 09-07-2016 00:50:00 18.1 C 85 % 15.54 C
588 09-07-2016 00:55:00 18 C 85 % 15.44 C
589 09-07-2016 01:00:00 17.9 C 85 % 15.34 C
590 09-07-2016 01:05:00 17.9 C 86 % 15.53 C
591 09-07-2016 01:10:00 17.9 C 85 % 15.34 C
592 09-07-2016 01:15:00 17.9 C 85 % 15.34 C
593 09-07-2016 01:20:00 17.9 C 85 % 15.34 C
594 09-07-2016 01:25:00 17.9 C 86 % 15.53 C
595 09-07-2016 01:30:00 17.9 C 86 % 15.53 C
596 09-07-2016 01:35:00 17.9 C 86 % 15.53 C
597 09-07-2016 01:40:00 17.9 C 86 % 15.53 C
598 09-07-2016 01:45:00 17.8 C 85 % 15.25 C
599 09-07-2016 01:50:00 17.7 C 85 % 15.15 C
600 09-07-2016 01:55:00 17.7 C 85 % 15.15 C
Sensor: Nr:Datum:Temp:Feuchte:Taupunkt:
Aussen-T/F 601 09-07-2016 02:00:00 17.7 C 85 % 15.15 C
602 09-07-2016 02:05:00 17.6 C 86 % 15.23 C
603 09-07-2016 02:10:00 17.6 C 86 % 15.23 C
604 09-07-2016 02:15:00 17.6 C 86 % 15.23 C
605 09-07-2016 02:20:00 17.5 C 87 % 15.31 C
606 09-07-2016 02:25:00 17.4 C 86 % 15.03 C
607 09-07-2016 02:30:00 17.3 C 86 % 14.94 C
608 09-07-2016 02:35:00 17.3 C 87 % 15.12 C
609 09-07-2016 02:40:00 17.3 C 87 % 15.12 C
610 09-07-2016 02:45:00 17.3 C 87 % 15.12 C
611 09-07-2016 02:50:00 17.2 C 88 % 15.2 C
612 09-07-2016 02:55:00 17.3 C 88 % 15.29 C
613 09-07-2016 03:00:00 17.3 C 88 % 15.29 C
614 09-07-2016 03:05:00 17.3 C 88 % 15.29 C
615 09-07-2016 03:10:00 17.3 C 87 % 15.12 C
616 09-07-2016 03:15:00 17.2 C 86 % 14.84 C
617 09-07-2016 03:20:00 17.3 C 86 % 14.94 C
618 09-07-2016 03:25:00 17.3 C 86 % 14.94 C
619 09-07-2016 03:30:00 17.3 C 86 % 14.94 C
620 09-07-2016 03:35:00 17.3 C 86 % 14.94 C
621 09-07-2016 03:40:00 17.4 C 85 % 14.85 C
622 09-07-2016 03:45:00 17.4 C 85 % 14.85 C
623 09-07-2016 03:50:00 17.4 C 85 % 14.85 C
624 09-07-2016 03:55:00 17.4 C 85 % 14.85 C
625 09-07-2016 04:00:00 17.4 C 85 % 14.85 C
Sensor: Nr:Datum:Temp:Feuchte:Taupunkt:
Aussen-T/F 626 09-07-2016 04:05:00 17.4 C 85 % 14.85 C
627 09-07-2016 04:10:00 17.4 C 86 % 15.03 C
628 09-07-2016 04:15:00 17.3 C 86 % 14.94 C
629 09-07-2016 04:20:00 17.3 C 86 % 14.94 C
630 09-07-2016 04:25:00 17.3 C 86 % 14.94 C
631 09-07-2016 04:30:00 17.2 C 86 % 14.84 C
632 09-07-2016 04:35:00 17.2 C 86 % 14.84 C
633 09-07-2016 04:40:00 17.2 C 86 % 14.84 C
634 09-07-2016 04:45:00 17.2 C 86 % 14.84 C
635 09-07-2016 04:50:00 17.2 C 86 % 14.84 C
636 09-07-2016 04:55:00 17.2 C 86 % 14.84 C
637 09-07-2016 05:00:00 17.2 C 86 % 14.84 C
638 09-07-2016 05:05:00 17.2 C 86 % 14.84 C
639 09-07-2016 05:10:00 17.2 C 86 % 14.84 C
640 09-07-2016 05:15:00 17.2 C 86 % 14.84 C
641 09-07-2016 05:20:00 17.2 C 87 % 15.02 C
642 09-07-2016 05:25:00 17.2 C 86 % 14.84 C
643 09-07-2016 05:30:00 17.2 C 87 % 15.02 C
644 09-07-2016 05:35:00 17.2 C 87 % 15.02 C
645 09-07-2016 05:40:00 17.2 C 87 % 15.02 C
646 09-07-2016 05:45:00 17.2 C 87 % 15.02 C
647 09-07-2016 05:50:00 17.2 C 87 % 15.02 C
648 09-07-2016 05:55:00 17.2 C 87 % 15.02 C
649 09-07-2016 06:00:00 17.2 C 87 % 15.02 C
650 09-07-2016 06:05:00 17.3 C 88 % 15.29 C
Sensor: Nr:Datum:Temp:Feuchte:Taupunkt:
Aussen-T/F 651 09-07-2016 06:10:00 17.3 C 88 % 15.29 C
652 09-07-2016 06:15:00 17.3 C 88 % 15.29 C
653 09-07-2016 06:20:00 17.3 C 87 % 15.12 C
654 09-07-2016 06:25:00 17.3 C 87 % 15.12 C
655 09-07-2016 06:30:00 17.4 C 88 % 15.39 C
656 09-07-2016 06:35:00 17.4 C 88 % 15.39 C
657 09-07-2016 06:40:00 17.4 C 87 % 15.21 C
658 09-07-2016 06:45:00 17.5 C 87 % 15.31 C
659 09-07-2016 06:50:00 17.6 C 86 % 15.23 C
660 09-07-2016 06:55:00 17.7 C 86 % 15.33 C
661 09-07-2016 07:00:00 17.7 C 86 % 15.33 C
662 09-07-2016 07:05:00 17.8 C 86 % 15.43 C
663 09-07-2016 07:10:00 17.8 C 85 % 15.25 C
664 09-07-2016 07:15:00 17.9 C 85 % 15.34 C
665 09-07-2016 07:20:00 18.1 C 84 % 15.35 C
666 09-07-2016 07:25:00 18.2 C 84 % 15.45 C
667 09-07-2016 07:30:00 18.2 C 84 % 15.45 C
668 09-07-2016 07:35:00 18.2 C 84 % 15.45 C
669 09-07-2016 07:40:00 18.3 C 84 % 15.55 C
670 09-07-2016 07:45:00 18.3 C 85 % 15.74 C
671 09-07-2016 07:50:00 18.3 C 85 % 15.74 C
672 09-07-2016 07:55:00 18.3 C 85 % 15.74 C
673 09-07-2016 08:00:00 18.3 C 86 % 15.92 C
674 09-07-2016 08:05:00 18.3 C 85 % 15.74 C
675 09-07-2016 08:10:00 18.4 C 85 % 15.83 C
Sensor: Nr:Datum:Temp:Feuchte:Taupunkt:
Aussen-T/F 676 09-07-2016 08:15:00 18.5 C 85 % 15.93 C
677 09-07-2016 08:20:00 18.7 C 85 % 16.13 C
678 09-07-2016 08:25:00 18.8 C 84 % 16.04 C
679 09-07-2016 08:30:00 18.8 C 84 % 16.04 C
680 09-07-2016 08:35:00 18.9 C 85 % 16.32 C
681 09-07-2016 08:40:00 19 C 83 % 16.05 C
682 09-07-2016 08:45:00 19.1 C 84 % 16.33 C
683 09-07-2016 08:50:00 19.2 C 83 % 16.24 C
684 09-07-2016 08:55:00 19.3 C 82 % 16.15 C
685 09-07-2016 09:00:00 19.4 C 81 % 16.06 C
686 09-07-2016 09:05:00 19.6 C 81 % 16.25 C
687 09-07-2016 09:10:00 19.7 C 79 % 15.96 C
688 09-07-2016 09:15:00 19.8 C 80 % 16.25 C
689 09-07-2016 09:20:00 19.9 C 80 % 16.35 C
690 09-07-2016 09:25:00 20 C 78 % 16.05 C
691 09-07-2016 09:30:00 20.1 C 78 % 16.14 C
692 09-07-2016 09:35:00 20.1 C 78 % 16.14 C
693 09-07-2016 09:40:00 20.1 C 79 % 16.34 C
694 09-07-2016 09:45:00 20.2 C 77 % 16.04 C
695 09-07-2016 09:50:00 20.3 C 77 % 16.14 C
696 09-07-2016 09:55:00 20.6 C 78 % 16.63 C
697 09-07-2016 10:00:00 20.6 C 75 % 16.01 C
698 09-07-2016 10:05:00 20.6 C 76 % 16.22 C
699 09-07-2016 10:10:00 20.6 C 76 % 16.22 C
700 09-07-2016 10:15:00 20.8 C 76 % 16.41 C
Sensor: Nr:Datum:Temp:Feuchte:Taupunkt:
Aussen-T/F 701 09-07-2016 10:20:00 21.1 C 75 % 16.5 C
702 09-07-2016 10:25:00 21.2 C 73 % 16.17 C
703 09-07-2016 10:30:00 21.2 C 73 % 16.17 C
704 09-07-2016 10:35:00 21.3 C 74 % 16.48 C
705 09-07-2016 10:40:00 21.3 C 73 % 16.26 C
706 09-07-2016 10:45:00 21.5 C 72 % 16.24 C
707 09-07-2016 10:50:00 21.5 C 74 % 16.67 C
708 09-07-2016 10:55:00 21.5 C 73 % 16.46 C
709 09-07-2016 11:00:00 21.5 C 72 % 16.24 C
710 09-07-2016 11:05:00 21.7 C 72 % 16.43 C
711 09-07-2016 11:10:00 21.8 C 73 % 16.75 C
712 09-07-2016 11:15:00 21.9 C 70 % 16.18 C
713 09-07-2016 11:20:00 22 C 74 % 17.15 C
714 09-07-2016 11:25:00 21.9 C 70 % 16.18 C
715 09-07-2016 11:30:00 21.8 C 70 % 16.09 C
716 09-07-2016 11:35:00 21.7 C 70 % 15.99 C
717 09-07-2016 11:40:00 21.7 C 72 % 16.43 C
718 09-07-2016 11:45:00 21.8 C 72 % 16.53 C
719 09-07-2016 11:50:00 21.9 C 71 % 16.4 C
720 09-07-2016 11:55:00 22.1 C 72 % 16.82 C
721 09-07-2016 12:00:00 22.1 C 71 % 16.6 C
722 09-07-2016 12:05:00 22.2 C 69 % 16.24 C
723 09-07-2016 12:10:00 22.2 C 68 % 16.01 C
724 09-07-2016 12:15:00 22.2 C 72 % 16.91 C
725 09-07-2016 12:20:00 22.2 C 68 % 16.01 C
Sensor: Nr:Datum:Temp:Feuchte:Taupunkt:
Aussen-T/F 726 09-07-2016 12:25:00 22.3 C 70 % 16.56 C
727 09-07-2016 12:30:00 22.5 C 68 % 16.3 C
728 09-07-2016 12:35:00 22.6 C 67 % 16.16 C
729 09-07-2016 12:40:00 22.8 C 69 % 16.82 C
730 09-07-2016 12:45:00 23.1 C 68 % 16.87 C
731 09-07-2016 12:50:00 23.2 C 67 % 16.73 C
732 09-07-2016 12:55:00 23.2 C 66 % 16.5 C
733 09-07-2016 13:00:00 23.2 C 69 % 17.2 C
734 09-07-2016 13:05:00 23.1 C 69 % 17.1 C
735 09-07-2016 13:10:00 23.1 C 72 % 17.78 C
736 09-07-2016 13:15:00 23.1 C 69 % 17.1 C
737 09-07-2016 13:20:00 23.2 C 65 % 16.26 C
738 09-07-2016 13:25:00 23.3 C 66 % 16.59 C
739 09-07-2016 13:30:00 23.5 C 65 % 16.54 C
740 09-07-2016 13:35:00 23.6 C 63 % 16.14 C
741 09-07-2016 13:40:00 23.7 C 64 % 16.49 C
742 09-07-2016 13:45:00 23.7 C 63 % 16.24 C
743 09-07-2016 13:50:00 23.7 C 64 % 16.49 C
744 09-07-2016 13:55:00 23.8 C 66 % 17.07 C
745 09-07-2016 14:00:00 23.8 C 65 % 16.83 C
746 09-07-2016 14:05:00 23.8 C 61 % 15.83 C
747 09-07-2016 14:10:00 23.8 C 64 % 16.58 C
748 09-07-2016 14:15:00 23.8 C 66 % 17.07 C
749 09-07-2016 14:20:00 23.9 C 63 % 16.43 C
750 09-07-2016 14:25:00 24.2 C 64 % 16.96 C
Sensor: Nr:Datum:Temp:Feuchte:Taupunkt:
Aussen-T/F 751 09-07-2016 14:30:00 24.3 C 64 % 17.05 C
752 09-07-2016 14:35:00 24.3 C 65 % 17.3 C
753 09-07-2016 14:40:00 24.3 C 66 % 17.54 C
754 09-07-2016 14:45:00 24.4 C 66 % 17.64 C
755 09-07-2016 14:50:00 24.4 C 65 % 17.39 C
756 09-07-2016 14:55:00 24.4 C 65 % 17.39 C
757 09-07-2016 15:00:00 24.7 C 63 % 17.18 C
758 09-07-2016 15:05:00 24.8 C 64 % 17.53 C
759 09-07-2016 15:10:00 24.9 C 61 % 16.86 C
760 09-07-2016 15:15:00 25.1 C 61 % 17.05 C
761 09-07-2016 15:20:00 25.5 C 58 % 16.63 C
762 09-07-2016 15:25:00 25.8 C 58 % 16.91 C
763 09-07-2016 15:30:00 26.1 C 58 % 17.19 C
764 09-07-2016 15:35:00 26.3 C 59 % 17.65 C
765 09-07-2016 15:40:00 26.7 C 56 % 17.19 C
766 09-07-2016 15:45:00 26.9 C 55 % 17.09 C
767 09-07-2016 15:50:00 26.7 C 57 % 17.47 C
768 09-07-2016 15:55:00 26.4 C 58 % 17.47 C
769 09-07-2016 16:00:00 26.1 C 62 % 18.25 C
770 09-07-2016 16:05:00 25.9 C 65 % 18.81 C
771 09-07-2016 16:10:00 25.6 C 64 % 18.28 C
772 09-07-2016 16:15:00 25.4 C 70 % 19.53 C
773 09-07-2016 16:20:00 25.5 C 66 % 18.68 C
774 09-07-2016 16:25:00 25.5 C 64 % 18.19 C
775 09-07-2016 16:30:00 25.5 C 65 % 18.44 C
Sensor: Nr:Datum:Temp:Feuchte:Taupunkt:
Aussen-T/F 776 09-07-2016 16:35:00 25.4 C 69 % 19.3 C
777 09-07-2016 16:40:00 25.6 C 61 % 17.52 C
778 09-07-2016 16:45:00 25.7 C 62 % 17.87 C
779 09-07-2016 16:50:00 25.5 C 63 % 17.94 C
780 09-07-2016 16:55:00 25.4 C 64 % 18.09 C
781 09-07-2016 17:00:00 25.9 C 60 % 17.54 C
782 09-07-2016 17:05:00 26.2 C 59 % 17.55 C
783 09-07-2016 17:10:00 26.4 C 63 % 18.79 C
784 09-07-2016 17:15:00 26.4 C 64 % 19.04 C
785 09-07-2016 17:20:00 26.3 C 63 % 18.69 C
786 09-07-2016 17:25:00 26 C 66 % 19.15 C
787 09-07-2016 17:30:00 25.7 C 67 % 19.11 C
788 09-07-2016 17:35:00 25.6 C 71 % 19.95 C
789 09-07-2016 17:40:00 25.9 C 61 % 17.8 C
790 09-07-2016 17:45:00 26.6 C 58 % 17.66 C
791 09-07-2016 17:50:00 27.2 C 55 % 17.37 C
792 09-07-2016 17:55:00 27.6 C 58 % 18.59 C
793 09-07-2016 18:00:00 27.5 C 60 % 19.04 C
794 09-07-2016 18:05:00 27.3 C 62 % 19.38 C
795 09-07-2016 18:10:00 27.1 C 62 % 19.19 C
796 09-07-2016 18:15:00 26.9 C 64 % 19.51 C
797 09-07-2016 18:20:00 26.7 C 65 % 19.57 C
798 09-07-2016 18:25:00 26.3 C 65 % 19.19 C
799 09-07-2016 18:30:00 26 C 69 % 19.87 C
800 09-07-2016 18:35:00 25.7 C 69 % 19.58 C
Sensor: Nr:Datum:Temp:Feuchte:Taupunkt:
Aussen-T/F 801 09-07-2016 18:40:00 25.5 C 71 % 19.85 C
802 09-07-2016 18:45:00 25.4 C 71 % 19.76 C
803 09-07-2016 18:50:00 25.3 C 71 % 19.66 C
804 09-07-2016 18:55:00 25.1 C 72 % 19.69 C
805 09-07-2016 19:00:00 24.8 C 72 % 19.41 C
806 09-07-2016 19:05:00 24.5 C 73 % 19.34 C
807 09-07-2016 19:10:00 24.4 C 73 % 19.24 C
808 09-07-2016 19:15:00 24.8 C 71 % 19.18 C
809 09-07-2016 19:20:00 25.2 C 70 % 19.34 C
810 09-07-2016 19:25:00 25.1 C 68 % 18.78 C
811 09-07-2016 19:30:00 24.8 C 69 % 18.72 C
812 09-07-2016 19:35:00 24.7 C 72 % 19.31 C
813 09-07-2016 19:40:00 24.7 C 71 % 19.09 C
814 09-07-2016 19:45:00 24.6 C 72 % 19.21 C
815 09-07-2016 19:50:00 24.6 C 71 % 18.99 C
816 09-07-2016 19:55:00 24.6 C 71 % 18.99 C
817 09-07-2016 20:00:00 24.7 C 72 % 19.31 C
818 09-07-2016 20:05:00 24.8 C 71 % 19.18 C
819 09-07-2016 20:10:00 24.8 C 71 % 19.18 C
820 09-07-2016 20:15:00 24.7 C 70 % 18.86 C
821 09-07-2016 20:20:00 24.6 C 71 % 18.99 C
822 09-07-2016 20:25:00 24.5 C 72 % 19.12 C
823 09-07-2016 20:30:00 24.4 C 71 % 18.8 C
824 09-07-2016 20:35:00 24.3 C 71 % 18.7 C
825 09-07-2016 20:40:00 24.2 C 72 % 18.83 C
Sensor: Nr:Datum:Temp:Feuchte:Taupunkt:
Aussen-T/F 826 09-07-2016 20:45:00 23.9 C 72 % 18.54 C
827 09-07-2016 20:50:00 23.6 C 72 % 18.26 C
828 09-07-2016 20:55:00 23.3 C 73 % 18.19 C
829 09-07-2016 21:00:00 23.1 C 73 % 17.99 C
830 09-07-2016 21:05:00 22.8 C 74 % 17.92 C
831 09-07-2016 21:10:00 22.5 C 75 % 17.85 C
832 09-07-2016 21:15:00 22.2 C 75 % 17.56 C
833 09-07-2016 21:20:00 21.9 C 75 % 17.27 C
834 09-07-2016 21:25:00 21.7 C 76 % 17.28 C
835 09-07-2016 21:30:00 21.5 C 77 % 17.3 C
836 09-07-2016 21:35:00 21.3 C 77 % 17.1 C
837 09-07-2016 21:40:00 21.2 C 77 % 17.01 C
838 09-07-2016 21:45:00 21.1 C 78 % 17.11 C
839 09-07-2016 21:50:00 20.9 C 78 % 16.92 C
840 09-07-2016 21:55:00 20.7 C 78 % 16.73 C
841 09-07-2016 22:00:00 20.6 C 78 % 16.63 C
842 09-07-2016 22:05:00 20.6 C 78 % 16.63 C
843 09-07-2016 22:10:00 20.4 C 79 % 16.64 C
844 09-07-2016 22:15:00 20.3 C 80 % 16.74 C
845 09-07-2016 22:20:00 20.2 C 80 % 16.64 C
846 09-07-2016 22:25:00 20 C 81 % 16.64 C
847 09-07-2016 22:30:00 19.8 C 81 % 16.45 C
848 09-07-2016 22:35:00 19.6 C 82 % 16.44 C
849 09-07-2016 22:40:00 19.4 C 82 % 16.25 C
850 09-07-2016 22:45:00 19.3 C 82 % 16.15 C
Sensor: Nr:Datum:Temp:Feuchte:Taupunkt:
Aussen-T/F 851 09-07-2016 22:50:00 19.2 C 83 % 16.24 C
852 09-07-2016 22:55:00 19.1 C 83 % 16.15 C
853 09-07-2016 23:00:00 19.1 C 83 % 16.15 C
854 09-07-2016 23:05:00 19 C 83 % 16.05 C
855 09-07-2016 23:10:00 18.9 C 84 % 16.14 C
856 09-07-2016 23:15:00 18.9 C 84 % 16.14 C
857 09-07-2016 23:20:00 18.8 C 84 % 16.04 C
858 09-07-2016 23:25:00 18.8 C 84 % 16.04 C
859 09-07-2016 23:30:00 18.7 C 84 % 15.94 C
860 09-07-2016 23:35:00 18.6 C 85 % 16.03 C
861 09-07-2016 23:40:00 18.5 C 85 % 15.93 C
862 09-07-2016 23:45:00 18.4 C 85 % 15.83 C
863 09-07-2016 23:50:00 18.4 C 85 % 15.83 C
864 09-07-2016 23:55:00 18.3 C 85 % 15.74 C
865 10-07-2016 00:00:00 18.3 C 86 % 15.92 C
866 10-07-2016 00:05:00 18.2 C 86 % 15.82 C
867 10-07-2016 00:10:00 18.2 C 86 % 15.82 C
868 10-07-2016 00:15:00 18.2 C 86 % 15.82 C
869 10-07-2016 00:20:00 18.1 C 87 % 15.9 C
870 10-07-2016 00:25:00 18 C 87 % 15.8 C
871 10-07-2016 00:30:00 17.9 C 87 % 15.71 C
872 10-07-2016 00:35:00 17.8 C 87 % 15.61 C
873 10-07-2016 00:40:00 17.7 C 88 % 15.69 C
874 10-07-2016 00:45:00 17.7 C 88 % 15.69 C
875 10-07-2016 00:50:00 17.6 C 88 % 15.59 C
Sensor: Nr:Datum:Temp:Feuchte:Taupunkt:
Aussen-T/F 876 10-07-2016 00:55:00 17.6 C 88 % 15.59 C
877 10-07-2016 01:00:00 17.6 C 88 % 15.59 C
878 10-07-2016 01:05:00 17.5 C 88 % 15.49 C
879 10-07-2016 01:10:00 17.4 C 88 % 15.39 C
880 10-07-2016 01:15:00 17.3 C 88 % 15.29 C
881 10-07-2016 01:20:00 17.2 C 88 % 15.2 C
882 10-07-2016 01:25:00 17.1 C 89 % 15.27 C
883 10-07-2016 01:30:00 17.1 C 89 % 15.27 C
884 10-07-2016 01:35:00 17 C 89 % 15.17 C
885 10-07-2016 01:40:00 16.9 C 89 % 15.08 C
886 10-07-2016 01:45:00 16.8 C 90 % 15.15 C
887 10-07-2016 01:50:00 16.8 C 90 % 15.15 C
888 10-07-2016 01:55:00 16.8 C 90 % 15.15 C
889 10-07-2016 02:00:00 16.8 C 90 % 15.15 C
890 10-07-2016 02:05:00 16.7 C 90 % 15.05 C
891 10-07-2016 02:10:00 16.7 C 90 % 15.05 C
892 10-07-2016 02:15:00 16.7 C 90 % 15.05 C
893 10-07-2016 02:20:00 16.6 C 90 % 14.95 C
894 10-07-2016 02:25:00 16.6 C 90 % 14.95 C
895 10-07-2016 02:30:00 16.5 C 90 % 14.85 C
896 10-07-2016 02:35:00 16.4 C 90 % 14.76 C
897 10-07-2016 02:40:00 16.3 C 91 % 14.83 C
898 10-07-2016 02:45:00 16.2 C 91 % 14.73 C
899 10-07-2016 02:50:00 16.2 C 91 % 14.73 C
900 10-07-2016 02:55:00 16.1 C 91 % 14.63 C
Sensor: Nr:Datum:Temp:Feuchte:Taupunkt:
Aussen-T/F 901 10-07-2016 03:00:00 15.9 C 91 % 14.43 C
902 10-07-2016 03:05:00 15.8 C 91 % 14.33 C
903 10-07-2016 03:10:00 15.8 C 92 % 14.5 C
904 10-07-2016 03:15:00 15.7 C 92 % 14.4 C
905 10-07-2016 03:20:00 15.6 C 92 % 14.31 C
906 10-07-2016 03:25:00 15.6 C 92 % 14.31 C
907 10-07-2016 03:30:00 15.5 C 92 % 14.21 C
908 10-07-2016 03:35:00 15.4 C 92 % 14.11 C
909 10-07-2016 03:40:00 15.3 C 92 % 14.01 C
910 10-07-2016 03:45:00 15.2 C 92 % 13.91 C
911 10-07-2016 03:50:00 15.2 C 93 % 14.08 C
912 10-07-2016 03:55:00 15.2 C 93 % 14.08 C
913 10-07-2016 04:00:00 15.1 C 93 % 13.98 C
914 10-07-2016 04:05:00 15 C 93 % 13.88 C
915 10-07-2016 04:10:00 15 C 93 % 13.88 C
916 10-07-2016 04:15:00 15 C 93 % 13.88 C
917 10-07-2016 04:20:00 14.9 C 93 % 13.78 C
918 10-07-2016 04:25:00 14.9 C 93 % 13.78 C
919 10-07-2016 04:30:00 14.9 C 93 % 13.78 C
920 10-07-2016 04:35:00 14.8 C 94 % 13.84 C
921 10-07-2016 04:40:00 14.8 C 94 % 13.84 C
922 10-07-2016 04:45:00 14.8 C 94 % 13.84 C
923 10-07-2016 04:50:00 14.7 C 94 % 13.74 C
924 10-07-2016 04:55:00 14.7 C 93 % 13.58 C
925 10-07-2016 05:00:00 14.6 C 94 % 13.65 C
Sensor: Nr:Datum:Temp:Feuchte:Taupunkt:
Aussen-T/F 926 10-07-2016 05:05:00 14.6 C 94 % 13.65 C
927 10-07-2016 05:10:00 14.6 C 94 % 13.65 C
928 10-07-2016 05:15:00 14.6 C 94 % 13.65 C
929 10-07-2016 05:20:00 14.7 C 94 % 13.74 C
930 10-07-2016 05:25:00 14.6 C 94 % 13.65 C
931 10-07-2016 05:30:00 14.6 C 94 % 13.65 C
932 10-07-2016 05:35:00 14.5 C 94 % 13.55 C
933 10-07-2016 05:40:00 14.5 C 94 % 13.55 C
934 10-07-2016 05:45:00 14.4 C 94 % 13.45 C
935 10-07-2016 05:50:00 14.5 C 94 % 13.55 C
936 10-07-2016 05:55:00 14.5 C 94 % 13.55 C
937 10-07-2016 06:00:00 14.5 C 94 % 13.55 C
938 10-07-2016 06:05:00 14.6 C 95 % 13.81 C
939 10-07-2016 06:10:00 14.6 C 95 % 13.81 C
940 10-07-2016 06:15:00 14.6 C 95 % 13.81 C
941 10-07-2016 06:20:00 14.7 C 95 % 13.91 C
942 10-07-2016 06:25:00 14.7 C 95 % 13.91 C
943 10-07-2016 06:30:00 14.7 C 95 % 13.91 C
944 10-07-2016 06:35:00 14.8 C 95 % 14.01 C
945 10-07-2016 06:40:00 14.9 C 95 % 14.11 C
946 10-07-2016 06:45:00 14.9 C 95 % 14.11 C
947 10-07-2016 06:50:00 14.9 C 95 % 14.11 C
948 10-07-2016 06:55:00 15 C 95 % 14.21 C
949 10-07-2016 07:00:00 15 C 95 % 14.21 C
950 10-07-2016 07:05:00 15.1 C 95 % 14.31 C
Sensor: Nr:Datum:Temp:Feuchte:Taupunkt:
Aussen-T/F 951 10-07-2016 07:10:00 15.1 C 95 % 14.31 C
952 10-07-2016 07:15:00 15.2 C 95 % 14.4 C
953 10-07-2016 07:20:00 15.2 C 95 % 14.4 C
954 10-07-2016 07:25:00 15.3 C 95 % 14.5 C
955 10-07-2016 07:30:00 15.3 C 95 % 14.5 C
956 10-07-2016 07:35:00 15.4 C 95 % 14.6 C
957 10-07-2016 07:40:00 15.5 C 95 % 14.7 C
958 10-07-2016 07:45:00 15.6 C 95 % 14.8 C
959 10-07-2016 07:50:00 15.7 C 95 % 14.9 C
960 10-07-2016 07:55:00 15.7 C 95 % 14.9 C
961 10-07-2016 08:00:00 15.8 C 95 % 15 C
962 10-07-2016 08:05:00 15.9 C 95 % 15.1 C
963 10-07-2016 08:10:00 16 C 95 % 15.2 C
964 10-07-2016 08:15:00 16.1 C 95 % 15.3 C
965 10-07-2016 08:20:00 16.3 C 95 % 15.5 C
966 10-07-2016 08:25:00 16.4 C 95 % 15.6 C
967 10-07-2016 08:30:00 16.6 C 95 % 15.8 C
968 10-07-2016 08:35:00 16.7 C 94 % 15.73 C
969 10-07-2016 08:40:00 16.8 C 94 % 15.83 C
970 10-07-2016 08:45:00 16.8 C 94 % 15.83 C
971 10-07-2016 08:50:00 16.9 C 94 % 15.93 C
972 10-07-2016 08:55:00 17 C 94 % 16.03 C
973 10-07-2016 09:00:00 17.2 C 94 % 16.23 C
974 10-07-2016 09:05:00 17.2 C 94 % 16.23 C
975 10-07-2016 09:10:00 17.3 C 94 % 16.33 C
Sensor: Nr:Datum:Temp:Feuchte:Taupunkt:
Aussen-T/F 976 10-07-2016 09:15:00 17.4 C 93 % 16.26 C
977 10-07-2016 09:20:00 17.4 C 93 % 16.26 C
978 10-07-2016 09:25:00 17.5 C 92 % 16.19 C
979 10-07-2016 09:30:00 17.7 C 93 % 16.55 C
980 10-07-2016 09:35:00 17.8 C 92 % 16.48 C
981 10-07-2016 09:40:00 17.9 C 92 % 16.58 C
982 10-07-2016 09:45:00 18.1 C 92 % 16.78 C
983 10-07-2016 09:50:00 18.2 C 91 % 16.71 C
984 10-07-2016 09:55:00 18.3 C 92 % 16.98 C
985 10-07-2016 10:00:00 18.5 C 91 % 17 C
986 10-07-2016 10:05:00 18.7 C 91 % 17.2 C
987 10-07-2016 10:10:00 18.9 C 90 % 17.22 C
988 10-07-2016 10:15:00 19.1 C 91 % 17.6 C
989 10-07-2016 10:20:00 19.3 C 91 % 17.79 C
990 10-07-2016 10:25:00 19.7 C 91 % 18.19 C
991 10-07-2016 10:30:00 20.1 C 90 % 18.41 C
992 10-07-2016 10:35:00 20.5 C 89 % 18.62 C
993 10-07-2016 10:40:00 20.9 C 88 % 18.84 C
994 10-07-2016 10:45:00 21.3 C 87 % 19.05 C
995 10-07-2016 10:50:00 21.8 C 85 % 19.16 C
996 10-07-2016 10:55:00 22.2 C 85 % 19.56 C
997 10-07-2016 11:00:00 22.4 C 83 % 19.37 C
998 10-07-2016 11:05:00 22.6 C 83 % 19.56 C
999 10-07-2016 11:10:00 22.5 C 84 % 19.66 C
1000 10-07-2016 11:15:00 22.3 C 85 % 19.65 C
Sensor: Nr:Datum:Temp:Feuchte:Taupunkt:
Aussen-T/F 1001 10-07-2016 11:20:00 22.2 C 85 % 19.56 C
1002 10-07-2016 11:25:00 22.2 C 86 % 19.75 C
1003 10-07-2016 11:30:00 22.2 C 83 % 19.17 C
1004 10-07-2016 11:35:00 22.5 C 85 % 19.85 C
1005 10-07-2016 11:40:00 22.7 C 82 % 19.47 C
1006 10-07-2016 11:45:00 22.9 C 81 % 19.46 C
1007 10-07-2016 11:50:00 23.2 C 82 % 19.95 C
1008 10-07-2016 11:55:00 23.3 C 80 % 19.65 C
1009 10-07-2016 12:00:00 23.4 C 81 % 19.95 C
1010 10-07-2016 12:05:00 23.5 C 78 % 19.44 C
1011 10-07-2016 12:10:00 23.7 C 78 % 19.63 C
1012 10-07-2016 12:15:00 24.2 C 70 % 18.38 C
1013 10-07-2016 12:20:00 24.7 C 75 % 19.97 C
1014 10-07-2016 12:25:00 24.9 C 72 % 19.5 C
1015 10-07-2016 12:30:00 25.1 C 70 % 19.24 C
1016 10-07-2016 12:35:00 25.3 C 68 % 18.97 C
1017 10-07-2016 12:40:00 25.5 C 70 % 19.62 C
1018 10-07-2016 12:45:00 25.7 C 66 % 18.87 C
1019 10-07-2016 12:50:00 25.8 C 68 % 19.44 C
1020 10-07-2016 12:55:00 25.8 C 66 % 18.96 C
1021 10-07-2016 13:00:00 25.9 C 65 % 18.81 C
1022 10-07-2016 13:05:00 26.1 C 66 % 19.25 C
1023 10-07-2016 13:10:00 26.2 C 67 % 19.59 C
1024 10-07-2016 13:15:00 26.3 C 71 % 20.62 C
1025 10-07-2016 13:20:00 26.3 C 69 % 20.16 C
Sensor: Nr:Datum:Temp:Feuchte:Taupunkt:
Aussen-T/F 1026 10-07-2016 13:25:00 26.3 C 70 % 20.39 C
1027 10-07-2016 13:30:00 26.4 C 64 % 19.04 C
1028 10-07-2016 13:35:00 26.6 C 65 % 19.48 C
1029 10-07-2016 13:40:00 26.7 C 73 % 21.45 C
1030 10-07-2016 13:45:00 26.7 C 71 % 21 C
1031 10-07-2016 13:50:00 26.6 C 72 % 21.13 C
1032 10-07-2016 13:55:00 26.6 C 68 % 20.2 C
1033 10-07-2016 14:00:00 26.8 C 63 % 19.16 C
1034 10-07-2016 14:05:00 27 C 69 % 20.82 C
1035 10-07-2016 14:10:00 27.2 C 64 % 19.79 C
1036 10-07-2016 14:15:00 27.3 C 64 % 19.89 C
1037 10-07-2016 14:20:00 27.3 C 65 % 20.14 C
1038 10-07-2016 14:25:00 27.5 C 64 % 20.08 C
1039 10-07-2016 14:30:00 27.6 C 61 % 19.4 C
1040 10-07-2016 14:35:00 27.8 C 61 % 19.59 C
1041 10-07-2016 14:40:00 28.1 C 60 % 19.6 C
1042 10-07-2016 14:45:00 28.4 C 59 % 19.61 C
1043 10-07-2016 14:50:00 28.7 C 60 % 20.16 C
1044 10-07-2016 14:55:00 28.8 C 57 % 19.43 C
1045 10-07-2016 15:00:00 28.9 C 59 % 20.08 C
1046 10-07-2016 15:05:00 28.9 C 59 % 20.08 C
1047 10-07-2016 15:10:00 29.1 C 58 % 19.99 C
1048 10-07-2016 15:15:00 29.4 C 55 % 19.41 C
1049 10-07-2016 15:20:00 29.4 C 58 % 20.27 C
1050 10-07-2016 15:25:00 29.8 C 56 % 20.07 C
Sensor: Nr:Datum:Temp:Feuchte:Taupunkt:
Aussen-T/F 1051 10-07-2016 15:30:00 30.2 C 61 % 21.84 C
1052 10-07-2016 15:35:00 30.3 C 56 % 20.54 C
1053 10-07-2016 15:40:00 30.7 C 53 % 20.02 C
1054 10-07-2016 15:45:00 31.1 C 55 % 20.99 C
1055 10-07-2016 15:50:00 31.2 C 54 % 20.78 C
1056 10-07-2016 15:55:00 31.4 C 49 % 19.39 C
1057 10-07-2016 16:00:00 31.4 C 52 % 20.35 C
1058 10-07-2016 16:05:00 31.4 C 48 % 19.06 C
1059 10-07-2016 16:10:00 31.4 C 53 % 20.66 C
1060 10-07-2016 16:15:00 31.8 C 54 % 21.34 C
1061 10-07-2016 16:20:00 32.2 C 49 % 20.12 C
1062 10-07-2016 16:25:00 32.4 C 53 % 21.58 C
1063 10-07-2016 16:30:00 32.7 C 51 % 21.23 C
1064 10-07-2016 16:35:00 32.9 C 47 % 20.09 C
1065 10-07-2016 16:40:00 33.2 C 45 % 19.66 C
1066 10-07-2016 16:45:00 33.2 C 46 % 20.01 C
1067 10-07-2016 16:50:00 32.9 C 48 % 20.43 C
1068 10-07-2016 16:55:00 33.1 C 47 % 20.27 C
1069 10-07-2016 17:00:00 33.1 C 54 % 22.54 C
1070 10-07-2016 17:05:00 32.9 C 54 % 22.35 C
1071 10-07-2016 17:10:00 32.6 C 51 % 21.14 C
1072 10-07-2016 17:15:00 32.2 C 53 % 21.4 C
1073 10-07-2016 17:20:00 31.8 C 54 % 21.34 C
1074 10-07-2016 17:25:00 31.7 C 59 % 22.7 C
1075 10-07-2016 17:30:00 32 C 46 % 18.93 C
Sensor: Nr:Datum:Temp:Feuchte:Taupunkt:
Aussen-T/F 1076 10-07-2016 17:35:00 32.3 C 47 % 19.54 C
1077 10-07-2016 17:40:00 32.5 C 51 % 21.05 C
1078 10-07-2016 17:45:00 32.7 C 54 % 22.17 C
1079 10-07-2016 17:50:00 32.6 C 47 % 19.81 C
1080 10-07-2016 17:55:00 32.3 C 50 % 20.54 C
1081 10-07-2016 18:00:00 32.3 C 54 % 21.8 C
1082 10-07-2016 18:05:00 31.8 C 49 % 19.76 C
1083 10-07-2016 18:10:00 31.1 C 53 % 20.39 C
1084 10-07-2016 18:15:00 30.4 C 54 % 20.04 C
1085 10-07-2016 18:20:00 29.9 C 59 % 21.01 C
1086 10-07-2016 18:25:00 29.5 C 59 % 20.64 C
1087 10-07-2016 18:30:00 29.3 C 64 % 21.78 C
1088 10-07-2016 18:35:00 29.3 C 63 % 21.52 C
1089 10-07-2016 18:40:00 29.4 C 63 % 21.61 C
1090 10-07-2016 18:45:00 29.4 C 64 % 21.87 C
1091 10-07-2016 18:50:00 29.4 C 64 % 21.87 C
1092 10-07-2016 18:55:00 29.2 C 65 % 21.94 C
1093 10-07-2016 19:00:00 28.8 C 65 % 21.56 C
1094 10-07-2016 19:05:00 28.4 C 67 % 21.68 C
1095 10-07-2016 19:10:00 27.9 C 67 % 21.2 C
1096 10-07-2016 19:15:00 27.5 C 68 % 21.06 C
1097 10-07-2016 19:20:00 27.2 C 69 % 21.01 C
1098 10-07-2016 19:25:00 26.9 C 70 % 20.96 C
1099 10-07-2016 19:30:00 26.7 C 71 % 21 C
1100 10-07-2016 19:35:00 26.5 C 71 % 20.81 C
Sensor: Nr:Datum:Temp:Feuchte:Taupunkt:
Aussen-T/F 1101 10-07-2016 19:40:00 26.3 C 72 % 20.85 C
1102 10-07-2016 19:45:00 26.1 C 72 % 20.65 C
1103 10-07-2016 19:50:00 25.8 C 73 % 20.59 C
1104 10-07-2016 19:55:00 25.7 C 74 % 20.71 C
1105 10-07-2016 20:00:00 25.5 C 75 % 20.74 C
1106 10-07-2016 20:05:00 25.3 C 76 % 20.76 C
1107 10-07-2016 20:10:00 25.3 C 76 % 20.76 C
1108 10-07-2016 20:15:00 25.2 C 77 % 20.88 C
1109 10-07-2016 20:20:00 25.1 C 77 % 20.78 C
1110 10-07-2016 20:25:00 25 C 78 % 20.89 C
1111 10-07-2016 20:30:00 24.9 C 77 % 20.59 C
1112 10-07-2016 20:35:00 24.8 C 78 % 20.7 C
1113 10-07-2016 20:40:00 24.7 C 78 % 20.6 C
1114 10-07-2016 20:45:00 24.6 C 77 % 20.3 C
1115 10-07-2016 20:50:00 24.5 C 77 % 20.2 C
1116 10-07-2016 20:55:00 24.4 C 76 % 19.89 C
1117 10-07-2016 21:00:00 24.3 C 76 % 19.8 C
1118 10-07-2016 21:05:00 24.2 C 76 % 19.7 C
1119 10-07-2016 21:10:00 24 C 77 % 19.72 C
1120 10-07-2016 21:15:00 23.8 C 76 % 19.31 C
1121 10-07-2016 21:20:00 23.7 C 77 % 19.43 C
1122 10-07-2016 21:25:00 23.4 C 77 % 19.14 C
1123 10-07-2016 21:30:00 23.3 C 78 % 19.25 C
1124 10-07-2016 21:35:00 23.1 C 78 % 19.05 C
1125 10-07-2016 21:40:00 23 C 78 % 18.96 C
Sensor: Nr:Datum:Temp:Feuchte:Taupunkt:
Aussen-T/F 1126 10-07-2016 21:45:00 22.8 C 78 % 18.76 C
1127 10-07-2016 21:50:00 22.8 C 79 % 18.97 C
1128 10-07-2016 21:55:00 22.7 C 79 % 18.87 C
1129 10-07-2016 22:00:00 22.7 C 79 % 18.87 C
1130 10-07-2016 22:05:00 22.6 C 80 % 18.97 C
1131 10-07-2016 22:10:00 22.6 C 80 % 18.97 C
1132 10-07-2016 22:15:00 22.5 C 80 % 18.88 C
1133 10-07-2016 22:20:00 22.4 C 80 % 18.78 C
1134 10-07-2016 22:25:00 22.3 C 81 % 18.88 C
1135 10-07-2016 22:30:00 22.3 C 81 % 18.88 C
1136 10-07-2016 22:35:00 22.2 C 81 % 18.78 C
1137 10-07-2016 22:40:00 22.1 C 81 % 18.69 C
1138 10-07-2016 22:45:00 22 C 81 % 18.59 C
1139 10-07-2016 22:50:00 21.9 C 82 % 18.69 C
1140 10-07-2016 22:55:00 21.9 C 82 % 18.69 C
1141 10-07-2016 23:00:00 21.8 C 82 % 18.59 C
1142 10-07-2016 23:05:00 21.7 C 82 % 18.49 C
1143 10-07-2016 23:10:00 21.7 C 82 % 18.49 C
1144 10-07-2016 23:15:00 21.6 C 82 % 18.39 C
1145 10-07-2016 23:20:00 21.5 C 83 % 18.49 C
1146 10-07-2016 23:25:00 21.4 C 83 % 18.39 C
1147 10-07-2016 23:30:00 21.3 C 83 % 18.29 C
1148 10-07-2016 23:35:00 21.3 C 84 % 18.49 C
1149 10-07-2016 23:40:00 21.2 C 84 % 18.39 C
1150 10-07-2016 23:45:00 21.2 C 84 % 18.39 C
Sensor: Nr:Datum:Temp:Feuchte:Taupunkt:
Aussen-T/F 1151 10-07-2016 23:50:00 21.1 C 84 % 18.29 C
1152 10-07-2016 23:55:00 21.1 C 84 % 18.29 C
1153 11-07-2016 00:00:00 21 C 84 % 18.19 C
1154 11-07-2016 00:05:00 21 C 84 % 18.19 C
1155 11-07-2016 00:10:00 20.9 C 85 % 18.28 C
1156 11-07-2016 00:15:00 20.9 C 84 % 18.09 C
1157 11-07-2016 00:20:00 20.8 C 85 % 18.18 C
1158 11-07-2016 00:25:00 20.8 C 85 % 18.18 C
1159 11-07-2016 00:30:00 20.7 C 85 % 18.09 C
1160 11-07-2016 00:35:00 20.7 C 85 % 18.09 C
1161 11-07-2016 00:40:00 20.6 C 85 % 17.99 C
1162 11-07-2016 00:45:00 20.6 C 86 % 18.18 C
1163 11-07-2016 00:50:00 20.5 C 86 % 18.08 C
1164 11-07-2016 00:55:00 20.4 C 86 % 17.98 C
1165 11-07-2016 01:00:00 20.4 C 86 % 17.98 C
1166 11-07-2016 01:05:00 20.4 C 86 % 17.98 C
1167 11-07-2016 01:10:00 20.3 C 86 % 17.88 C
1168 11-07-2016 01:15:00 20.3 C 86 % 17.88 C
1169 11-07-2016 01:20:00 20.3 C 86 % 17.88 C
1170 11-07-2016 01:25:00 20.3 C 87 % 18.06 C
1171 11-07-2016 01:30:00 20.2 C 87 % 17.97 C
1172 11-07-2016 01:35:00 20.2 C 87 % 17.97 C
1173 11-07-2016 01:40:00 20.2 C 87 % 17.97 C
1174 11-07-2016 01:45:00 20.1 C 87 % 17.87 C
1175 11-07-2016 01:50:00 20.1 C 87 % 17.87 C
Sensor: Nr:Datum:Temp:Feuchte:Taupunkt:
Aussen-T/F 1176 11-07-2016 01:55:00 19.9 C 87 % 17.67 C
1177 11-07-2016 02:00:00 19.9 C 87 % 17.67 C
1178 11-07-2016 02:05:00 19.8 C 87 % 17.57 C
1179 11-07-2016 02:10:00 19.7 C 87 % 17.47 C
1180 11-07-2016 02:15:00 19.6 C 87 % 17.38 C
1181 11-07-2016 02:20:00 19.6 C 87 % 17.38 C
1182 11-07-2016 02:25:00 19.4 C 87 % 17.18 C
1183 11-07-2016 02:30:00 19.3 C 88 % 17.26 C
1184 11-07-2016 02:35:00 19.3 C 88 % 17.26 C
1185 11-07-2016 02:40:00 19.2 C 88 % 17.16 C
1186 11-07-2016 02:45:00 19.1 C 88 % 17.07 C
1187 11-07-2016 02:50:00 19.1 C 89 % 17.24 C
1188 11-07-2016 02:55:00 19.1 C 89 % 17.24 C
1189 11-07-2016 03:00:00 19.2 C 89 % 17.34 C
1190 11-07-2016 03:05:00 19.1 C 89 % 17.24 C
1191 11-07-2016 03:10:00 19.2 C 90 % 17.52 C
1192 11-07-2016 03:15:00 19.2 C 90 % 17.52 C
1193 11-07-2016 03:20:00 19.3 C 90 % 17.62 C
1194 11-07-2016 03:25:00 19.3 C 90 % 17.62 C
1195 11-07-2016 03:30:00 19.3 C 90 % 17.62 C
1196 11-07-2016 03:35:00 19.2 C 90 % 17.52 C
1197 11-07-2016 03:40:00 19.2 C 89 % 17.34 C
1198 11-07-2016 03:45:00 19.1 C 89 % 17.24 C
1199 11-07-2016 03:50:00 19.1 C 90 % 17.42 C
1200 11-07-2016 03:55:00 19 C 90 % 17.32 C
Sensor: Nr:Datum:Temp:Feuchte:Taupunkt:
Aussen-T/F 1201 11-07-2016 04:00:00 19 C 89 % 17.15 C
1202 11-07-2016 04:05:00 18.9 C 89 % 17.05 C
1203 11-07-2016 04:10:00 18.9 C 89 % 17.05 C
1204 11-07-2016 04:15:00 18.9 C 89 % 17.05 C
1205 11-07-2016 04:20:00 18.8 C 89 % 16.95 C
1206 11-07-2016 04:25:00 18.7 C 89 % 16.85 C
1207 11-07-2016 04:30:00 18.6 C 90 % 16.93 C
1208 11-07-2016 04:35:00 18.5 C 90 % 16.83 C
1209 11-07-2016 04:40:00 18.4 C 90 % 16.73 C
1210 11-07-2016 04:45:00 18.4 C 90 % 16.73 C
1211 11-07-2016 04:50:00 18.4 C 91 % 16.9 C
1212 11-07-2016 04:55:00 18.6 C 91 % 17.1 C
1213 11-07-2016 05:00:00 18.6 C 91 % 17.1 C
1214 11-07-2016 05:05:00 18.6 C 91 % 17.1 C
1215 11-07-2016 05:10:00 18.6 C 91 % 17.1 C
1216 11-07-2016 05:15:00 18.6 C 91 % 17.1 C
1217 11-07-2016 05:20:00 18.6 C 91 % 17.1 C
1218 11-07-2016 05:25:00 18.7 C 91 % 17.2 C
1219 11-07-2016 05:30:00 18.7 C 91 % 17.2 C
1220 11-07-2016 05:35:00 18.8 C 91 % 17.3 C
1221 11-07-2016 05:40:00 18.8 C 91 % 17.3 C
1222 11-07-2016 05:45:00 18.8 C 91 % 17.3 C
1223 11-07-2016 05:50:00 18.8 C 91 % 17.3 C
1224 11-07-2016 05:55:00 18.9 C 91 % 17.4 C
1225 11-07-2016 06:00:00 18.9 C 91 % 17.4 C
Sensor: Nr:Datum:Temp:Feuchte:Taupunkt:
Aussen-T/F 1226 11-07-2016 06:05:00 18.9 C 90 % 17.22 C
1227 11-07-2016 06:10:00 18.9 C 90 % 17.22 C
1228 11-07-2016 06:15:00 18.9 C 90 % 17.22 C
1229 11-07-2016 06:20:00 18.9 C 90 % 17.22 C
1230 11-07-2016 06:25:00 18.9 C 90 % 17.22 C
1231 11-07-2016 06:30:00 18.9 C 91 % 17.4 C
1232 11-07-2016 06:35:00 19 C 91 % 17.5 C
1233 11-07-2016 06:40:00 19 C 91 % 17.5 C
1234 11-07-2016 06:45:00 19 C 91 % 17.5 C
1235 11-07-2016 06:50:00 19 C 91 % 17.5 C
1236 11-07-2016 06:55:00 19 C 91 % 17.5 C
1237 11-07-2016 07:00:00 19 C 91 % 17.5 C
1238 11-07-2016 07:05:00 19.1 C 91 % 17.6 C
1239 11-07-2016 07:10:00 19.1 C 91 % 17.6 C
1240 11-07-2016 07:15:00 19.1 C 91 % 17.6 C
1241 11-07-2016 07:20:00 19.1 C 91 % 17.6 C
1242 11-07-2016 07:25:00 19.2 C 91 % 17.69 C
1243 11-07-2016 07:30:00 19.2 C 91 % 17.69 C
1244 11-07-2016 07:35:00 19.3 C 92 % 17.97 C
1245 11-07-2016 07:40:00 19.4 C 92 % 18.07 C
1246 11-07-2016 07:45:00 19.5 C 91 % 17.99 C
1247 11-07-2016 07:50:00 19.6 C 91 % 18.09 C
1248 11-07-2016 07:55:00 19.7 C 91 % 18.19 C
1249 11-07-2016 08:00:00 19.8 C 91 % 18.29 C
1250 11-07-2016 08:05:00 19.9 C 91 % 18.39 C
Sensor: Nr:Datum:Temp:Feuchte:Taupunkt:
Aussen-T/F 1251 11-07-2016 08:10:00 20 C 91 % 18.49 C
1252 11-07-2016 08:15:00 20.1 C 91 % 18.58 C
1253 11-07-2016 08:20:00 20.1 C 90 % 18.41 C
1254 11-07-2016 08:25:00 20.1 C 90 % 18.41 C
1255 11-07-2016 08:30:00 20.2 C 90 % 18.51 C
1256 11-07-2016 08:35:00 20.2 C 90 % 18.51 C
1257 11-07-2016 08:40:00 20.3 C 90 % 18.61 C
1258 11-07-2016 08:45:00 20.4 C 88 % 18.34 C
1259 11-07-2016 08:50:00 20.6 C 86 % 18.18 C
1260 11-07-2016 08:55:00 20.8 C 86 % 18.37 C
1261 11-07-2016 09:00:00 21.2 C 84 % 18.39 C
1262 11-07-2016 09:05:00 21.3 C 85 % 18.67 C
1263 11-07-2016 09:10:00 21.5 C 83 % 18.49 C
1264 11-07-2016 09:15:00 21.7 C 81 % 18.3 C
1265 11-07-2016 09:20:00 22 C 80 % 18.39 C
1266 11-07-2016 09:25:00 22.2 C 78 % 18.18 C
1267 11-07-2016 09:30:00 22.3 C 78 % 18.28 C
1268 11-07-2016 09:35:00 22.4 C 77 % 18.17 C
1269 11-07-2016 09:40:00 22.7 C 74 % 17.83 C
1270 11-07-2016 09:45:00 22.8 C 74 % 17.92 C
1271 11-07-2016 09:50:00 23 C 73 % 17.9 C
1272 11-07-2016 09:55:00 23.1 C 75 % 18.43 C
1273 11-07-2016 10:00:00 23.1 C 74 % 18.21 C
1274 11-07-2016 10:05:00 23.1 C 73 % 17.99 C
1275 11-07-2016 10:10:00 23.2 C 73 % 18.09 C
Sensor: Nr:Datum:Temp:Feuchte:Taupunkt:
Aussen-T/F 1276 11-07-2016 10:15:00 23.4 C 72 % 18.06 C
1277 11-07-2016 10:20:00 23.5 C 70 % 17.71 C
1278 11-07-2016 10:25:00 23.6 C 69 % 17.58 C
1279 11-07-2016 10:30:00 23.7 C 67 % 17.21 C
1280 11-07-2016 10:35:00 24.1 C 68 % 17.82 C
1281 11-07-2016 10:40:00 24.3 C 65 % 17.3 C
1282 11-07-2016 10:45:00 24.5 C 68 % 18.2 C
1283 11-07-2016 10:50:00 24.4 C 64 % 17.15 C
1284 11-07-2016 10:55:00 24.3 C 63 % 16.81 C
1285 11-07-2016 11:00:00 24.1 C 62 % 16.37 C
1286 11-07-2016 11:05:00 23.8 C 64 % 16.58 C
1287 11-07-2016 11:10:00 23.6 C 66 % 16.88 C
1288 11-07-2016 11:15:00 23.4 C 66 % 16.69 C
1289 11-07-2016 11:20:00 23.3 C 66 % 16.59 C
1290 11-07-2016 11:25:00 23.3 C 70 % 17.52 C
1291 11-07-2016 11:30:00 23.2 C 70 % 17.42 C
1292 11-07-2016 11:35:00 23.2 C 70 % 17.42 C
1293 11-07-2016 11:40:00 23.3 C 71 % 17.75 C
1294 11-07-2016 11:45:00 23.5 C 69 % 17.48 C
1295 11-07-2016 11:50:00 23.6 C 68 % 17.35 C
1296 11-07-2016 11:55:00 23.7 C 69 % 17.67 C
1297 11-07-2016 12:00:00 23.7 C 68 % 17.44 C
1298 11-07-2016 12:05:00 23.7 C 69 % 17.67 C
1299 11-07-2016 12:10:00 23.6 C 68 % 17.35 C
1300 11-07-2016 12:15:00 23.6 C 69 % 17.58 C
Sensor: Nr:Datum:Temp:Feuchte:Taupunkt:
Aussen-T/F 1301 11-07-2016 12:20:00 23.6 C 69 % 17.58 C
1302 11-07-2016 12:25:00 23.7 C 68 % 17.44 C
1303 11-07-2016 12:30:00 23.8 C 67 % 17.3 C
1304 11-07-2016 12:35:00 23.8 C 69 % 17.77 C
1305 11-07-2016 12:40:00 23.9 C 70 % 18.09 C
1306 11-07-2016 12:45:00 24.1 C 66 % 17.35 C
1307 11-07-2016 12:50:00 24.3 C 65 % 17.3 C
1308 11-07-2016 12:55:00 24.4 C 64 % 17.15 C
1309 11-07-2016 13:00:00 24.5 C 62 % 16.74 C
1310 11-07-2016 13:05:00 24.4 C 61 % 16.39 C
1311 11-07-2016 13:10:00 24.4 C 64 % 17.15 C
1312 11-07-2016 13:15:00 24.4 C 65 % 17.39 C
1313 11-07-2016 13:20:00 24.4 C 65 % 17.39 C
1314 11-07-2016 13:25:00 24.4 C 63 % 16.9 C
1315 11-07-2016 13:30:00 24.4 C 63 % 16.9 C
1316 11-07-2016 13:35:00 24.4 C 62 % 16.65 C
1317 11-07-2016 13:40:00 24.4 C 64 % 17.15 C
1318 11-07-2016 13:45:00 24.4 C 61 % 16.39 C
1319 11-07-2016 13:50:00 24.4 C 62 % 16.65 C
1320 11-07-2016 13:55:00 24.4 C 62 % 16.65 C
1321 11-07-2016 14:00:00 24.5 C 58 % 15.7 C
1322 11-07-2016 14:05:00 24.5 C 56 % 15.15 C
1323 11-07-2016 14:10:00 24.6 C 58 % 15.79 C
1324 11-07-2016 14:15:00 24.7 C 54 % 14.77 C
1325 11-07-2016 14:20:00 24.6 C 55 % 14.96 C
Sensor: Nr:Datum:Temp:Feuchte:Taupunkt:
Aussen-T/F 1326 11-07-2016 14:25:00 24.4 C 56 % 15.06 C
1327 11-07-2016 14:30:00 24.4 C 56 % 15.06 C
1328 11-07-2016 14:35:00 24.4 C 57 % 15.33 C
1329 11-07-2016 14:40:00 24.4 C 56 % 15.06 C
1330 11-07-2016 14:45:00 24.3 C 55 % 14.68 C
1331 11-07-2016 14:50:00 24.2 C 57 % 15.14 C
1332 11-07-2016 14:55:00 24.3 C 56 % 14.96 C
1333 11-07-2016 15:00:00 24.3 C 58 % 15.51 C
1334 11-07-2016 15:05:00 24.3 C 55 % 14.68 C
1335 11-07-2016 15:10:00 24.4 C 59 % 15.87 C
1336 11-07-2016 15:15:00 24.5 C 55 % 14.87 C
1337 11-07-2016 15:20:00 24.5 C 57 % 15.42 C
1338 11-07-2016 15:25:00 24.3 C 57 % 15.24 C
1339 11-07-2016 15:30:00 24.3 C 58 % 15.51 C
1340 11-07-2016 15:35:00 24.2 C 57 % 15.14 C
1341 11-07-2016 15:40:00 24.2 C 56 % 14.87 C
1342 11-07-2016 15:45:00 24.2 C 56 % 14.87 C
1343 11-07-2016 15:50:00 24.1 C 58 % 15.32 C
1344 11-07-2016 15:55:00 24.2 C 58 % 15.42 C
1345 11-07-2016 16:00:00 24.2 C 56 % 14.87 C
1346 11-07-2016 16:05:00 24.3 C 58 % 15.51 C
1347 11-07-2016 16:10:00 24.3 C 57 % 15.24 C
1348 11-07-2016 16:15:00 24.3 C 58 % 15.51 C
1349 11-07-2016 16:20:00 24.3 C 60 % 16.04 C
1350 11-07-2016 16:25:00 24.3 C 58 % 15.51 C
Sensor: Nr:Datum:Temp:Feuchte:Taupunkt:
Aussen-T/F 1351 11-07-2016 16:30:00 24.3 C 59 % 15.78 C
1352 11-07-2016 16:35:00 24.4 C 63 % 16.9 C
1353 11-07-2016 16:40:00 24.4 C 60 % 16.13 C
1354 11-07-2016 16:45:00 24.4 C 63 % 16.9 C
1355 11-07-2016 16:50:00 24.6 C 61 % 16.58 C
1356 11-07-2016 16:55:00 24.7 C 59 % 16.15 C
1357 11-07-2016 17:00:00 24.7 C 60 % 16.41 C
1358 11-07-2016 17:05:00 24.7 C 59 % 16.15 C
1359 11-07-2016 17:10:00 24.5 C 62 % 16.74 C
1360 11-07-2016 17:15:00 24.3 C 62 % 16.55 C
1361 11-07-2016 17:20:00 24.2 C 64 % 16.96 C
1362 11-07-2016 17:25:00 24.1 C 63 % 16.62 C
1363 11-07-2016 17:30:00 24.1 C 63 % 16.62 C
1364 11-07-2016 17:35:00 24.1 C 64 % 16.86 C
1365 11-07-2016 17:40:00 23.9 C 70 % 18.09 C
1366 11-07-2016 17:45:00 23.8 C 66 % 17.07 C
1367 11-07-2016 17:50:00 23.9 C 64 % 16.68 C
1368 11-07-2016 17:55:00 24.2 C 61 % 16.2 C
1369 11-07-2016 18:00:00 24.4 C 59 % 15.87 C
1370 11-07-2016 18:05:00 24.3 C 59 % 15.78 C
1371 11-07-2016 18:10:00 24.2 C 59 % 15.68 C
1372 11-07-2016 18:15:00 24.1 C 58 % 15.32 C
1373 11-07-2016 18:20:00 24 C 61 % 16.02 C
1374 11-07-2016 18:25:00 24 C 58 % 15.23 C
1375 11-07-2016 18:30:00 24.2 C 57 % 15.14 C
Sensor: Nr:Datum:Temp:Feuchte:Taupunkt:
Aussen-T/F 1376 11-07-2016 18:35:00 24.2 C 56 % 14.87 C
1377 11-07-2016 18:40:00 24.1 C 56 % 14.78 C
1378 11-07-2016 18:45:00 24.1 C 57 % 15.05 C
1379 11-07-2016 18:50:00 24.3 C 59 % 15.78 C
1380 11-07-2016 18:55:00 24.4 C 56 % 15.06 C
1381 11-07-2016 19:00:00 24.4 C 56 % 15.06 C
1382 11-07-2016 19:05:00 24.2 C 54 % 14.31 C
1383 11-07-2016 19:10:00 23.9 C 54 % 14.03 C
1384 11-07-2016 19:15:00 23.6 C 56 % 14.31 C
1385 11-07-2016 19:20:00 23.6 C 56 % 14.31 C
1386 11-07-2016 19:25:00 23.7 C 56 % 14.4 C
1387 11-07-2016 19:30:00 23.6 C 55 % 14.03 C
1388 11-07-2016 19:35:00 23.4 C 56 % 14.13 C
1389 11-07-2016 19:40:00 23.2 C 57 % 14.21 C
1390 11-07-2016 19:45:00 23.1 C 58 % 14.39 C
1391 11-07-2016 19:50:00 23.2 C 59 % 14.75 C
1392 11-07-2016 19:55:00 23.3 C 59 % 14.84 C
1393 11-07-2016 20:00:00 23.2 C 59 % 14.75 C
1394 11-07-2016 20:05:00 22.8 C 58 % 14.11 C
1395 11-07-2016 20:10:00 22.6 C 60 % 14.44 C
1396 11-07-2016 20:15:00 22.2 C 61 % 14.32 C
1397 11-07-2016 20:20:00 21.9 C 61 % 14.04 C
1398 11-07-2016 20:25:00 21.7 C 63 % 14.35 C
1399 11-07-2016 20:30:00 21.4 C 62 % 13.82 C
1400 11-07-2016 20:35:00 21.3 C 64 % 14.22 C
Sensor: Nr:Datum:Temp:Feuchte:Taupunkt:
Aussen-T/F 1401 11-07-2016 20:40:00 21.2 C 64 % 14.12 C
1402 11-07-2016 20:45:00 21.1 C 64 % 14.03 C
1403 11-07-2016 20:50:00 20.9 C 64 % 13.84 C
1404 11-07-2016 20:55:00 20.8 C 65 % 13.98 C
1405 11-07-2016 21:00:00 20.8 C 65 % 13.98 C
1406 11-07-2016 21:05:00 20.7 C 66 % 14.12 C
1407 11-07-2016 21:10:00 20.6 C 66 % 14.03 C
1408 11-07-2016 21:15:00 20.5 C 66 % 13.93 C
1409 11-07-2016 21:20:00 20.4 C 65 % 13.6 C
1410 11-07-2016 21:25:00 20.4 C 66 % 13.84 C
1411 11-07-2016 21:30:00 20.3 C 67 % 13.97 C
1412 11-07-2016 21:35:00 20.2 C 67 % 13.88 C
1413 11-07-2016 21:40:00 20.1 C 66 % 13.55 C
1414 11-07-2016 21:45:00 20.1 C 66 % 13.55 C
1415 11-07-2016 21:50:00 20.1 C 67 % 13.78 C
1416 11-07-2016 21:55:00 20 C 67 % 13.69 C
1417 11-07-2016 22:00:00 19.9 C 68 % 13.82 C
1418 11-07-2016 22:05:00 19.9 C 69 % 14.05 C
1419 11-07-2016 22:10:00 19.8 C 68 % 13.73 C
1420 11-07-2016 22:15:00 19.8 C 70 % 14.17 C
1421 11-07-2016 22:20:00 19.7 C 70 % 14.08 C
1422 11-07-2016 22:25:00 19.7 C 71 % 14.3 C
1423 11-07-2016 22:30:00 19.6 C 70 % 13.98 C
1424 11-07-2016 22:35:00 19.6 C 71 % 14.2 C
1425 11-07-2016 22:40:00 19.4 C 71 % 14.01 C
Sensor: Nr:Datum:Temp:Feuchte:Taupunkt:
Aussen-T/F 1426 11-07-2016 22:45:00 19.4 C 71 % 14.01 C
1427 11-07-2016 22:50:00 19.3 C 73 % 14.34 C
1428 11-07-2016 22:55:00 19.3 C 72 % 14.13 C
1429 11-07-2016 23:00:00 19.2 C 73 % 14.25 C
1430 11-07-2016 23:05:00 19.2 C 73 % 14.25 C
1431 11-07-2016 23:10:00 19.1 C 74 % 14.36 C
1432 11-07-2016 23:15:00 19.1 C 74 % 14.36 C
1433 11-07-2016 23:20:00 18.9 C 75 % 14.37 C
1434 11-07-2016 23:25:00 18.9 C 75 % 14.37 C
1435 11-07-2016 23:30:00 18.8 C 76 % 14.48 C
1436 11-07-2016 23:35:00 18.8 C 75 % 14.28 C
1437 11-07-2016 23:40:00 18.7 C 75 % 14.18 C
1438 11-07-2016 23:45:00 18.7 C 75 % 14.18 C
1439 11-07-2016 23:50:00 18.6 C 76 % 14.29 C
1440 11-07-2016 23:55:00 18.6 C 77 % 14.49 C
1441 12-07-2016 00:00:00 18.6 C 77 % 14.49 C
1442 12-07-2016 00:05:00 18.4 C 77 % 14.3 C
1443 12-07-2016 00:10:00 18.4 C 77 % 14.3 C
1444 12-07-2016 00:15:00 18.3 C 77 % 14.2 C
1445 12-07-2016 00:20:00 18.3 C 79 % 14.6 C
1446 12-07-2016 00:25:00 18.3 C 79 % 14.6 C
1447 12-07-2016 00:30:00 18.3 C 80 % 14.79 C
1448 12-07-2016 00:35:00 18.2 C 79 % 14.5 C
1449 12-07-2016 00:40:00 18.2 C 79 % 14.5 C
1450 12-07-2016 00:45:00 18.1 C 79 % 14.4 C
Sensor: Nr:Datum:Temp:Feuchte:Taupunkt:
Aussen-T/F 1451 12-07-2016 00:50:00 18.1 C 78 % 14.21 C
1452 12-07-2016 00:55:00 18.1 C 78 % 14.21 C
1453 12-07-2016 01:00:00 18.1 C 78 % 14.21 C
1454 12-07-2016 01:05:00 18.1 C 77 % 14.01 C
1455 12-07-2016 01:10:00 18.1 C 78 % 14.21 C
1456 12-07-2016 01:15:00 17.9 C 78 % 14.01 C
1457 12-07-2016 01:20:00 17.8 C 78 % 13.91 C
1458 12-07-2016 01:25:00 17.7 C 79 % 14.01 C
1459 12-07-2016 01:30:00 17.5 C 78 % 13.62 C
1460 12-07-2016 01:35:00 17.4 C 78 % 13.53 C
1461 12-07-2016 01:40:00 17.4 C 79 % 13.72 C
1462 12-07-2016 01:45:00 17.4 C 78 % 13.53 C
1463 12-07-2016 01:50:00 17.3 C 79 % 13.63 C
1464 12-07-2016 01:55:00 17.3 C 80 % 13.82 C
1465 12-07-2016 02:00:00 17.2 C 80 % 13.72 C
1466 12-07-2016 02:05:00 17.1 C 80 % 13.62 C
1467 12-07-2016 02:10:00 16.9 C 81 % 13.62 C
1468 12-07-2016 02:15:00 16.8 C 81 % 13.52 C
1469 12-07-2016 02:20:00 16.6 C 81 % 13.33 C
1470 12-07-2016 02:25:00 16.4 C 82 % 13.32 C
1471 12-07-2016 02:30:00 16.3 C 82 % 13.22 C
1472 12-07-2016 02:35:00 16.1 C 83 % 13.21 C
1473 12-07-2016 02:40:00 15.9 C 83 % 13.02 C
1474 12-07-2016 02:45:00 15.8 C 84 % 13.1 C
1475 12-07-2016 02:50:00 15.7 C 84 % 13.01 C
Sensor: Nr:Datum:Temp:Feuchte:Taupunkt:
Aussen-T/F 1476 12-07-2016 02:55:00 15.6 C 85 % 13.09 C
1477 12-07-2016 03:00:00 15.5 C 85 % 12.99 C
1478 12-07-2016 03:05:00 15.4 C 86 % 13.07 C
1479 12-07-2016 03:10:00 15.3 C 86 % 12.97 C
1480 12-07-2016 03:15:00 15.2 C 86 % 12.88 C
1481 12-07-2016 03:20:00 15.1 C 86 % 12.78 C
1482 12-07-2016 03:25:00 15 C 87 % 12.86 C
1483 12-07-2016 03:30:00 14.9 C 87 % 12.76 C
1484 12-07-2016 03:35:00 14.8 C 87 % 12.66 C
1485 12-07-2016 03:40:00 14.8 C 88 % 12.83 C
1486 12-07-2016 03:45:00 14.7 C 88 % 12.73 C
1487 12-07-2016 03:50:00 14.7 C 88 % 12.73 C
1488 12-07-2016 03:55:00 14.7 C 88 % 12.73 C
1489 12-07-2016 04:00:00 14.6 C 89 % 12.81 C
1490 12-07-2016 04:05:00 14.6 C 89 % 12.81 C
1491 12-07-2016 04:10:00 14.6 C 89 % 12.81 C
1492 12-07-2016 04:15:00 14.6 C 89 % 12.81 C
1493 12-07-2016 04:20:00 14.5 C 89 % 12.71 C
1494 12-07-2016 04:25:00 14.4 C 89 % 12.61 C
1495 12-07-2016 04:30:00 14.4 C 90 % 12.78 C
1496 12-07-2016 04:35:00 14.4 C 90 % 12.78 C
1497 12-07-2016 04:40:00 14.4 C 90 % 12.78 C
1498 12-07-2016 04:45:00 14.4 C 90 % 12.78 C
1499 12-07-2016 04:50:00 14.4 C 90 % 12.78 C
1500 12-07-2016 04:55:00 14.4 C 91 % 12.95 C
Sensor: Nr:Datum:Temp:Feuchte:Taupunkt:
Aussen-T/F 1501 12-07-2016 05:00:00 14.4 C 91 % 12.95 C
1502 12-07-2016 05:05:00 14.4 C 91 % 12.95 C
1503 12-07-2016 05:10:00 14.4 C 91 % 12.95 C
1504 12-07-2016 05:15:00 14.3 C 91 % 12.85 C
1505 12-07-2016 05:20:00 14.3 C 91 % 12.85 C
1506 12-07-2016 05:25:00 14.3 C 91 % 12.85 C
1507 12-07-2016 05:30:00 14.3 C 91 % 12.85 C
1508 12-07-2016 05:35:00 14.2 C 91 % 12.75 C
1509 12-07-2016 05:40:00 14.2 C 92 % 12.92 C
1510 12-07-2016 05:45:00 14.2 C 92 % 12.92 C
1511 12-07-2016 05:50:00 14.2 C 92 % 12.92 C
1512 12-07-2016 05:55:00 14.3 C 92 % 13.02 C
1513 12-07-2016 06:00:00 14.3 C 92 % 13.02 C
1514 12-07-2016 06:05:00 14.3 C 92 % 13.02 C
1515 12-07-2016 06:10:00 14.5 C 92 % 13.22 C
1516 12-07-2016 06:15:00 14.6 C 92 % 13.32 C
1517 12-07-2016 06:20:00 14.7 C 92 % 13.41 C
1518 12-07-2016 06:25:00 14.7 C 91 % 13.25 C
1519 12-07-2016 06:30:00 14.7 C 91 % 13.25 C
1520 12-07-2016 06:35:00 14.8 C 91 % 13.35 C
1521 12-07-2016 06:40:00 14.8 C 91 % 13.35 C
1522 12-07-2016 06:45:00 14.8 C 91 % 13.35 C
1523 12-07-2016 06:50:00 14.8 C 91 % 13.35 C
1524 12-07-2016 06:55:00 14.9 C 91 % 13.44 C
1525 12-07-2016 07:00:00 14.8 C 90 % 13.18 C
Sensor: Nr:Datum:Temp:Feuchte:Taupunkt:
Aussen-T/F 1526 12-07-2016 07:05:00 14.9 C 91 % 13.44 C
1527 12-07-2016 07:10:00 14.9 C 90 % 13.28 C
1528 12-07-2016 07:15:00 15 C 91 % 13.54 C
1529 12-07-2016 07:20:00 15.1 C 91 % 13.64 C
1530 12-07-2016 07:25:00 15.2 C 91 % 13.74 C
1531 12-07-2016 07:30:00 15.3 C 90 % 13.67 C
1532 12-07-2016 07:35:00 15.5 C 89 % 13.7 C
1533 12-07-2016 07:40:00 15.6 C 89 % 13.79 C
1534 12-07-2016 07:45:00 15.7 C 89 % 13.89 C
1535 12-07-2016 07:50:00 15.7 C 90 % 14.06 C
1536 12-07-2016 07:55:00 15.8 C 90 % 14.16 C
1537 12-07-2016 08:00:00 15.9 C 89 % 14.09 C
1538 12-07-2016 08:05:00 16 C 89 % 14.19 C
1539 12-07-2016 08:10:00 16.1 C 87 % 13.94 C
1540 12-07-2016 08:15:00 16.3 C 87 % 14.13 C
1541 12-07-2016 08:20:00 16.4 C 87 % 14.23 C
1542 12-07-2016 08:25:00 16.7 C 87 % 14.53 C
1543 12-07-2016 08:30:00 16.9 C 86 % 14.54 C
1544 12-07-2016 08:35:00 17.1 C 85 % 14.56 C
1545 12-07-2016 08:40:00 17.3 C 83 % 14.39 C
1546 12-07-2016 08:45:00 17.5 C 83 % 14.58 C
1547 12-07-2016 08:50:00 17.7 C 84 % 14.96 C
1548 12-07-2016 08:55:00 17.8 C 85 % 15.25 C
1549 12-07-2016 09:00:00 17.9 C 85 % 15.34 C
1550 12-07-2016 09:05:00 18 C 85 % 15.44 C
Sensor: Nr:Datum:Temp:Feuchte:Taupunkt:
Aussen-T/F 1551 12-07-2016 09:10:00 18.1 C 84 % 15.35 C
1552 12-07-2016 09:15:00 18.2 C 82 % 15.08 C
1553 12-07-2016 09:20:00 18.3 C 83 % 15.36 C
1554 12-07-2016 09:25:00 18.3 C 80 % 14.79 C
1555 12-07-2016 09:30:00 18.4 C 82 % 15.27 C
1556 12-07-2016 09:35:00 18.5 C 80 % 14.99 C
1557 12-07-2016 09:40:00 18.6 C 79 % 14.89 C
1558 12-07-2016 09:45:00 18.7 C 77 % 14.59 C
1559 12-07-2016 09:50:00 18.8 C 76 % 14.48 C
1560 12-07-2016 09:55:00 18.9 C 79 % 15.18 C
1561 12-07-2016 10:00:00 19.1 C 79 % 15.37 C
1562 12-07-2016 10:05:00 19.3 C 78 % 15.37 C
1563 12-07-2016 10:10:00 19.4 C 75 % 14.86 C
1564 12-07-2016 10:15:00 19.7 C 73 % 14.73 C
1565 12-07-2016 10:20:00 19.8 C 73 % 14.82 C
1566 12-07-2016 10:25:00 20.1 C 71 % 14.68 C
1567 12-07-2016 10:30:00 20.2 C 69 % 14.33 C
1568 12-07-2016 10:35:00 20.3 C 73 % 15.3 C
1569 12-07-2016 10:40:00 20.2 C 70 % 14.56 C
1570 12-07-2016 10:45:00 20.2 C 70 % 14.56 C
1571 12-07-2016 10:50:00 20.3 C 69 % 14.43 C
1572 12-07-2016 10:55:00 20.4 C 70 % 14.75 C
1573 12-07-2016 11:00:00 20.6 C 70 % 14.94 C
1574 12-07-2016 11:05:00 20.8 C 67 % 14.45 C
1575 12-07-2016 11:10:00 20.8 C 70 % 15.13 C
Sensor: Nr:Datum:Temp:Feuchte:Taupunkt:
Aussen-T/F 1576 12-07-2016 11:15:00 20.9 C 66 % 14.31 C
1577 12-07-2016 11:20:00 20.9 C 67 % 14.55 C
1578 12-07-2016 11:25:00 21 C 65 % 14.17 C
1579 12-07-2016 11:30:00 21.1 C 67 % 14.74 C
1580 12-07-2016 11:35:00 21.1 C 67 % 14.74 C
1581 12-07-2016 11:40:00 21.1 C 69 % 15.19 C
1582 12-07-2016 11:45:00 21 C 71 % 15.54 C
1583 12-07-2016 11:50:00 21.1 C 67 % 14.74 C
1584 12-07-2016 11:55:00 21.3 C 64 % 14.22 C
1585 12-07-2016 12:00:00 21.6 C 63 % 14.26 C
1586 12-07-2016 12:05:00 21.8 C 64 % 14.69 C
1587 12-07-2016 12:10:00 21.9 C 66 % 15.26 C
1588 12-07-2016 12:15:00 22.1 C 62 % 14.48 C
1589 12-07-2016 12:20:00 22.2 C 63 % 14.82 C
1590 12-07-2016 12:25:00 22.2 C 67 % 15.78 C
1591 12-07-2016 12:30:00 22.1 C 61 % 14.23 C
1592 12-07-2016 12:35:00 21.9 C 63 % 14.54 C
1593 12-07-2016 12:40:00 21.8 C 70 % 16.09 C
1594 12-07-2016 12:45:00 21.7 C 73 % 16.65 C
1595 12-07-2016 12:50:00 21.7 C 69 % 15.77 C
1596 12-07-2016 12:55:00 21.6 C 65 % 14.74 C
1597 12-07-2016 13:00:00 21.7 C 62 % 14.1 C
1598 12-07-2016 13:05:00 21.9 C 68 % 15.73 C
1599 12-07-2016 13:10:00 22.1 C 67 % 15.69 C
1600 12-07-2016 13:15:00 22.2 C 68 % 16.01 C
Sensor: Nr:Datum:Temp:Feuchte:Taupunkt:
Aussen-T/F 1601 12-07-2016 13:20:00 22.2 C 69 % 16.24 C
1602 12-07-2016 13:25:00 22.1 C 69 % 16.15 C
1603 12-07-2016 13:30:00 22.1 C 65 % 15.21 C
1604 12-07-2016 13:35:00 22.1 C 62 % 14.48 C
1605 12-07-2016 13:40:00 22.2 C 60 % 14.07 C
1606 12-07-2016 13:45:00 22.3 C 58 % 13.64 C
1607 12-07-2016 13:50:00 22.6 C 58 % 13.92 C
1608 12-07-2016 13:55:00 22.7 C 57 % 13.75 C
1609 12-07-2016 14:00:00 22.8 C 57 % 13.84 C
1610 12-07-2016 14:05:00 22.8 C 56 % 13.57 C
1611 12-07-2016 14:10:00 22.8 C 62 % 15.14 C
1612 12-07-2016 14:15:00 22.7 C 55 % 13.2 C
1613 12-07-2016 14:20:00 22.8 C 60 % 14.63 C
1614 12-07-2016 14:25:00 22.8 C 56 % 13.57 C
1615 12-07-2016 14:30:00 22.9 C 56 % 13.66 C
1616 12-07-2016 14:35:00 23.2 C 56 % 13.94 C
1617 12-07-2016 14:40:00 23.4 C 52 % 12.99 C
1618 12-07-2016 14:45:00 23.6 C 56 % 14.31 C
1619 12-07-2016 14:50:00 23.8 C 52 % 13.36 C
1620 12-07-2016 14:55:00 23.9 C 52 % 13.45 C
1621 12-07-2016 15:00:00 24.2 C 52 % 13.73 C
1622 12-07-2016 15:05:00 24.3 C 54 % 14.4 C
1623 12-07-2016 15:10:00 24.4 C 49 % 13 C
1624 12-07-2016 15:15:00 24.6 C 48 % 12.87 C
1625 12-07-2016 15:20:00 24.8 C 47 % 12.73 C
Sensor: Nr:Datum:Temp:Feuchte:Taupunkt:
Aussen-T/F 1626 12-07-2016 15:25:00 24.9 C 49 % 13.46 C
1627 12-07-2016 15:30:00 25.1 C 49 % 13.64 C
1628 12-07-2016 15:35:00 25.3 C 48 % 13.5 C
1629 12-07-2016 15:40:00 25.4 C 48 % 13.6 C
1630 12-07-2016 15:45:00 25.3 C 48 % 13.5 C
1631 12-07-2016 15:50:00 25.1 C 48 % 13.32 C
1632 12-07-2016 15:55:00 25.1 C 51 % 14.25 C
1633 12-07-2016 16:00:00 25.6 C 51 % 14.71 C
1634 12-07-2016 16:05:00 26 C 45 % 13.15 C
1635 12-07-2016 16:10:00 25.6 C 48 % 13.78 C
1636 12-07-2016 16:15:00 25.3 C 46 % 12.85 C
1637 12-07-2016 16:20:00 24.8 C 47 % 12.73 C
1638 12-07-2016 16:25:00 24.4 C 52 % 13.91 C
1639 12-07-2016 16:30:00 24.3 C 52 % 13.82 C
1640 12-07-2016 16:35:00 24.2 C 56 % 14.87 C
1641 12-07-2016 16:40:00 24.1 C 53 % 13.93 C
1642 12-07-2016 16:45:00 24.1 C 51 % 13.34 C
1643 12-07-2016 16:50:00 23.8 C 55 % 14.22 C
1644 12-07-2016 16:55:00 23.7 C 58 % 14.95 C
1645 12-07-2016 17:00:00 23.9 C 58 % 15.14 C
1646 12-07-2016 17:05:00 24.2 C 55 % 14.59 C
1647 12-07-2016 17:10:00 24.3 C 54 % 14.4 C
1648 12-07-2016 17:15:00 24.4 C 53 % 14.2 C
1649 12-07-2016 17:20:00 24.1 C 53 % 13.93 C
1650 12-07-2016 17:25:00 23.9 C 54 % 14.03 C
Sensor: Nr:Datum:Temp:Feuchte:Taupunkt:
Aussen-T/F 1651 12-07-2016 17:30:00 24 C 55 % 14.41 C
1652 12-07-2016 17:35:00 24 C 55 % 14.41 C
1653 12-07-2016 17:40:00 24.1 C 55 % 14.5 C
1654 12-07-2016 17:45:00 24.2 C 52 % 13.73 C
1655 12-07-2016 17:50:00 24.6 C 53 % 14.39 C
1656 12-07-2016 17:55:00 24.7 C 53 % 14.48 C
1657 12-07-2016 18:00:00 24.6 C 53 % 14.39 C
1658 12-07-2016 18:05:00 24.2 C 54 % 14.31 C
1659 12-07-2016 18:10:00 24.3 C 55 % 14.68 C
1660 12-07-2016 18:15:00 24.2 C 53 % 14.02 C
1661 12-07-2016 18:20:00 23.8 C 54 % 13.94 C
1662 12-07-2016 18:25:00 23.3 C 56 % 14.03 C
1663 12-07-2016 18:30:00 22.9 C 57 % 13.93 C
1664 12-07-2016 18:35:00 22.8 C 59 % 14.37 C
1665 12-07-2016 18:40:00 22.7 C 64 % 15.54 C
1666 12-07-2016 18:45:00 23.1 C 65 % 16.16 C
1667 12-07-2016 18:50:00 23.1 C 63 % 15.67 C
1668 12-07-2016 18:55:00 23.2 C 63 % 15.77 C
1669 12-07-2016 19:00:00 23.1 C 58 % 14.39 C
1670 12-07-2016 19:05:00 22.6 C 59 % 14.18 C
1671 12-07-2016 19:10:00 22.3 C 59 % 13.9 C
1672 12-07-2016 19:15:00 22.3 C 59 % 13.9 C
1673 12-07-2016 19:20:00 22.2 C 58 % 13.55 C
1674 12-07-2016 19:25:00 22.1 C 60 % 13.98 C
1675 12-07-2016 19:30:00 22.1 C 61 % 14.23 C
Sensor: Nr:Datum:Temp:Feuchte:Taupunkt:
Aussen-T/F 1676 12-07-2016 19:35:00 21.9 C 61 % 14.04 C
1677 12-07-2016 19:40:00 21.8 C 62 % 14.2 C
1678 12-07-2016 19:45:00 21.7 C 63 % 14.35 C
1679 12-07-2016 19:50:00 21.6 C 63 % 14.26 C
1680 12-07-2016 19:55:00 21.3 C 64 % 14.22 C
1681 12-07-2016 20:00:00 21.1 C 64 % 14.03 C
1682 12-07-2016 20:05:00 20.8 C 66 % 14.22 C
1683 12-07-2016 20:10:00 20.5 C 69 % 14.62 C
1684 12-07-2016 20:15:00 20.3 C 73 % 15.3 C
1685 12-07-2016 20:20:00 19.9 C 75 % 15.34 C
1686 12-07-2016 20:25:00 19.6 C 77 % 15.46 C
1687 12-07-2016 20:30:00 19.1 C 77 % 14.97 C
1688 12-07-2016 20:35:00 18.6 C 78 % 14.69 C
1689 12-07-2016 20:40:00 18.2 C 80 % 14.69 C
1690 12-07-2016 20:45:00 17.9 C 80 % 14.4 C
1691 12-07-2016 20:50:00 17.7 C 81 % 14.4 C
1692 12-07-2016 20:55:00 17.6 C 83 % 14.68 C
1693 12-07-2016 21:00:00 17.4 C 81 % 14.11 C
1694 12-07-2016 21:05:00 17.4 C 83 % 14.48 C
1695 12-07-2016 21:10:00 17.3 C 84 % 14.57 C
1696 12-07-2016 21:15:00 17.2 C 84 % 14.47 C
1697 12-07-2016 21:20:00 17.3 C 81 % 14.01 C
1698 12-07-2016 21:25:00 17.4 C 79 % 13.72 C
1699 12-07-2016 21:30:00 17.7 C 78 % 13.82 C
1700 12-07-2016 21:35:00 17.8 C 78 % 13.91 C
Sensor: Nr:Datum:Temp:Feuchte:Taupunkt:
Aussen-T/F 1701 12-07-2016 21:40:00 17.9 C 80 % 14.4 C
1702 12-07-2016 21:45:00 17.8 C 83 % 14.88 C
1703 12-07-2016 21:50:00 17.7 C 86 % 15.33 C
1704 12-07-2016 21:55:00 17.5 C 86 % 15.13 C
1705 12-07-2016 22:00:00 17.3 C 87 % 15.12 C
1706 12-07-2016 22:05:00 17 C 87 % 14.82 C
1707 12-07-2016 22:10:00 16.8 C 88 % 14.8 C
1708 12-07-2016 22:15:00 16.6 C 89 % 14.78 C
1709 12-07-2016 22:20:00 16.5 C 90 % 14.85 C
1710 12-07-2016 22:25:00 16.4 C 90 % 14.76 C
1711 12-07-2016 22:30:00 16.3 C 91 % 14.83 C
1712 12-07-2016 22:35:00 16.3 C 91 % 14.83 C
1713 12-07-2016 22:40:00 16.3 C 92 % 15 C
1714 12-07-2016 22:45:00 16.2 C 92 % 14.9 C
1715 12-07-2016 22:50:00 16.2 C 92 % 14.9 C
1716 12-07-2016 22:55:00 16.1 C 92 % 14.8 C
1717 12-07-2016 23:00:00 16 C 92 % 14.7 C
1718 12-07-2016 23:05:00 15.9 C 92 % 14.6 C
1719 12-07-2016 23:10:00 15.8 C 92 % 14.5 C
1720 12-07-2016 23:15:00 15.7 C 92 % 14.4 C
1721 12-07-2016 23:20:00 15.7 C 92 % 14.4 C
1722 12-07-2016 23:25:00 15.6 C 92 % 14.31 C
1723 12-07-2016 23:30:00 15.5 C 93 % 14.37 C
1724 12-07-2016 23:35:00 15.4 C 93 % 14.27 C
1725 12-07-2016 23:40:00 15.3 C 93 % 14.18 C
Sensor: Nr:Datum:Temp:Feuchte:Taupunkt:
Aussen-T/F 1726 12-07-2016 23:45:00 15.3 C 93 % 14.18 C
1727 12-07-2016 23:50:00 15.3 C 93 % 14.18 C
1728 12-07-2016 23:55:00 15.3 C 94 % 14.34 C
1729 13-07-2016 00:00:00 15.3 C 94 % 14.34 C
1730 13-07-2016 00:05:00 15.2 C 94 % 14.24 C
1731 13-07-2016 00:10:00 15.2 C 94 % 14.24 C
1732 13-07-2016 00:15:00 15.1 C 94 % 14.14 C
1733 13-07-2016 00:20:00 15.1 C 93 % 13.98 C
1734 13-07-2016 00:25:00 15 C 93 % 13.88 C
1735 13-07-2016 00:30:00 14.9 C 94 % 13.94 C
1736 13-07-2016 00:35:00 14.9 C 94 % 13.94 C
1737 13-07-2016 00:40:00 14.8 C 94 % 13.84 C
1738 13-07-2016 00:45:00 14.7 C 93 % 13.58 C
1739 13-07-2016 00:50:00 14.6 C 93 % 13.48 C
1740 13-07-2016 00:55:00 14.5 C 93 % 13.38 C
1741 13-07-2016 01:00:00 14.4 C 93 % 13.28 C
1742 13-07-2016 01:05:00 14.3 C 93 % 13.18 C
1743 13-07-2016 01:10:00 14.2 C 93 % 13.08 C
1744 13-07-2016 01:15:00 14.2 C 94 % 13.25 C
1745 13-07-2016 01:20:00 14.1 C 94 % 13.15 C
1746 13-07-2016 01:25:00 14.1 C 94 % 13.15 C
1747 13-07-2016 01:30:00 14 C 94 % 13.05 C
1748 13-07-2016 01:35:00 13.9 C 94 % 12.95 C
1749 13-07-2016 01:40:00 13.9 C 94 % 12.95 C
1750 13-07-2016 01:45:00 13.9 C 94 % 12.95 C
Sensor: Nr:Datum:Temp:Feuchte:Taupunkt:
Aussen-T/F 1751 13-07-2016 01:50:00 13.8 C 94 % 12.85 C
1752 13-07-2016 01:55:00 13.8 C 94 % 12.85 C
1753 13-07-2016 02:00:00 13.8 C 94 % 12.85 C
1754 13-07-2016 02:05:00 13.8 C 94 % 12.85 C
1755 13-07-2016 02:10:00 13.7 C 94 % 12.75 C
1756 13-07-2016 02:15:00 13.7 C 94 % 12.75 C
1757 13-07-2016 02:20:00 13.7 C 94 % 12.75 C
1758 13-07-2016 02:25:00 13.6 C 94 % 12.65 C
1759 13-07-2016 02:30:00 13.6 C 95 % 12.81 C
1760 13-07-2016 02:35:00 13.6 C 95 % 12.81 C
1761 13-07-2016 02:40:00 13.5 C 95 % 12.72 C
1762 13-07-2016 02:45:00 13.4 C 94 % 12.45 C
1763 13-07-2016 02:50:00 13.4 C 94 % 12.45 C
1764 13-07-2016 02:55:00 13.3 C 94 % 12.36 C
1765 13-07-2016 03:00:00 13.3 C 94 % 12.36 C
1766 13-07-2016 03:05:00 13.3 C 95 % 12.52 C
1767 13-07-2016 03:10:00 13.3 C 95 % 12.52 C
1768 13-07-2016 03:15:00 13.3 C 95 % 12.52 C
1769 13-07-2016 03:20:00 13.3 C 95 % 12.52 C
1770 13-07-2016 03:25:00 13.2 C 95 % 12.42 C
1771 13-07-2016 03:30:00 13.2 C 95 % 12.42 C
1772 13-07-2016 03:35:00 13.2 C 95 % 12.42 C
1773 13-07-2016 03:40:00 13.1 C 95 % 12.32 C
1774 13-07-2016 03:45:00 13.1 C 95 % 12.32 C
1775 13-07-2016 03:50:00 13 C 95 % 12.22 C
Sensor: Nr:Datum:Temp:Feuchte:Taupunkt:
Aussen-T/F 1776 13-07-2016 03:55:00 12.9 C 95 % 12.12 C
1777 13-07-2016 04:00:00 12.9 C 95 % 12.12 C
1778 13-07-2016 04:05:00 12.8 C 95 % 12.02 C
1779 13-07-2016 04:10:00 12.8 C 95 % 12.02 C
1780 13-07-2016 04:15:00 12.7 C 95 % 11.92 C
1781 13-07-2016 04:20:00 12.7 C 95 % 11.92 C
1782 13-07-2016 04:25:00 12.6 C 95 % 11.82 C
1783 13-07-2016 04:30:00 12.5 C 95 % 11.72 C
1784 13-07-2016 04:35:00 12.4 C 95 % 11.62 C
1785 13-07-2016 04:40:00 12.4 C 95 % 11.62 C
1786 13-07-2016 04:45:00 12.4 C 95 % 11.62 C
1787 13-07-2016 04:50:00 12.4 C 95 % 11.62 C
1788 13-07-2016 04:55:00 12.4 C 95 % 11.62 C
1789 13-07-2016 05:00:00 12.3 C 95 % 11.52 C
1790 13-07-2016 05:05:00 12.3 C 95 % 11.52 C
1791 13-07-2016 05:10:00 12.3 C 95 % 11.52 C
1792 13-07-2016 05:15:00 12.4 C 95 % 11.62 C
1793 13-07-2016 05:20:00 12.4 C 95 % 11.62 C
1794 13-07-2016 05:25:00 12.3 C 95 % 11.52 C
1795 13-07-2016 05:30:00 12.3 C 95 % 11.52 C
1796 13-07-2016 05:35:00 12.2 C 95 % 11.42 C
1797 13-07-2016 05:40:00 12.3 C 96 % 11.68 C
1798 13-07-2016 05:45:00 12.3 C 96 % 11.68 C
1799 13-07-2016 05:50:00 12.4 C 96 % 11.78 C
1800 13-07-2016 05:55:00 12.5 C 96 % 11.88 C
Sensor: Nr:Datum:Temp:Feuchte:Taupunkt:
Aussen-T/F 1801 13-07-2016 06:00:00 12.6 C 96 % 11.98 C
1802 13-07-2016 06:05:00 12.7 C 96 % 12.08 C
1803 13-07-2016 06:10:00 12.8 C 96 % 12.18 C
1804 13-07-2016 06:15:00 12.8 C 96 % 12.18 C
1805 13-07-2016 06:20:00 12.9 C 96 % 12.28 C
1806 13-07-2016 06:25:00 12.9 C 96 % 12.28 C
1807 13-07-2016 06:30:00 12.9 C 96 % 12.28 C
1808 13-07-2016 06:35:00 12.9 C 96 % 12.28 C
1809 13-07-2016 06:40:00 12.9 C 96 % 12.28 C
1810 13-07-2016 06:45:00 13 C 96 % 12.38 C
1811 13-07-2016 06:50:00 12.9 C 96 % 12.28 C
1812 13-07-2016 06:55:00 12.9 C 96 % 12.28 C
1813 13-07-2016 07:00:00 12.9 C 96 % 12.28 C
1814 13-07-2016 07:05:00 12.9 C 96 % 12.28 C
1815 13-07-2016 07:10:00 12.9 C 96 % 12.28 C
1816 13-07-2016 07:15:00 12.9 C 96 % 12.28 C
1817 13-07-2016 07:20:00 13.1 C 96 % 12.48 C
1818 13-07-2016 07:25:00 13.1 C 96 % 12.48 C
1819 13-07-2016 07:30:00 13.1 C 96 % 12.48 C
1820 13-07-2016 07:35:00 13.2 C 96 % 12.58 C
1821 13-07-2016 07:40:00 13.3 C 96 % 12.68 C
1822 13-07-2016 07:45:00 13.3 C 96 % 12.68 C
1823 13-07-2016 07:50:00 13.3 C 96 % 12.68 C
1824 13-07-2016 07:55:00 13.3 C 96 % 12.68 C
1825 13-07-2016 08:00:00 13.4 C 96 % 12.78 C
Sensor: Nr:Datum:Temp:Feuchte:Taupunkt:
Aussen-T/F 1826 13-07-2016 08:05:00 13.4 C 96 % 12.78 C
1827 13-07-2016 08:10:00 13.4 C 96 % 12.78 C
1828 13-07-2016 08:15:00 13.5 C 96 % 12.87 C
1829 13-07-2016 08:20:00 13.6 C 96 % 12.97 C
1830 13-07-2016 08:25:00 13.7 C 96 % 13.07 C
1831 13-07-2016 08:30:00 13.9 C 96 % 13.27 C
1832 13-07-2016 08:35:00 14 C 96 % 13.37 C
1833 13-07-2016 08:40:00 13.9 C 96 % 13.27 C
1834 13-07-2016 08:45:00 13.9 C 96 % 13.27 C
1835 13-07-2016 08:50:00 14 C 96 % 13.37 C
1836 13-07-2016 08:55:00 14.1 C 96 % 13.47 C
1837 13-07-2016 09:00:00 14.2 C 96 % 13.57 C
1838 13-07-2016 09:05:00 14.4 C 96 % 13.77 C
1839 13-07-2016 09:10:00 14.6 C 96 % 13.97 C
1840 13-07-2016 09:15:00 14.8 C 96 % 14.17 C
1841 13-07-2016 09:20:00 15 C 95 % 14.21 C
1842 13-07-2016 09:25:00 15.2 C 95 % 14.4 C
1843 13-07-2016 09:30:00 15.4 C 95 % 14.6 C
1844 13-07-2016 09:35:00 15.6 C 94 % 14.64 C
1845 13-07-2016 09:40:00 15.7 C 93 % 14.57 C
1846 13-07-2016 09:45:00 15.8 C 90 % 14.16 C
1847 13-07-2016 09:50:00 15.8 C 90 % 14.16 C
1848 13-07-2016 09:55:00 16 C 89 % 14.19 C
1849 13-07-2016 10:00:00 16.2 C 90 % 14.56 C
1850 13-07-2016 10:05:00 16.3 C 89 % 14.48 C
Sensor: Nr:Datum:Temp:Feuchte:Taupunkt:
Aussen-T/F 1851 13-07-2016 10:10:00 16.2 C 88 % 14.21 C
1852 13-07-2016 10:15:00 16.2 C 87 % 14.03 C
1853 13-07-2016 10:20:00 16.1 C 85 % 13.58 C
1854 13-07-2016 10:25:00 16 C 85 % 13.48 C
1855 13-07-2016 10:30:00 15.1 C 85 % 12.6 C
1856 13-07-2016 10:35:00 14.2 C 87 % 12.07 C
1857 13-07-2016 10:40:00 13.7 C 89 % 11.92 C
1858 13-07-2016 10:45:00 13.3 C 91 % 11.86 C
1859 13-07-2016 10:50:00 13.2 C 92 % 11.93 C
1860 13-07-2016 10:55:00 13 C 92 % 11.73 C
1861 13-07-2016 11:00:00 12.9 C 93 % 11.8 C
1862 13-07-2016 11:05:00 12.9 C 93 % 11.8 C
1863 13-07-2016 11:10:00 12.9 C 94 % 11.96 C
1864 13-07-2016 11:15:00 12.9 C 94 % 11.96 C
1865 13-07-2016 11:20:00 12.9 C 94 % 11.96 C
1866 13-07-2016 11:25:00 12.9 C 94 % 11.96 C
1867 13-07-2016 11:30:00 13 C 94 % 12.06 C
1868 13-07-2016 11:35:00 13.1 C 95 % 12.32 C
1869 13-07-2016 11:40:00 13.3 C 95 % 12.52 C
1870 13-07-2016 11:45:00 13.5 C 95 % 12.72 C
1871 13-07-2016 11:50:00 13.7 C 95 % 12.91 C
1872 13-07-2016 11:55:00 13.9 C 96 % 13.27 C
1873 13-07-2016 12:00:00 14.3 C 96 % 13.67 C
1874 13-07-2016 12:05:00 14.4 C 96 % 13.77 C
1875 13-07-2016 12:10:00 14.5 C 95 % 13.71 C
Sensor: Nr:Datum:Temp:Feuchte:Taupunkt:
Aussen-T/F 1876 13-07-2016 12:15:00 14.8 C 96 % 14.17 C
1877 13-07-2016 12:20:00 14.9 C 96 % 14.27 C
1878 13-07-2016 12:25:00 14.7 C 94 % 13.74 C
1879 13-07-2016 12:30:00 14.8 C 95 % 14.01 C
1880 13-07-2016 12:35:00 14.8 C 94 % 13.84 C
1881 13-07-2016 12:40:00 14.9 C 94 % 13.94 C
1882 13-07-2016 12:45:00 15 C 93 % 13.88 C
1883 13-07-2016 12:50:00 15.2 C 93 % 14.08 C
1884 13-07-2016 12:55:00 15.4 C 93 % 14.27 C
1885 13-07-2016 13:00:00 15.4 C 92 % 14.11 C
1886 13-07-2016 13:05:00 15.4 C 92 % 14.11 C
1887 13-07-2016 13:10:00 15.6 C 93 % 14.47 C
1888 13-07-2016 13:15:00 15.7 C 93 % 14.57 C
1889 13-07-2016 13:20:00 15.8 C 93 % 14.67 C
1890 13-07-2016 13:25:00 15.8 C 93 % 14.67 C
1891 13-07-2016 13:30:00 15.9 C 93 % 14.77 C
1892 13-07-2016 13:35:00 15.9 C 92 % 14.6 C
1893 13-07-2016 13:40:00 16 C 91 % 14.53 C
1894 13-07-2016 13:45:00 15.9 C 89 % 14.09 C
1895 13-07-2016 13:50:00 16.1 C 90 % 14.46 C
1896 13-07-2016 13:55:00 16.1 C 88 % 14.11 C
1897 13-07-2016 14:00:00 16.2 C 89 % 14.39 C
1898 13-07-2016 14:05:00 16.2 C 86 % 13.86 C
1899 13-07-2016 14:10:00 16.5 C 90 % 14.85 C
1900 13-07-2016 14:15:00 16.7 C 90 % 15.05 C
Sensor: Nr:Datum:Temp:Feuchte:Taupunkt:
Aussen-T/F 1901 13-07-2016 14:20:00 16.8 C 87 % 14.62 C
1902 13-07-2016 14:25:00 16.9 C 86 % 14.54 C
1903 13-07-2016 14:30:00 17.1 C 81 % 13.82 C
1904 13-07-2016 14:35:00 17.3 C 80 % 13.82 C
1905 13-07-2016 14:40:00 17.5 C 85 % 14.95 C
1906 13-07-2016 14:45:00 17.5 C 81 % 14.2 C
1907 13-07-2016 14:50:00 17.6 C 81 % 14.3 C
1908 13-07-2016 14:55:00 17.6 C 80 % 14.11 C
1909 13-07-2016 15:00:00 17.6 C 79 % 13.92 C
1910 13-07-2016 15:05:00 17.9 C 77 % 13.81 C
1911 13-07-2016 15:10:00 18.1 C 76 % 13.81 C
1912 13-07-2016 15:15:00 18.2 C 81 % 14.89 C
1913 13-07-2016 15:20:00 18.1 C 80 % 14.6 C
1914 13-07-2016 15:25:00 17.9 C 76 % 13.61 C
1915 13-07-2016 15:30:00 18.1 C 75 % 13.6 C
1916 13-07-2016 15:35:00 18.4 C 73 % 13.48 C
1917 13-07-2016 15:40:00 18.9 C 76 % 14.58 C
1918 13-07-2016 15:45:00 19.4 C 72 % 14.22 C
1919 13-07-2016 15:50:00 19.8 C 72 % 14.61 C
1920 13-07-2016 15:55:00 19.9 C 71 % 14.49 C
1921 13-07-2016 16:00:00 19.8 C 66 % 13.27 C
1922 13-07-2016 16:05:00 19.8 C 66 % 13.27 C
1923 13-07-2016 16:10:00 19.7 C 72 % 14.51 C
1924 13-07-2016 16:15:00 19.9 C 73 % 14.92 C
1925 13-07-2016 16:20:00 20.3 C 70 % 14.65 C
Sensor: Nr:Datum:Temp:Feuchte:Taupunkt:
Aussen-T/F 1926 13-07-2016 16:25:00 20.7 C 68 % 14.58 C
1927 13-07-2016 16:30:00 20.8 C 73 % 15.78 C
1928 13-07-2016 16:35:00 20.6 C 78 % 16.63 C
1929 13-07-2016 16:40:00 20.3 C 77 % 16.14 C
1930 13-07-2016 16:45:00 19.8 C 79 % 16.05 C
1931 13-07-2016 16:50:00 18.4 C 72 % 13.26 C
1932 13-07-2016 16:55:00 17.3 C 79 % 13.63 C
1933 13-07-2016 17:00:00 16.4 C 80 % 12.94 C
1934 13-07-2016 17:05:00 15.8 C 83 % 12.92 C
1935 13-07-2016 17:10:00 15.4 C 84 % 12.71 C
1936 13-07-2016 17:15:00 15.2 C 86 % 12.88 C
1937 13-07-2016 17:20:00 15.1 C 87 % 12.95 C
1938 13-07-2016 17:25:00 15.1 C 89 % 13.3 C
1939 13-07-2016 17:30:00 15.1 C 90 % 13.47 C
1940 13-07-2016 17:35:00 15.1 C 90 % 13.47 C
1941 13-07-2016 17:40:00 15 C 90 % 13.37 C
1942 13-07-2016 17:45:00 15 C 90 % 13.37 C
1943 13-07-2016 17:50:00 15.1 C 90 % 13.47 C
1944 13-07-2016 17:55:00 15.2 C 91 % 13.74 C
1945 13-07-2016 18:00:00 15.3 C 90 % 13.67 C
1946 13-07-2016 18:05:00 15.4 C 90 % 13.77 C
1947 13-07-2016 18:10:00 15.5 C 90 % 13.87 C
1948 13-07-2016 18:15:00 15.8 C 91 % 14.33 C
1949 13-07-2016 18:20:00 16 C 91 % 14.53 C
1950 13-07-2016 18:25:00 16.2 C 91 % 14.73 C
Sensor: Nr:Datum:Temp:Feuchte:Taupunkt:
Aussen-T/F 1951 13-07-2016 18:30:00 16.2 C 90 % 14.56 C
1952 13-07-2016 18:35:00 16.1 C 89 % 14.29 C
1953 13-07-2016 18:40:00 15.9 C 88 % 13.92 C
1954 13-07-2016 18:45:00 15.8 C 88 % 13.82 C
1955 13-07-2016 18:50:00 15.9 C 90 % 14.26 C
1956 13-07-2016 18:55:00 16.5 C 92 % 15.2 C
1957 13-07-2016 19:00:00 16.6 C 89 % 14.78 C
1958 13-07-2016 19:05:00 16.7 C 89 % 14.88 C
1959 13-07-2016 19:10:00 16.8 C 90 % 15.15 C
1960 13-07-2016 19:15:00 16.8 C 89 % 14.98 C
1961 13-07-2016 19:20:00 16.7 C 88 % 14.7 C
1962 13-07-2016 19:25:00 16.5 C 89 % 14.68 C
1963 13-07-2016 19:30:00 16.4 C 89 % 14.58 C
1964 13-07-2016 19:35:00 16.3 C 90 % 14.66 C
1965 13-07-2016 19:40:00 16.1 C 90 % 14.46 C
1966 13-07-2016 19:45:00 16 C 90 % 14.36 C
1967 13-07-2016 19:50:00 15.9 C 91 % 14.43 C
1968 13-07-2016 19:55:00 15.8 C 91 % 14.33 C
1969 13-07-2016 20:00:00 15.7 C 91 % 14.24 C
1970 13-07-2016 20:05:00 15.7 C 91 % 14.24 C
1971 13-07-2016 20:10:00 15.6 C 91 % 14.14 C
1972 13-07-2016 20:15:00 15.6 C 92 % 14.31 C
1973 13-07-2016 20:20:00 15.4 C 92 % 14.11 C
1974 13-07-2016 20:25:00 15.3 C 92 % 14.01 C
1975 13-07-2016 20:30:00 15.2 C 92 % 13.91 C
Sensor: Nr:Datum:Temp:Feuchte:Taupunkt:
Aussen-T/F 1976 13-07-2016 20:35:00 15.1 C 92 % 13.81 C
1977 13-07-2016 20:40:00 15 C 93 % 13.88 C
1978 13-07-2016 20:45:00 14.9 C 93 % 13.78 C
1979 13-07-2016 20:50:00 14.7 C 92 % 13.41 C
1980 13-07-2016 20:55:00 14.5 C 92 % 13.22 C
1981 13-07-2016 21:00:00 14.4 C 92 % 13.12 C
1982 13-07-2016 21:05:00 14.3 C 93 % 13.18 C
1983 13-07-2016 21:10:00 14.2 C 93 % 13.08 C
1984 13-07-2016 21:15:00 14.2 C 93 % 13.08 C
1985 13-07-2016 21:20:00 14.2 C 94 % 13.25 C
1986 13-07-2016 21:25:00 14.1 C 94 % 13.15 C
1987 13-07-2016 21:30:00 14 C 94 % 13.05 C
1988 13-07-2016 21:35:00 13.9 C 94 % 12.95 C
1989 13-07-2016 21:40:00 13.8 C 94 % 12.85 C
1990 13-07-2016 21:45:00 13.8 C 94 % 12.85 C
1991 13-07-2016 21:50:00 13.7 C 94 % 12.75 C
1992 13-07-2016 21:55:00 13.7 C 94 % 12.75 C
1993 13-07-2016 22:00:00 13.6 C 94 % 12.65 C
1994 13-07-2016 22:05:00 13.6 C 94 % 12.65 C
1995 13-07-2016 22:10:00 13.4 C 94 % 12.45 C
1996 13-07-2016 22:15:00 13.4 C 94 % 12.45 C
1997 13-07-2016 22:20:00 13.3 C 94 % 12.36 C
1998 13-07-2016 22:25:00 13.4 C 95 % 12.62 C
1999 13-07-2016 22:30:00 13.4 C 95 % 12.62 C
2000 13-07-2016 22:35:00 13.3 C 95 % 12.52 C
Sensor: Nr:Datum:Temp:Feuchte:Taupunkt:
Aussen-T/F 2001 13-07-2016 22:40:00 13.3 C 95 % 12.52 C
2002 13-07-2016 22:45:00 13.3 C 95 % 12.52 C
2003 13-07-2016 22:50:00 13.3 C 95 % 12.52 C
2004 13-07-2016 22:55:00 13.3 C 95 % 12.52 C
2005 13-07-2016 23:00:00 13.3 C 95 % 12.52 C
2006 13-07-2016 23:05:00 13.3 C 95 % 12.52 C
2007 13-07-2016 23:10:00 13.3 C 95 % 12.52 C
2008 13-07-2016 23:15:00 13.3 C 95 % 12.52 C
2009 13-07-2016 23:20:00 13.3 C 95 % 12.52 C
2010 13-07-2016 23:25:00 13.3 C 95 % 12.52 C
2011 13-07-2016 23:30:00 13.3 C 95 % 12.52 C
2012 13-07-2016 23:35:00 13.3 C 95 % 12.52 C
2013 13-07-2016 23:40:00 13.3 C 96 % 12.68 C
2014 13-07-2016 23:45:00 13.3 C 96 % 12.68 C
2015 13-07-2016 23:50:00 13.4 C 96 % 12.78 C
2016 13-07-2016 23:55:00 13.4 C 96 % 12.78 C
2017 14-07-2016 00:00:00 13.4 C 96 % 12.78 C
2018 14-07-2016 00:05:00 13.4 C 96 % 12.78 C
2019 14-07-2016 00:10:00 13.4 C 96 % 12.78 C
2020 14-07-2016 00:15:00 13.4 C 96 % 12.78 C
2021 14-07-2016 00:20:00 13.3 C 96 % 12.68 C
2022 14-07-2016 00:25:00 13.4 C 96 % 12.78 C
2023 14-07-2016 00:30:00 13.3 C 96 % 12.68 C
2024 14-07-2016 00:35:00 13.4 C 96 % 12.78 C
2025 14-07-2016 00:40:00 13.3 C 96 % 12.68 C
Sensor: Nr:Datum:Temp:Feuchte:Taupunkt:
Aussen-T/F 2026 14-07-2016 00:45:00 13.3 C 96 % 12.68 C
2027 14-07-2016 00:50:00 13.4 C 96 % 12.78 C
2028 14-07-2016 00:55:00 13.3 C 96 % 12.68 C
2029 14-07-2016 01:00:00 13.3 C 96 % 12.68 C
2030 14-07-2016 01:05:00 13.2 C 95 % 12.42 C
2031 14-07-2016 01:10:00 13.1 C 95 % 12.32 C
2032 14-07-2016 01:15:00 13.1 C 95 % 12.32 C
2033 14-07-2016 01:20:00 13 C 95 % 12.22 C
2034 14-07-2016 01:25:00 12.9 C 95 % 12.12 C
2035 14-07-2016 01:30:00 12.8 C 95 % 12.02 C
2036 14-07-2016 01:35:00 12.7 C 95 % 11.92 C
2037 14-07-2016 01:40:00 12.6 C 95 % 11.82 C
2038 14-07-2016 01:45:00 12.5 C 95 % 11.72 C
2039 14-07-2016 01:50:00 12.4 C 95 % 11.62 C
2040 14-07-2016 01:55:00 12.4 C 95 % 11.62 C
2041 14-07-2016 02:00:00 12.3 C 95 % 11.52 C
2042 14-07-2016 02:05:00 12.3 C 95 % 11.52 C
2043 14-07-2016 02:10:00 12.3 C 95 % 11.52 C
2044 14-07-2016 02:15:00 12.3 C 95 % 11.52 C
2045 14-07-2016 02:20:00 12.2 C 95 % 11.42 C
2046 14-07-2016 02:25:00 12.2 C 95 % 11.42 C
2047 14-07-2016 02:30:00 12.2 C 95 % 11.42 C
2048 14-07-2016 02:35:00 12.2 C 95 % 11.42 C
2049 14-07-2016 02:40:00 12.1 C 95 % 11.32 C
2050 14-07-2016 02:45:00 11.9 C 95 % 11.13 C
Sensor: Nr:Datum:Temp:Feuchte:Taupunkt:
Aussen-T/F 2051 14-07-2016 02:50:00 11.9 C 95 % 11.13 C
2052 14-07-2016 02:55:00 11.8 C 95 % 11.03 C
2053 14-07-2016 03:00:00 11.7 C 95 % 10.93 C
2054 14-07-2016 03:05:00 11.7 C 95 % 10.93 C
2055 14-07-2016 03:10:00 11.6 C 95 % 10.83 C
2056 14-07-2016 03:15:00 11.6 C 95 % 10.83 C
2057 14-07-2016 03:20:00 11.6 C 95 % 10.83 C
2058 14-07-2016 03:25:00 11.5 C 95 % 10.73 C
2059 14-07-2016 03:30:00 11.5 C 95 % 10.73 C
2060 14-07-2016 03:35:00 11.5 C 95 % 10.73 C
2061 14-07-2016 03:40:00 11.4 C 95 % 10.63 C
2062 14-07-2016 03:45:00 11.4 C 95 % 10.63 C
2063 14-07-2016 03:50:00 11.4 C 95 % 10.63 C
2064 14-07-2016 03:55:00 11.4 C 95 % 10.63 C
2065 14-07-2016 04:00:00 11.4 C 96 % 10.79 C
2066 14-07-2016 04:05:00 11.4 C 96 % 10.79 C
2067 14-07-2016 04:10:00 11.4 C 96 % 10.79 C
2068 14-07-2016 04:15:00 11.4 C 96 % 10.79 C
2069 14-07-2016 04:20:00 11.4 C 96 % 10.79 C
2070 14-07-2016 04:25:00 11.4 C 96 % 10.79 C
2071 14-07-2016 04:30:00 11.4 C 96 % 10.79 C
2072 14-07-2016 04:35:00 11.3 C 96 % 10.69 C
2073 14-07-2016 04:40:00 11.3 C 96 % 10.69 C
2074 14-07-2016 04:45:00 11.2 C 96 % 10.59 C
2075 14-07-2016 04:50:00 11.2 C 96 % 10.59 C
Sensor: Nr:Datum:Temp:Feuchte:Taupunkt:
Aussen-T/F 2076 14-07-2016 04:55:00 11.2 C 95 % 10.43 C
2077 14-07-2016 05:00:00 11.1 C 96 % 10.49 C
2078 14-07-2016 05:05:00 11.1 C 96 % 10.49 C
2079 14-07-2016 05:10:00 11.1 C 96 % 10.49 C
2080 14-07-2016 05:15:00 11.1 C 96 % 10.49 C
2081 14-07-2016 05:20:00 11.1 C 96 % 10.49 C
2082 14-07-2016 05:25:00 11 C 96 % 10.39 C
2083 14-07-2016 05:30:00 10.9 C 96 % 10.29 C
2084 14-07-2016 05:35:00 11 C 96 % 10.39 C
2085 14-07-2016 05:40:00 11 C 96 % 10.39 C
2086 14-07-2016 05:45:00 11.1 C 96 % 10.49 C
2087 14-07-2016 05:50:00 11.1 C 96 % 10.49 C
2088 14-07-2016 05:55:00 11.1 C 96 % 10.49 C
2089 14-07-2016 06:00:00 11.2 C 96 % 10.59 C
2090 14-07-2016 06:05:00 11.2 C 96 % 10.59 C
2091 14-07-2016 06:10:00 11.2 C 96 % 10.59 C
2092 14-07-2016 06:15:00 11.1 C 96 % 10.49 C
2093 14-07-2016 06:20:00 11.1 C 96 % 10.49 C
2094 14-07-2016 06:25:00 11 C 96 % 10.39 C
2095 14-07-2016 06:30:00 10.9 C 96 % 10.29 C
2096 14-07-2016 06:35:00 10.9 C 96 % 10.29 C
2097 14-07-2016 06:40:00 10.9 C 96 % 10.29 C
2098 14-07-2016 06:45:00 10.9 C 96 % 10.29 C
2099 14-07-2016 06:50:00 10.9 C 96 % 10.29 C
2100 14-07-2016 06:55:00 11 C 96 % 10.39 C
Sensor: Nr:Datum:Temp:Feuchte:Taupunkt:
Aussen-T/F 2101 14-07-2016 07:00:00 11.1 C 96 % 10.49 C
2102 14-07-2016 07:05:00 11.2 C 96 % 10.59 C
2103 14-07-2016 07:10:00 11.2 C 96 % 10.59 C
2104 14-07-2016 07:15:00 11.3 C 96 % 10.69 C
2105 14-07-2016 07:20:00 11.3 C 96 % 10.69 C
2106 14-07-2016 07:25:00 11.4 C 96 % 10.79 C
2107 14-07-2016 07:30:00 11.4 C 96 % 10.79 C
2108 14-07-2016 07:35:00 11.5 C 96 % 10.88 C
2109 14-07-2016 07:40:00 11.6 C 96 % 10.98 C
2110 14-07-2016 07:45:00 11.6 C 96 % 10.98 C
2111 14-07-2016 07:50:00 11.7 C 96 % 11.08 C
2112 14-07-2016 07:55:00 11.8 C 96 % 11.18 C
2113 14-07-2016 08:00:00 12.1 C 97 % 11.64 C
2114 14-07-2016 08:05:00 12.2 C 97 % 11.74 C
2115 14-07-2016 08:10:00 12.3 C 96 % 11.68 C
2116 14-07-2016 08:15:00 12.4 C 97 % 11.94 C
2117 14-07-2016 08:20:00 12.4 C 96 % 11.78 C
2118 14-07-2016 08:25:00 12.6 C 96 % 11.98 C
2119 14-07-2016 08:30:00 12.6 C 95 % 11.82 C
2120 14-07-2016 08:35:00 12.6 C 94 % 11.66 C
2121 14-07-2016 08:40:00 12.6 C 94 % 11.66 C
2122 14-07-2016 08:45:00 12.7 C 93 % 11.6 C
2123 14-07-2016 08:50:00 12.9 C 93 % 11.8 C
2124 14-07-2016 08:55:00 13.2 C 92 % 11.93 C
2125 14-07-2016 09:00:00 13.4 C 91 % 11.96 C
Sensor: Nr:Datum:Temp:Feuchte:Taupunkt:
Aussen-T/F 2126 14-07-2016 09:05:00 13.7 C 91 % 12.26 C
2127 14-07-2016 09:10:00 13.8 C 89 % 12.02 C
2128 14-07-2016 09:15:00 13.9 C 87 % 11.77 C
2129 14-07-2016 09:20:00 14 C 86 % 11.7 C
2130 14-07-2016 09:25:00 14.1 C 86 % 11.8 C
2131 14-07-2016 09:30:00 14.1 C 86 % 11.8 C
2132 14-07-2016 09:35:00 14.2 C 86 % 11.89 C
2133 14-07-2016 09:40:00 14.2 C 86 % 11.89 C
2134 14-07-2016 09:45:00 14.3 C 82 % 11.27 C
2135 14-07-2016 09:50:00 14.4 C 85 % 11.91 C
2136 14-07-2016 09:55:00 14.5 C 83 % 11.65 C
2137 14-07-2016 10:00:00 14.6 C 83 % 11.75 C
2138 14-07-2016 10:05:00 14.7 C 82 % 11.66 C
2139 14-07-2016 10:10:00 14.8 C 84 % 12.12 C
2140 14-07-2016 10:15:00 15.1 C 82 % 12.05 C
2141 14-07-2016 10:20:00 15.2 C 81 % 11.96 C
2142 14-07-2016 10:25:00 15.2 C 77 % 11.2 C
2143 14-07-2016 10:30:00 15.3 C 80 % 11.87 C
2144 14-07-2016 10:35:00 15.4 C 78 % 11.59 C
2145 14-07-2016 10:40:00 15.5 C 79 % 11.88 C
2146 14-07-2016 10:45:00 15.5 C 79 % 11.88 C
2147 14-07-2016 10:50:00 15.5 C 78 % 11.68 C
2148 14-07-2016 10:55:00 15.4 C 79 % 11.78 C
2149 14-07-2016 11:00:00 15.5 C 77 % 11.49 C
2150 14-07-2016 11:05:00 15.7 C 75 % 11.28 C
Sensor: Nr:Datum:Temp:Feuchte:Taupunkt:
Aussen-T/F 2151 14-07-2016 11:10:00 15.8 C 74 % 11.18 C
2152 14-07-2016 11:15:00 15.9 C 74 % 11.28 C
2153 14-07-2016 11:20:00 16 C 75 % 11.57 C
2154 14-07-2016 11:25:00 16.1 C 76 % 11.87 C
2155 14-07-2016 11:30:00 16.1 C 72 % 11.06 C
2156 14-07-2016 11:35:00 16.1 C 73 % 11.26 C
2157 14-07-2016 11:40:00 16.1 C 69 % 10.42 C
2158 14-07-2016 11:45:00 16 C 70 % 10.54 C
2159 14-07-2016 11:50:00 16.1 C 68 % 10.2 C
2160 14-07-2016 11:55:00 16.1 C 69 % 10.42 C
2161 14-07-2016 12:00:00 16.1 C 68 % 10.2 C
2162 14-07-2016 12:05:00 16.2 C 68 % 10.29 C
2163 14-07-2016 12:10:00 16.3 C 68 % 10.39 C
2164 14-07-2016 12:15:00 16.4 C 67 % 10.26 C
2165 14-07-2016 12:20:00 16.4 C 72 % 11.34 C
2166 14-07-2016 12:25:00 16.3 C 69 % 10.61 C
2167 14-07-2016 12:30:00 16.4 C 71 % 11.13 C
2168 14-07-2016 12:35:00 16.7 C 68 % 10.77 C
2169 14-07-2016 12:40:00 16.9 C 67 % 10.74 C
2170 14-07-2016 12:45:00 16.9 C 66 % 10.51 C
2171 14-07-2016 12:50:00 16.9 C 65 % 10.28 C
2172 14-07-2016 12:55:00 17 C 66 % 10.61 C
2173 14-07-2016 13:00:00 17.2 C 66 % 10.8 C
2174 14-07-2016 13:05:00 17.3 C 65 % 10.66 C
2175 14-07-2016 13:10:00 17.4 C 65 % 10.76 C
Sensor: Nr:Datum:Temp:Feuchte:Taupunkt:
Aussen-T/F 2176 14-07-2016 13:15:00 17.6 C 61 % 10 C
2177 14-07-2016 13:20:00 17.7 C 58 % 9.34 C
2178 14-07-2016 13:25:00 17.7 C 59 % 9.59 C
2179 14-07-2016 13:30:00 17.6 C 61 % 10 C
2180 14-07-2016 13:35:00 17.5 C 61 % 9.9 C
2181 14-07-2016 13:40:00 17.4 C 64 % 10.53 C
2182 14-07-2016 13:45:00 17.4 C 63 % 10.29 C
2183 14-07-2016 13:50:00 17.6 C 64 % 10.72 C
2184 14-07-2016 13:55:00 17.6 C 61 % 10 C
2185 14-07-2016 14:00:00 17.6 C 62 % 10.24 C
2186 14-07-2016 14:05:00 17.7 C 63 % 10.57 C
2187 14-07-2016 14:10:00 17.9 C 61 % 10.28 C
2188 14-07-2016 14:15:00 18.2 C 60 % 10.31 C
2189 14-07-2016 14:20:00 18.2 C 59 % 10.06 C
2190 14-07-2016 14:25:00 18.3 C 61 % 10.66 C
2191 14-07-2016 14:30:00 18.3 C 61 % 10.66 C
2192 14-07-2016 14:35:00 18.1 C 61 % 10.47 C
2193 14-07-2016 14:40:00 18.1 C 60 % 10.22 C
2194 14-07-2016 14:45:00 18.1 C 58 % 9.71 C
2195 14-07-2016 14:50:00 18.1 C 59 % 9.97 C
2196 14-07-2016 14:55:00 18.2 C 59 % 10.06 C
2197 14-07-2016 15:00:00 18.2 C 57 % 9.55 C
2198 14-07-2016 15:05:00 18.1 C 56 % 9.19 C
2199 14-07-2016 15:10:00 18.1 C 57 % 9.46 C
2200 14-07-2016 15:15:00 18.1 C 58 % 9.71 C
Sensor: Nr:Datum:Temp:Feuchte:Taupunkt:
Aussen-T/F 2201 14-07-2016 15:20:00 18.1 C 59 % 9.97 C
2202 14-07-2016 15:25:00 18.1 C 60 % 10.22 C
2203 14-07-2016 15:30:00 18.3 C 60 % 10.41 C
2204 14-07-2016 15:35:00 18.6 C 60 % 10.69 C
2205 14-07-2016 15:40:00 18.9 C 60 % 10.97 C
2206 14-07-2016 15:45:00 18.7 C 60 % 10.78 C
2207 14-07-2016 15:50:00 18 C 61 % 10.37 C
2208 14-07-2016 15:55:00 17.5 C 62 % 10.15 C
2209 14-07-2016 16:00:00 17.1 C 64 % 10.24 C
2210 14-07-2016 16:05:00 16.9 C 68 % 10.96 C
2211 14-07-2016 16:10:00 16.7 C 70 % 11.21 C
2212 14-07-2016 16:15:00 16.6 C 71 % 11.32 C
2213 14-07-2016 16:20:00 16.6 C 68 % 10.67 C
2214 14-07-2016 16:25:00 16.7 C 73 % 11.84 C
2215 14-07-2016 16:30:00 17.5 C 69 % 11.75 C
2216 14-07-2016 16:35:00 18.4 C 67 % 12.17 C
2217 14-07-2016 16:40:00 18.8 C 60 % 10.88 C
2218 14-07-2016 16:45:00 19.4 C 59 % 11.19 C
2219 14-07-2016 16:50:00 19.8 C 57 % 11.04 C
2220 14-07-2016 16:55:00 20.1 C 57 % 11.32 C
2221 14-07-2016 17:00:00 20 C 52 % 9.85 C
2222 14-07-2016 17:05:00 19.6 C 56 % 10.59 C
2223 14-07-2016 17:10:00 19.1 C 56 % 10.12 C
2224 14-07-2016 17:15:00 18.5 C 60 % 10.6 C
2225 14-07-2016 17:20:00 17.6 C 65 % 10.95 C
Sensor: Nr:Datum:Temp:Feuchte:Taupunkt:
Aussen-T/F 2226 14-07-2016 17:25:00 17 C 67 % 10.83 C
2227 14-07-2016 17:30:00 16.9 C 68 % 10.96 C
2228 14-07-2016 17:35:00 17.1 C 67 % 10.93 C
2229 14-07-2016 17:40:00 17.2 C 64 % 10.34 C
2230 14-07-2016 17:45:00 17.3 C 63 % 10.2 C
2231 14-07-2016 17:50:00 17.5 C 62 % 10.15 C
2232 14-07-2016 17:55:00 17.6 C 66 % 11.18 C
2233 14-07-2016 18:00:00 17.7 C 67 % 11.5 C
2234 14-07-2016 18:05:00 18.1 C 69 % 12.33 C
2235 14-07-2016 18:10:00 18.6 C 66 % 12.13 C
2236 14-07-2016 18:15:00 18.8 C 60 % 10.88 C
2237 14-07-2016 18:20:00 18.7 C 60 % 10.78 C
2238 14-07-2016 18:25:00 18.6 C 61 % 10.94 C
2239 14-07-2016 18:30:00 18.7 C 60 % 10.78 C
2240 14-07-2016 18:35:00 18.6 C 59 % 10.44 C
2241 14-07-2016 18:40:00 18.4 C 60 % 10.5 C
2242 14-07-2016 18:45:00 18.5 C 63 % 11.33 C
2243 14-07-2016 18:50:00 18.7 C 61 % 11.03 C
2244 14-07-2016 18:55:00 18.9 C 62 % 11.47 C
2245 14-07-2016 19:00:00 19.4 C 58 % 10.93 C
2246 14-07-2016 19:05:00 19.8 C 59 % 11.56 C
2247 14-07-2016 19:10:00 20.1 C 56 % 11.06 C
2248 14-07-2016 19:15:00 20.1 C 54 % 10.51 C
2249 14-07-2016 19:20:00 20.2 C 57 % 11.42 C
2250 14-07-2016 19:25:00 20.1 C 56 % 11.06 C
Sensor: Nr:Datum:Temp:Feuchte:Taupunkt:
Aussen-T/F 2251 14-07-2016 19:30:00 19.9 C 58 % 11.4 C
2252 14-07-2016 19:35:00 19.5 C 61 % 11.78 C
2253 14-07-2016 19:40:00 19.3 C 63 % 12.09 C
2254 14-07-2016 19:45:00 18.8 C 59 % 10.63 C
2255 14-07-2016 19:50:00 18.4 C 62 % 10.99 C
2256 14-07-2016 19:55:00 18.2 C 65 % 11.52 C
2257 14-07-2016 20:00:00 18.1 C 65 % 11.42 C
2258 14-07-2016 20:05:00 18.1 C 64 % 11.19 C
2259 14-07-2016 20:10:00 17.8 C 66 % 11.37 C
2260 14-07-2016 20:15:00 17.7 C 69 % 11.95 C
2261 14-07-2016 20:20:00 17.7 C 70 % 12.16 C
2262 14-07-2016 20:25:00 17.6 C 70 % 12.07 C
2263 14-07-2016 20:30:00 17.4 C 72 % 12.3 C
2264 14-07-2016 20:35:00 17.3 C 72 % 12.21 C
2265 14-07-2016 20:40:00 17.2 C 72 % 12.11 C
2266 14-07-2016 20:45:00 17.1 C 72 % 12.02 C
2267 14-07-2016 20:50:00 16.8 C 73 % 11.94 C
2268 14-07-2016 20:55:00 16.6 C 73 % 11.74 C
2269 14-07-2016 21:00:00 16.3 C 75 % 11.86 C
2270 14-07-2016 21:05:00 16.1 C 75 % 11.67 C
2271 14-07-2016 21:10:00 15.8 C 76 % 11.58 C
2272 14-07-2016 21:15:00 15.6 C 78 % 11.78 C
2273 14-07-2016 21:20:00 15.4 C 78 % 11.59 C
2274 14-07-2016 21:25:00 15.3 C 79 % 11.68 C
2275 14-07-2016 21:30:00 15.2 C 78 % 11.39 C
Sensor: Nr:Datum:Temp:Feuchte:Taupunkt:
Aussen-T/F 2276 14-07-2016 21:35:00 15.1 C 79 % 11.49 C
2277 14-07-2016 21:40:00 15.1 C 79 % 11.49 C
2278 14-07-2016 21:45:00 15.1 C 80 % 11.68 C
2279 14-07-2016 21:50:00 15.1 C 81 % 11.87 C
2280 14-07-2016 21:55:00 15.1 C 82 % 12.05 C
2281 14-07-2016 22:00:00 15.1 C 82 % 12.05 C
2282 14-07-2016 22:05:00 15 C 82 % 11.95 C
2283 14-07-2016 22:10:00 14.9 C 82 % 11.86 C
2284 14-07-2016 22:15:00 14.9 C 83 % 12.04 C
2285 14-07-2016 22:20:00 14.9 C 83 % 12.04 C
2286 14-07-2016 22:25:00 14.8 C 83 % 11.94 C
2287 14-07-2016 22:30:00 14.8 C 83 % 11.94 C
2288 14-07-2016 22:35:00 14.7 C 83 % 11.85 C
2289 14-07-2016 22:40:00 14.7 C 84 % 12.03 C
2290 14-07-2016 22:45:00 14.6 C 84 % 11.93 C
2291 14-07-2016 22:50:00 14.6 C 82 % 11.56 C
2292 14-07-2016 22:55:00 14.6 C 77 % 10.62 C
2293 14-07-2016 23:00:00 14.8 C 76 % 10.61 C
2294 14-07-2016 23:05:00 14.9 C 79 % 11.29 C
2295 14-07-2016 23:10:00 14.8 C 77 % 10.81 C
2296 14-07-2016 23:15:00 14.7 C 78 % 10.91 C
2297 14-07-2016 23:20:00 14.5 C 77 % 10.52 C
2298 14-07-2016 23:25:00 14.3 C 78 % 10.52 C
2299 14-07-2016 23:30:00 14.2 C 77 % 10.23 C
2300 14-07-2016 23:35:00 14.2 C 76 % 10.03 C
Sensor: Nr:Datum:Temp:Feuchte:Taupunkt:
Aussen-T/F 2301 14-07-2016 23:40:00 14.2 C 77 % 10.23 C
2302 14-07-2016 23:45:00 14.2 C 79 % 10.61 C
2303 14-07-2016 23:50:00 14.1 C 78 % 10.33 C
2304 14-07-2016 23:55:00 13.9 C 77 % 9.94 C
2305 15-07-2016 00:00:00 13.8 C 78 % 10.03 C
2306 15-07-2016 00:05:00 13.7 C 79 % 10.13 C
2307 15-07-2016 00:10:00 13.6 C 79 % 10.03 C
2308 15-07-2016 00:15:00 13.5 C 80 % 10.12 C
2309 15-07-2016 00:20:00 13.4 C 80 % 10.02 C
2310 15-07-2016 00:25:00 13.4 C 81 % 10.21 C
2311 15-07-2016 00:30:00 13.4 C 81 % 10.21 C
2312 15-07-2016 00:35:00 13.3 C 81 % 10.11 C
2313 15-07-2016 00:40:00 13.3 C 82 % 10.3 C
2314 15-07-2016 00:45:00 13.2 C 83 % 10.38 C
2315 15-07-2016 00:50:00 13.1 C 83 % 10.28 C
2316 15-07-2016 00:55:00 13.1 C 83 % 10.28 C
2317 15-07-2016 01:00:00 13 C 83 % 10.18 C
2318 15-07-2016 01:05:00 12.9 C 84 % 10.26 C
2319 15-07-2016 01:10:00 12.9 C 84 % 10.26 C
2320 15-07-2016 01:15:00 12.9 C 84 % 10.26 C
2321 15-07-2016 01:20:00 12.9 C 85 % 10.44 C
2322 15-07-2016 01:25:00 13 C 85 % 10.54 C
2323 15-07-2016 01:30:00 13 C 84 % 10.36 C
2324 15-07-2016 01:35:00 13 C 84 % 10.36 C
2325 15-07-2016 01:40:00 13 C 84 % 10.36 C
Sensor: Nr:Datum:Temp:Feuchte:Taupunkt:
Aussen-T/F 2326 15-07-2016 01:45:00 13 C 85 % 10.54 C
2327 15-07-2016 01:50:00 12.9 C 85 % 10.44 C
2328 15-07-2016 01:55:00 12.9 C 85 % 10.44 C
2329 15-07-2016 02:00:00 12.9 C 86 % 10.62 C
2330 15-07-2016 02:05:00 12.9 C 87 % 10.79 C
2331 15-07-2016 02:10:00 12.9 C 87 % 10.79 C
2332 15-07-2016 02:15:00 12.9 C 86 % 10.62 C
2333 15-07-2016 02:20:00 12.9 C 87 % 10.79 C
2334 15-07-2016 02:25:00 13 C 87 % 10.89 C
2335 15-07-2016 02:30:00 13.1 C 87 % 10.99 C
2336 15-07-2016 02:35:00 13 C 86 % 10.72 C
2337 15-07-2016 02:40:00 12.9 C 86 % 10.62 C
2338 15-07-2016 02:45:00 12.9 C 86 % 10.62 C
2339 15-07-2016 02:50:00 12.8 C 86 % 10.52 C
2340 15-07-2016 02:55:00 12.7 C 86 % 10.42 C
2341 15-07-2016 03:00:00 12.6 C 86 % 10.32 C
2342 15-07-2016 03:05:00 12.4 C 87 % 10.3 C
2343 15-07-2016 03:10:00 12.3 C 87 % 10.2 C
2344 15-07-2016 03:15:00 12.2 C 88 % 10.27 C
2345 15-07-2016 03:20:00 12.2 C 88 % 10.27 C
2346 15-07-2016 03:25:00 12.2 C 88 % 10.27 C
2347 15-07-2016 03:30:00 12.2 C 89 % 10.44 C
2348 15-07-2016 03:35:00 12.1 C 89 % 10.34 C
2349 15-07-2016 03:40:00 12 C 88 % 10.08 C
2350 15-07-2016 03:45:00 11.9 C 88 % 9.98 C
Sensor: Nr:Datum:Temp:Feuchte:Taupunkt:
Aussen-T/F 2351 15-07-2016 03:50:00 11.9 C 88 % 9.98 C
2352 15-07-2016 03:55:00 11.8 C 88 % 9.88 C
2353 15-07-2016 04:00:00 11.8 C 88 % 9.88 C
2354 15-07-2016 04:05:00 11.7 C 89 % 9.95 C
2355 15-07-2016 04:10:00 11.7 C 89 % 9.95 C
2356 15-07-2016 04:15:00 11.7 C 88 % 9.78 C
2357 15-07-2016 04:20:00 11.7 C 89 % 9.95 C
2358 15-07-2016 04:25:00 11.8 C 89 % 10.05 C
2359 15-07-2016 04:30:00 11.8 C 89 % 10.05 C
2360 15-07-2016 04:35:00 11.8 C 89 % 10.05 C
2361 15-07-2016 04:40:00 11.8 C 89 % 10.05 C
2362 15-07-2016 04:45:00 11.9 C 88 % 9.98 C
2363 15-07-2016 04:50:00 11.9 C 89 % 10.15 C
2364 15-07-2016 04:55:00 11.9 C 88 % 9.98 C
2365 15-07-2016 05:00:00 11.9 C 88 % 9.98 C
2366 15-07-2016 05:05:00 11.9 C 88 % 9.98 C
2367 15-07-2016 05:10:00 11.9 C 88 % 9.98 C
2368 15-07-2016 05:15:00 11.9 C 87 % 9.81 C
2369 15-07-2016 05:20:00 11.9 C 88 % 9.98 C
2370 15-07-2016 05:25:00 11.9 C 88 % 9.98 C
2371 15-07-2016 05:30:00 12 C 88 % 10.08 C
2372 15-07-2016 05:35:00 12 C 88 % 10.08 C
2373 15-07-2016 05:40:00 12 C 87 % 9.91 C
2374 15-07-2016 05:45:00 12.1 C 88 % 10.17 C
2375 15-07-2016 05:50:00 12.2 C 88 % 10.27 C
Sensor: Nr:Datum:Temp:Feuchte:Taupunkt:
Aussen-T/F 2376 15-07-2016 05:55:00 12.2 C 88 % 10.27 C
2377 15-07-2016 06:00:00 12.2 C 88 % 10.27 C
2378 15-07-2016 06:05:00 12.2 C 88 % 10.27 C
2379 15-07-2016 06:10:00 12.3 C 88 % 10.37 C
2380 15-07-2016 06:15:00 12.3 C 89 % 10.54 C
2381 15-07-2016 06:20:00 12.3 C 88 % 10.37 C
2382 15-07-2016 06:25:00 12.3 C 88 % 10.37 C
2383 15-07-2016 06:30:00 12.3 C 88 % 10.37 C
2384 15-07-2016 06:35:00 12.3 C 87 % 10.2 C
2385 15-07-2016 06:40:00 12.2 C 87 % 10.1 C
2386 15-07-2016 06:45:00 12.3 C 87 % 10.2 C
2387 15-07-2016 06:50:00 12.3 C 86 % 10.03 C
2388 15-07-2016 06:55:00 12.3 C 86 % 10.03 C
2389 15-07-2016 07:00:00 12.3 C 87 % 10.2 C
2390 15-07-2016 07:05:00 12.4 C 87 % 10.3 C
2391 15-07-2016 07:10:00 12.4 C 87 % 10.3 C
2392 15-07-2016 07:15:00 12.4 C 86 % 10.13 C
2393 15-07-2016 07:20:00 12.4 C 86 % 10.13 C
2394 15-07-2016 07:25:00 12.5 C 86 % 10.22 C
2395 15-07-2016 07:30:00 12.5 C 85 % 10.05 C
2396 15-07-2016 07:35:00 12.6 C 86 % 10.32 C
2397 15-07-2016 07:40:00 12.6 C 86 % 10.32 C
2398 15-07-2016 07:45:00 12.6 C 85 % 10.15 C
2399 15-07-2016 07:50:00 12.7 C 85 % 10.25 C
2400 15-07-2016 07:55:00 12.7 C 85 % 10.25 C
Sensor: Nr:Datum:Temp:Feuchte:Taupunkt:
Aussen-T/F 2401 15-07-2016 08:00:00 12.7 C 85 % 10.25 C
2402 15-07-2016 08:05:00 12.7 C 85 % 10.25 C
2403 15-07-2016 08:10:00 12.7 C 85 % 10.25 C
2404 15-07-2016 08:15:00 12.7 C 86 % 10.42 C
2405 15-07-2016 08:20:00 12.7 C 85 % 10.25 C
2406 15-07-2016 08:25:00 12.8 C 86 % 10.52 C
2407 15-07-2016 08:30:00 12.9 C 87 % 10.79 C
2408 15-07-2016 08:35:00 13.1 C 86 % 10.81 C
2409 15-07-2016 08:40:00 13.3 C 87 % 11.18 C
2410 15-07-2016 08:45:00 13.4 C 87 % 11.28 C
2411 15-07-2016 08:50:00 13.7 C 86 % 11.4 C
2412 15-07-2016 08:55:00 13.8 C 84 % 11.15 C
2413 15-07-2016 09:00:00 13.9 C 83 % 11.06 C
2414 15-07-2016 09:05:00 13.9 C 83 % 11.06 C
2415 15-07-2016 09:10:00 14.1 C 83 % 11.26 C
2416 15-07-2016 09:15:00 14.1 C 83 % 11.26 C
2417 15-07-2016 09:20:00 14.1 C 82 % 11.08 C
2418 15-07-2016 09:25:00 14.2 C 82 % 11.17 C
2419 15-07-2016 09:30:00 14.3 C 82 % 11.27 C
2420 15-07-2016 09:35:00 14.4 C 81 % 11.18 C
2421 15-07-2016 09:40:00 14.7 C 81 % 11.48 C
2422 15-07-2016 09:45:00 14.9 C 81 % 11.67 C
2423 15-07-2016 09:50:00 15 C 78 % 11.2 C
2424 15-07-2016 09:55:00 15.1 C 78 % 11.3 C
2425 15-07-2016 10:00:00 15.1 C 76 % 10.9 C
Sensor: Nr:Datum:Temp:Feuchte:Taupunkt:
Aussen-T/F 2426 15-07-2016 10:05:00 15.1 C 77 % 11.1 C
2427 15-07-2016 10:10:00 15.1 C 76 % 10.9 C
2428 15-07-2016 10:15:00 15.1 C 77 % 11.1 C
2429 15-07-2016 10:20:00 15.1 C 78 % 11.3 C
2430 15-07-2016 10:25:00 15.1 C 79 % 11.49 C
2431 15-07-2016 10:30:00 15.1 C 78 % 11.3 C
2432 15-07-2016 10:35:00 15.1 C 78 % 11.3 C
2433 15-07-2016 10:40:00 15.2 C 78 % 11.39 C
2434 15-07-2016 10:45:00 15.3 C 77 % 11.3 C
2435 15-07-2016 10:50:00 15.3 C 75 % 10.9 C
2436 15-07-2016 10:55:00 15.2 C 75 % 10.8 C
2437 15-07-2016 11:00:00 15.3 C 75 % 10.9 C
2438 15-07-2016 11:05:00 15.4 C 73 % 10.59 C
2439 15-07-2016 11:10:00 15.6 C 71 % 10.37 C
2440 15-07-2016 11:15:00 15.8 C 73 % 10.97 C
2441 15-07-2016 11:20:00 16.2 C 70 % 10.73 C
2442 15-07-2016 11:25:00 16.6 C 67 % 10.45 C
2443 15-07-2016 11:30:00 16.8 C 67 % 10.64 C
2444 15-07-2016 11:35:00 16.9 C 65 % 10.28 C
2445 15-07-2016 11:40:00 17.2 C 67 % 11.02 C
2446 15-07-2016 11:45:00 17.3 C 66 % 10.89 C
2447 15-07-2016 11:50:00 17.2 C 67 % 11.02 C
2448 15-07-2016 11:55:00 17.1 C 69 % 11.37 C
2449 15-07-2016 12:00:00 16.9 C 67 % 10.74 C
2450 15-07-2016 12:05:00 16.9 C 68 % 10.96 C
Sensor: Nr:Datum:Temp:Feuchte:Taupunkt:
Aussen-T/F 2451 15-07-2016 12:10:00 17.1 C 63 % 10.01 C
2452 15-07-2016 12:15:00 17.3 C 63 % 10.2 C
2453 15-07-2016 12:20:00 17.6 C 63 % 10.48 C
2454 15-07-2016 12:25:00 17.8 C 63 % 10.67 C
2455 15-07-2016 12:30:00 18.1 C 62 % 10.71 C
2456 15-07-2016 12:35:00 18.2 C 63 % 11.05 C
2457 15-07-2016 12:40:00 18.3 C 59 % 10.16 C
2458 15-07-2016 12:45:00 18.2 C 60 % 10.31 C
2459 15-07-2016 12:50:00 18.2 C 62 % 10.81 C
2460 15-07-2016 12:55:00 18.3 C 60 % 10.41 C
2461 15-07-2016 13:00:00 18.4 C 61 % 10.75 C
2462 15-07-2016 13:05:00 18.3 C 59 % 10.16 C
2463 15-07-2016 13:10:00 18.3 C 61 % 10.66 C
2464 15-07-2016 13:15:00 18.3 C 62 % 10.9 C
2465 15-07-2016 13:20:00 18.3 C 61 % 10.66 C
2466 15-07-2016 13:25:00 18.4 C 62 % 10.99 C
2467 15-07-2016 13:30:00 18.6 C 59 % 10.44 C
2468 15-07-2016 13:35:00 18.6 C 60 % 10.69 C
2469 15-07-2016 13:40:00 18.6 C 61 % 10.94 C
2470 15-07-2016 13:45:00 18.6 C 62 % 11.18 C
2471 15-07-2016 13:50:00 18.6 C 61 % 10.94 C
2472 15-07-2016 13:55:00 18.8 C 62 % 11.37 C
2473 15-07-2016 14:00:00 19.1 C 61 % 11.41 C
2474 15-07-2016 14:05:00 19.2 C 59 % 11 C
2475 15-07-2016 14:10:00 19.1 C 59 % 10.91 C
Sensor: Nr:Datum:Temp:Feuchte:Taupunkt:
Aussen-T/F 2476 15-07-2016 14:15:00 19 C 59 % 10.81 C
2477 15-07-2016 14:20:00 18.9 C 60 % 10.97 C
2478 15-07-2016 14:25:00 18.9 C 61 % 11.22 C
2479 15-07-2016 14:30:00 19.2 C 60 % 11.25 C
2480 15-07-2016 14:35:00 19.4 C 59 % 11.19 C
2481 15-07-2016 14:40:00 19.5 C 59 % 11.28 C
2482 15-07-2016 14:45:00 19.6 C 58 % 11.12 C
2483 15-07-2016 14:50:00 19.6 C 58 % 11.12 C
2484 15-07-2016 14:55:00 19.7 C 58 % 11.21 C
2485 15-07-2016 15:00:00 19.8 C 59 % 11.56 C
2486 15-07-2016 15:05:00 19.7 C 60 % 11.72 C
2487 15-07-2016 15:10:00 19.5 C 59 % 11.28 C
2488 15-07-2016 15:15:00 19.4 C 63 % 12.18 C
2489 15-07-2016 15:20:00 19.3 C 61 % 11.6 C
2490 15-07-2016 15:25:00 19.2 C 63 % 11.99 C
2491 15-07-2016 15:30:00 19.3 C 61 % 11.6 C
2492 15-07-2016 15:35:00 19.6 C 62 % 12.13 C
2493 15-07-2016 15:40:00 20.3 C 60 % 12.29 C
2494 15-07-2016 15:45:00 20.9 C 58 % 12.33 C
2495 15-07-2016 15:50:00 21.2 C 59 % 12.87 C
2496 15-07-2016 15:55:00 21.3 C 61 % 13.48 C
2497 15-07-2016 16:00:00 21.4 C 54 % 11.71 C
2498 15-07-2016 16:05:00 21.3 C 55 % 11.9 C
2499 15-07-2016 16:10:00 21.3 C 56 % 12.17 C
2500 15-07-2016 16:15:00 21.4 C 55 % 11.99 C
Sensor: Nr:Datum:Temp:Feuchte:Taupunkt:
Aussen-T/F 2501 15-07-2016 16:20:00 21.3 C 55 % 11.9 C
2502 15-07-2016 16:25:00 20.8 C 57 % 11.97 C
2503 15-07-2016 16:30:00 20.5 C 61 % 12.73 C
2504 15-07-2016 16:35:00 20.2 C 62 % 12.69 C
2505 15-07-2016 16:40:00 19.9 C 61 % 12.16 C
2506 15-07-2016 16:45:00 19.6 C 61 % 11.88 C
2507 15-07-2016 16:50:00 19.6 C 61 % 11.88 C
2508 15-07-2016 16:55:00 19.8 C 69 % 13.95 C
2509 15-07-2016 17:00:00 20.3 C 64 % 13.27 C
2510 15-07-2016 17:05:00 20.7 C 65 % 13.89 C
2511 15-07-2016 17:10:00 20.8 C 63 % 13.5 C
2512 15-07-2016 17:15:00 20.9 C 66 % 14.31 C
2513 15-07-2016 17:20:00 21 C 66 % 14.41 C
2514 15-07-2016 17:25:00 21.1 C 69 % 15.19 C
2515 15-07-2016 17:30:00 21.2 C 60 % 13.13 C
2516 15-07-2016 17:35:00 21.2 C 57 % 12.35 C
2517 15-07-2016 17:40:00 21.2 C 56 % 12.08 C
2518 15-07-2016 17:45:00 21.4 C 60 % 13.32 C
2519 15-07-2016 17:50:00 21.7 C 59 % 13.34 C
2520 15-07-2016 17:55:00 21.9 C 56 % 12.73 C
2521 15-07-2016 18:00:00 22.2 C 54 % 12.45 C
2522 15-07-2016 18:05:00 21.9 C 52 % 11.61 C
2523 15-07-2016 18:10:00 22 C 49 % 10.8 C
2524 15-07-2016 18:15:00 22.2 C 49 % 10.98 C
2525 15-07-2016 18:20:00 22.3 C 50 % 11.38 C
Sensor: Nr:Datum:Temp:Feuchte:Taupunkt:
Aussen-T/F 2526 15-07-2016 18:25:00 22.2 C 49 % 10.98 C
2527 15-07-2016 18:30:00 22.2 C 50 % 11.29 C
2528 15-07-2016 18:35:00 22.1 C 49 % 10.89 C
2529 15-07-2016 18:40:00 22.1 C 48 % 10.58 C
2530 15-07-2016 18:45:00 22 C 49 % 10.8 C
2531 15-07-2016 18:50:00 22.1 C 49 % 10.89 C
2532 15-07-2016 18:55:00 22.2 C 48 % 10.67 C
2533 15-07-2016 19:00:00 22.4 C 48 % 10.86 C
2534 15-07-2016 19:05:00 22.7 C 47 % 10.81 C
2535 15-07-2016 19:10:00 22.9 C 46 % 10.67 C
2536 15-07-2016 19:15:00 23 C 46 % 10.76 C
2537 15-07-2016 19:20:00 22.9 C 44 % 10.01 C
2538 15-07-2016 19:25:00 22.7 C 45 % 10.16 C
2539 15-07-2016 19:30:00 22.4 C 45 % 9.89 C
2540 15-07-2016 19:35:00 22.2 C 46 % 10.04 C
2541 15-07-2016 19:40:00 22 C 49 % 10.8 C
2542 15-07-2016 19:45:00 21.9 C 56 % 12.73 C
2543 15-07-2016 19:50:00 21.8 C 61 % 13.95 C
2544 15-07-2016 19:55:00 21.6 C 63 % 14.26 C
2545 15-07-2016 20:00:00 21.4 C 65 % 14.55 C
2546 15-07-2016 20:05:00 21.1 C 60 % 13.04 C
2547 15-07-2016 20:10:00 20.9 C 62 % 13.35 C
2548 15-07-2016 20:15:00 20.7 C 56 % 11.61 C
2549 15-07-2016 20:20:00 20.6 C 65 % 13.79 C
2550 15-07-2016 20:25:00 20.2 C 66 % 13.65 C
Sensor: Nr:Datum:Temp:Feuchte:Taupunkt:
Aussen-T/F 2551 15-07-2016 20:30:00 19.7 C 67 % 13.4 C
2552 15-07-2016 20:35:00 19.2 C 69 % 13.38 C
2553 15-07-2016 20:40:00 18.7 C 71 % 13.34 C
2554 15-07-2016 20:45:00 18.3 C 71 % 12.95 C
2555 15-07-2016 20:50:00 18 C 72 % 12.88 C
2556 15-07-2016 20:55:00 17.7 C 72 % 12.59 C
2557 15-07-2016 21:00:00 17.5 C 72 % 12.4 C
2558 15-07-2016 21:05:00 17.4 C 74 % 12.72 C
2559 15-07-2016 21:10:00 17.3 C 74 % 12.62 C
2560 15-07-2016 21:15:00 17.2 C 75 % 12.73 C
2561 15-07-2016 21:20:00 17.1 C 75 % 12.64 C
2562 15-07-2016 21:25:00 16.9 C 76 % 12.65 C
2563 15-07-2016 21:30:00 16.8 C 77 % 12.75 C
2564 15-07-2016 21:35:00 16.7 C 78 % 12.85 C
2565 15-07-2016 21:40:00 16.6 C 77 % 12.55 C
2566 15-07-2016 21:45:00 16.4 C 78 % 12.56 C
2567 15-07-2016 21:50:00 16.3 C 79 % 12.65 C
2568 15-07-2016 21:55:00 16.2 C 79 % 12.56 C
2569 15-07-2016 22:00:00 16 C 79 % 12.36 C
2570 15-07-2016 22:05:00 15.8 C 80 % 12.36 C
2571 15-07-2016 22:10:00 15.6 C 79 % 11.97 C
2572 15-07-2016 22:15:00 15.4 C 80 % 11.97 C
2573 15-07-2016 22:20:00 15.3 C 80 % 11.87 C
2574 15-07-2016 22:25:00 15.2 C 81 % 11.96 C
2575 15-07-2016 22:30:00 15.1 C 82 % 12.05 C
Sensor: Nr:Datum:Temp:Feuchte:Taupunkt:
Aussen-T/F 2576 15-07-2016 22:35:00 15 C 83 % 12.14 C
2577 15-07-2016 22:40:00 14.8 C 83 % 11.94 C
2578 15-07-2016 22:45:00 14.7 C 84 % 12.03 C
2579 15-07-2016 22:50:00 14.6 C 84 % 11.93 C
2580 15-07-2016 22:55:00 14.3 C 85 % 11.81 C
2581 15-07-2016 23:00:00 14.2 C 85 % 11.72 C
2582 15-07-2016 23:05:00 14.1 C 86 % 11.8 C
2583 15-07-2016 23:10:00 13.9 C 86 % 11.6 C
2584 15-07-2016 23:15:00 13.8 C 86 % 11.5 C
2585 15-07-2016 23:20:00 13.7 C 86 % 11.4 C
2586 15-07-2016 23:25:00 13.7 C 87 % 11.58 C
2587 15-07-2016 23:30:00 13.6 C 87 % 11.48 C
2588 15-07-2016 23:35:00 13.4 C 87 % 11.28 C
2589 15-07-2016 23:40:00 13.3 C 87 % 11.18 C
2590 15-07-2016 23:45:00 13.2 C 88 % 11.26 C
2591 15-07-2016 23:50:00 13.1 C 88 % 11.16 C
2592 15-07-2016 23:55:00 13 C 88 % 11.06 C
2593 16-07-2016 00:00:00 12.9 C 88 % 10.96 C
2594 16-07-2016 00:05:00 12.8 C 88 % 10.86 C
2595 16-07-2016 00:10:00 12.8 C 88 % 10.86 C
2596 16-07-2016 00:15:00 12.8 C 89 % 11.03 C
2597 16-07-2016 00:20:00 12.7 C 89 % 10.94 C
2598 16-07-2016 00:25:00 12.7 C 89 % 10.94 C
2599 16-07-2016 00:30:00 12.6 C 89 % 10.84 C
2600 16-07-2016 00:35:00 12.6 C 89 % 10.84 C
Sensor: Nr:Datum:Temp:Feuchte:Taupunkt:
Aussen-T/F 2601 16-07-2016 00:40:00 12.6 C 90 % 11 C
2602 16-07-2016 00:45:00 12.6 C 89 % 10.84 C
2603 16-07-2016 00:50:00 12.5 C 89 % 10.74 C
2604 16-07-2016 00:55:00 12.4 C 90 % 10.81 C
2605 16-07-2016 01:00:00 12.3 C 90 % 10.71 C
2606 16-07-2016 01:05:00 12.3 C 90 % 10.71 C
2607 16-07-2016 01:10:00 12.3 C 91 % 10.87 C
2608 16-07-2016 01:15:00 12.2 C 91 % 10.78 C
2609 16-07-2016 01:20:00 12.2 C 91 % 10.78 C
2610 16-07-2016 01:25:00 12.2 C 91 % 10.78 C
2611 16-07-2016 01:30:00 12.1 C 91 % 10.68 C
2612 16-07-2016 01:35:00 12.1 C 91 % 10.68 C
2613 16-07-2016 01:40:00 12.1 C 91 % 10.68 C
2614 16-07-2016 01:45:00 11.9 C 91 % 10.48 C
2615 16-07-2016 01:50:00 11.9 C 91 % 10.48 C
2616 16-07-2016 01:55:00 11.9 C 92 % 10.64 C
2617 16-07-2016 02:00:00 11.8 C 91 % 10.38 C
2618 16-07-2016 02:05:00 11.8 C 92 % 10.54 C
2619 16-07-2016 02:10:00 11.7 C 92 % 10.44 C
2620 16-07-2016 02:15:00 11.7 C 92 % 10.44 C
2621 16-07-2016 02:20:00 11.7 C 92 % 10.44 C
2622 16-07-2016 02:25:00 11.6 C 92 % 10.35 C
2623 16-07-2016 02:30:00 11.6 C 92 % 10.35 C
2624 16-07-2016 02:35:00 11.6 C 92 % 10.35 C
2625 16-07-2016 02:40:00 11.5 C 92 % 10.25 C
Sensor: Nr:Datum:Temp:Feuchte:Taupunkt:
Aussen-T/F 2626 16-07-2016 02:45:00 11.4 C 92 % 10.15 C
2627 16-07-2016 02:50:00 11.4 C 92 % 10.15 C
2628 16-07-2016 02:55:00 11.4 C 93 % 10.31 C
2629 16-07-2016 03:00:00 11.3 C 93 % 10.21 C
2630 16-07-2016 03:05:00 11.3 C 93 % 10.21 C
2631 16-07-2016 03:10:00 11.3 C 93 % 10.21 C
2632 16-07-2016 03:15:00 11.3 C 93 % 10.21 C
2633 16-07-2016 03:20:00 11.2 C 93 % 10.11 C
2634 16-07-2016 03:25:00 11.2 C 93 % 10.11 C
2635 16-07-2016 03:30:00 11.2 C 93 % 10.11 C
2636 16-07-2016 03:35:00 11.2 C 93 % 10.11 C
2637 16-07-2016 03:40:00 11.2 C 93 % 10.11 C
2638 16-07-2016 03:45:00 11.2 C 94 % 10.27 C
2639 16-07-2016 03:50:00 11.2 C 94 % 10.27 C
2640 16-07-2016 03:55:00 11.2 C 94 % 10.27 C
2641 16-07-2016 04:00:00 11.3 C 94 % 10.37 C
2642 16-07-2016 04:05:00 11.4 C 94 % 10.47 C
2643 16-07-2016 04:10:00 11.4 C 94 % 10.47 C
2644 16-07-2016 04:15:00 11.5 C 94 % 10.57 C
2645 16-07-2016 04:20:00 11.6 C 94 % 10.67 C
2646 16-07-2016 04:25:00 11.6 C 94 % 10.67 C
2647 16-07-2016 04:30:00 11.7 C 94 % 10.77 C
2648 16-07-2016 04:35:00 11.7 C 94 % 10.77 C
2649 16-07-2016 04:40:00 11.7 C 94 % 10.77 C
2650 16-07-2016 04:45:00 11.7 C 94 % 10.77 C
Sensor: Nr:Datum:Temp:Feuchte:Taupunkt:
Aussen-T/F 2651 16-07-2016 04:50:00 11.8 C 94 % 10.87 C
2652 16-07-2016 04:55:00 11.8 C 94 % 10.87 C
2653 16-07-2016 05:00:00 11.8 C 94 % 10.87 C
2654 16-07-2016 05:05:00 11.9 C 94 % 10.97 C
2655 16-07-2016 05:10:00 11.9 C 94 % 10.97 C
2656 16-07-2016 05:15:00 11.9 C 94 % 10.97 C
2657 16-07-2016 05:20:00 11.9 C 94 % 10.97 C
2658 16-07-2016 05:25:00 11.9 C 94 % 10.97 C
2659 16-07-2016 05:30:00 11.9 C 93 % 10.81 C
2660 16-07-2016 05:35:00 11.9 C 93 % 10.81 C
2661 16-07-2016 05:40:00 11.9 C 93 % 10.81 C
2662 16-07-2016 05:45:00 11.9 C 93 % 10.81 C
2663 16-07-2016 05:50:00 11.9 C 93 % 10.81 C
2664 16-07-2016 05:55:00 11.8 C 93 % 10.71 C
2665 16-07-2016 06:00:00 11.9 C 93 % 10.81 C
2666 16-07-2016 06:05:00 11.9 C 94 % 10.97 C
2667 16-07-2016 06:10:00 11.9 C 94 % 10.97 C
2668 16-07-2016 06:15:00 12 C 94 % 11.07 C
2669 16-07-2016 06:20:00 12.1 C 93 % 11 C
2670 16-07-2016 06:25:00 12.1 C 93 % 11 C
2671 16-07-2016 06:30:00 12.2 C 93 % 11.1 C
2672 16-07-2016 06:35:00 12.2 C 93 % 11.1 C
2673 16-07-2016 06:40:00 12.3 C 93 % 11.2 C
2674 16-07-2016 06:45:00 12.3 C 93 % 11.2 C
2675 16-07-2016 06:50:00 12.4 C 93 % 11.3 C
Sensor: Nr:Datum:Temp:Feuchte:Taupunkt:
Aussen-T/F 2676 16-07-2016 06:55:00 12.5 C 93 % 11.4 C
2677 16-07-2016 07:00:00 12.6 C 92 % 11.34 C
2678 16-07-2016 07:05:00 12.7 C 92 % 11.43 C
2679 16-07-2016 07:10:00 12.8 C 91 % 11.37 C
2680 16-07-2016 07:15:00 12.9 C 91 % 11.47 C
2681 16-07-2016 07:20:00 12.9 C 91 % 11.47 C
2682 16-07-2016 07:25:00 13.1 C 92 % 11.83 C
2683 16-07-2016 07:30:00 13.2 C 92 % 11.93 C
2684 16-07-2016 07:35:00 13.3 C 91 % 11.86 C
2685 16-07-2016 07:40:00 13.3 C 90 % 11.7 C
2686 16-07-2016 07:45:00 13.4 C 90 % 11.79 C
2687 16-07-2016 07:50:00 13.6 C 90 % 11.99 C
2688 16-07-2016 07:55:00 13.7 C 89 % 11.92 C
2689 16-07-2016 08:00:00 13.7 C 89 % 11.92 C
2690 16-07-2016 08:05:00 13.8 C 89 % 12.02 C
2691 16-07-2016 08:10:00 13.9 C 88 % 11.95 C
2692 16-07-2016 08:15:00 13.9 C 88 % 11.95 C
2693 16-07-2016 08:20:00 14.1 C 89 % 12.32 C
2694 16-07-2016 08:25:00 14.2 C 88 % 12.24 C
2695 16-07-2016 08:30:00 14.3 C 89 % 12.51 C
2696 16-07-2016 08:35:00 14.5 C 89 % 12.71 C
2697 16-07-2016 08:40:00 14.7 C 88 % 12.73 C
2698 16-07-2016 08:45:00 14.8 C 86 % 12.48 C
2699 16-07-2016 08:50:00 14.9 C 86 % 12.58 C
2700 16-07-2016 08:55:00 15.1 C 86 % 12.78 C
Sensor: Nr:Datum:Temp:Feuchte:Taupunkt:
Aussen-T/F 2701 16-07-2016 09:00:00 15.2 C 85 % 12.7 C
2702 16-07-2016 09:05:00 15.3 C 84 % 12.61 C
2703 16-07-2016 09:10:00 15.4 C 84 % 12.71 C
2704 16-07-2016 09:15:00 15.6 C 85 % 13.09 C
2705 16-07-2016 09:20:00 15.7 C 83 % 12.82 C
2706 16-07-2016 09:25:00 15.8 C 84 % 13.1 C
2707 16-07-2016 09:30:00 15.9 C 84 % 13.2 C
2708 16-07-2016 09:35:00 16 C 83 % 13.12 C
2709 16-07-2016 09:40:00 16.1 C 82 % 13.03 C
2710 16-07-2016 09:45:00 16.2 C 83 % 13.31 C
2711 16-07-2016 09:50:00 16.3 C 82 % 13.22 C
2712 16-07-2016 09:55:00 16.3 C 82 % 13.22 C
2713 16-07-2016 10:00:00 16.4 C 81 % 13.13 C
2714 16-07-2016 10:05:00 16.7 C 80 % 13.23 C
2715 16-07-2016 10:10:00 16.8 C 79 % 13.14 C
2716 16-07-2016 10:15:00 17 C 81 % 13.72 C
2717 16-07-2016 10:20:00 17.2 C 79 % 13.53 C
2718 16-07-2016 10:25:00 17.4 C 78 % 13.53 C
2719 16-07-2016 10:30:00 17.5 C 78 % 13.62 C
2720 16-07-2016 10:35:00 17.6 C 78 % 13.72 C
2721 16-07-2016 10:40:00 17.8 C 77 % 13.72 C
2722 16-07-2016 10:45:00 17.9 C 76 % 13.61 C
2723 16-07-2016 10:50:00 18.1 C 76 % 13.81 C
2724 16-07-2016 10:55:00 18.2 C 74 % 13.49 C
2725 16-07-2016 11:00:00 18.3 C 74 % 13.59 C
Sensor: Nr:Datum:Temp:Feuchte:Taupunkt:
Aussen-T/F 2726 16-07-2016 11:05:00 18.3 C 75 % 13.79 C
2727 16-07-2016 11:10:00 18.4 C 76 % 14.1 C
2728 16-07-2016 11:15:00 18.5 C 76 % 14.19 C
2729 16-07-2016 11:20:00 18.6 C 76 % 14.29 C
2730 16-07-2016 11:25:00 18.7 C 77 % 14.59 C
2731 16-07-2016 11:30:00 18.8 C 76 % 14.48 C
2732 16-07-2016 11:35:00 18.9 C 74 % 14.17 C
2733 16-07-2016 11:40:00 19.1 C 78 % 15.18 C
2734 16-07-2016 11:45:00 19.1 C 77 % 14.97 C
2735 16-07-2016 11:50:00 19.1 C 76 % 14.77 C
2736 16-07-2016 11:55:00 19 C 71 % 13.63 C
2737 16-07-2016 12:00:00 19.1 C 69 % 13.28 C
2738 16-07-2016 12:05:00 19.3 C 69 % 13.47 C
2739 16-07-2016 12:10:00 19.5 C 66 % 12.98 C
2740 16-07-2016 12:15:00 19.7 C 66 % 13.17 C
2741 16-07-2016 12:20:00 19.8 C 65 % 13.03 C
2742 16-07-2016 12:25:00 19.9 C 65 % 13.13 C
2743 16-07-2016 12:30:00 20.1 C 66 % 13.55 C
2744 16-07-2016 12:35:00 20.3 C 68 % 14.2 C
2745 16-07-2016 12:40:00 20.6 C 68 % 14.49 C
2746 16-07-2016 12:45:00 20.8 C 68 % 14.68 C
2747 16-07-2016 12:50:00 20.9 C 67 % 14.55 C
2748 16-07-2016 12:55:00 20.9 C 67 % 14.55 C
2749 16-07-2016 13:00:00 20.9 C 65 % 14.08 C
2750 16-07-2016 13:05:00 21.1 C 65 % 14.27 C
Sensor: Nr:Datum:Temp:Feuchte:Taupunkt:
Aussen-T/F 2751 16-07-2016 13:10:00 21.1 C 65 % 14.27 C
2752 16-07-2016 13:15:00 21.1 C 66 % 14.5 C
2753 16-07-2016 13:20:00 21.1 C 71 % 15.64 C
2754 16-07-2016 13:25:00 21.1 C 65 % 14.27 C
2755 16-07-2016 13:30:00 21.2 C 66 % 14.6 C
2756 16-07-2016 13:35:00 21.3 C 67 % 14.93 C
2757 16-07-2016 13:40:00 21.4 C 67 % 15.02 C
2758 16-07-2016 13:45:00 21.4 C 65 % 14.55 C
2759 16-07-2016 13:50:00 21.6 C 69 % 15.67 C
2760 16-07-2016 13:55:00 21.5 C 67 % 15.12 C
2761 16-07-2016 14:00:00 21.4 C 66 % 14.79 C
2762 16-07-2016 14:05:00 21.4 C 68 % 15.25 C
2763 16-07-2016 14:10:00 21.3 C 69 % 15.38 C
2764 16-07-2016 14:15:00 21.4 C 72 % 16.14 C
2765 16-07-2016 14:20:00 21.3 C 71 % 15.83 C
2766 16-07-2016 14:25:00 21.3 C 71 % 15.83 C
2767 16-07-2016 14:30:00 21.2 C 71 % 15.73 C
2768 16-07-2016 14:35:00 21.2 C 68 % 15.06 C
2769 16-07-2016 14:40:00 21.1 C 69 % 15.19 C
2770 16-07-2016 14:45:00 21.1 C 69 % 15.19 C
2771 16-07-2016 14:50:00 21.1 C 70 % 15.42 C
2772 16-07-2016 14:55:00 21.2 C 70 % 15.51 C
2773 16-07-2016 15:00:00 21.2 C 70 % 15.51 C
2774 16-07-2016 15:05:00 21.3 C 69 % 15.38 C
2775 16-07-2016 15:10:00 21.4 C 69 % 15.48 C
Sensor: Nr:Datum:Temp:Feuchte:Taupunkt:
Aussen-T/F 2776 16-07-2016 15:15:00 21.5 C 69 % 15.57 C
2777 16-07-2016 15:20:00 21.6 C 69 % 15.67 C
2778 16-07-2016 15:25:00 21.7 C 69 % 15.77 C
2779 16-07-2016 15:30:00 21.7 C 70 % 15.99 C
2780 16-07-2016 15:35:00 21.8 C 70 % 16.09 C
2781 16-07-2016 15:40:00 21.9 C 69 % 15.96 C
2782 16-07-2016 15:45:00 21.9 C 68 % 15.73 C
2783 16-07-2016 15:50:00 21.9 C 69 % 15.96 C
2784 16-07-2016 15:55:00 22 C 70 % 16.28 C
2785 16-07-2016 16:00:00 22.1 C 70 % 16.37 C
2786 16-07-2016 16:05:00 22 C 70 % 16.28 C
2787 16-07-2016 16:10:00 22.1 C 74 % 17.25 C
2788 16-07-2016 16:15:00 22.1 C 71 % 16.6 C
2789 16-07-2016 16:20:00 22.2 C 73 % 17.13 C
2790 16-07-2016 16:25:00 22.3 C 75 % 17.65 C
2791 16-07-2016 16:30:00 22.3 C 73 % 17.23 C
2792 16-07-2016 16:35:00 22.3 C 75 % 17.65 C
2793 16-07-2016 16:40:00 22.3 C 73 % 17.23 C
2794 16-07-2016 16:45:00 22.4 C 76 % 17.96 C
2795 16-07-2016 16:50:00 22.3 C 76 % 17.86 C
2796 16-07-2016 16:55:00 22.3 C 77 % 18.07 C
2797 16-07-2016 17:00:00 22.2 C 77 % 17.98 C
2798 16-07-2016 17:05:00 22.1 C 76 % 17.67 C
2799 16-07-2016 17:10:00 21.9 C 77 % 17.68 C
2800 16-07-2016 17:15:00 21.7 C 79 % 17.9 C
Sensor: Nr:Datum:Temp:Feuchte:Taupunkt:
Aussen-T/F 2801 16-07-2016 17:20:00 21.5 C 79 % 17.7 C
2802 16-07-2016 17:25:00 21.4 C 80 % 17.81 C
2803 16-07-2016 17:30:00 21.3 C 80 % 17.71 C
2804 16-07-2016 17:35:00 21.3 C 81 % 17.91 C
2805 16-07-2016 17:40:00 21.3 C 81 % 17.91 C
2806 16-07-2016 17:45:00 21.3 C 81 % 17.91 C
2807 16-07-2016 17:50:00 21.3 C 76 % 16.9 C
2808 16-07-2016 17:55:00 21.3 C 80 % 17.71 C
2809 16-07-2016 18:00:00 21.4 C 80 % 17.81 C
2810 16-07-2016 18:05:00 21.3 C 75 % 16.69 C
2811 16-07-2016 18:10:00 21.3 C 81 % 17.91 C
2812 16-07-2016 18:15:00 21.4 C 80 % 17.81 C
2813 16-07-2016 18:20:00 21.3 C 78 % 17.31 C
2814 16-07-2016 18:25:00 21.3 C 80 % 17.71 C
2815 16-07-2016 18:30:00 21.2 C 81 % 17.81 C
2816 16-07-2016 18:35:00 21.2 C 81 % 17.81 C
2817 16-07-2016 18:40:00 21 C 82 % 17.81 C
2818 16-07-2016 18:45:00 20.9 C 82 % 17.71 C
2819 16-07-2016 18:50:00 20.8 C 83 % 17.81 C
2820 16-07-2016 18:55:00 20.7 C 83 % 17.71 C
2821 16-07-2016 19:00:00 20.7 C 83 % 17.71 C
2822 16-07-2016 19:05:00 20.6 C 83 % 17.61 C
2823 16-07-2016 19:10:00 20.6 C 83 % 17.61 C
2824 16-07-2016 19:15:00 20.6 C 83 % 17.61 C
2825 16-07-2016 19:20:00 20.5 C 83 % 17.51 C
Sensor: Nr:Datum:Temp:Feuchte:Taupunkt:
Aussen-T/F 2826 16-07-2016 19:25:00 20.5 C 83 % 17.51 C
2827 16-07-2016 19:30:00 20.5 C 83 % 17.51 C
2828 16-07-2016 19:35:00 20.4 C 82 % 17.22 C
2829 16-07-2016 19:40:00 20.4 C 82 % 17.22 C
2830 16-07-2016 19:45:00 20.5 C 83 % 17.51 C
2831 16-07-2016 19:50:00 20.5 C 83 % 17.51 C
2832 16-07-2016 19:55:00 20.5 C 83 % 17.51 C
2833 16-07-2016 20:00:00 20.4 C 83 % 17.42 C
2834 16-07-2016 20:05:00 20.4 C 83 % 17.42 C
2835 16-07-2016 20:10:00 20.4 C 83 % 17.42 C
2836 16-07-2016 20:15:00 20.3 C 83 % 17.32 C
2837 16-07-2016 20:20:00 20.3 C 83 % 17.32 C
2838 16-07-2016 20:25:00 20.2 C 83 % 17.22 C
2839 16-07-2016 20:30:00 20.3 C 83 % 17.32 C
2840 16-07-2016 20:35:00 20.4 C 82 % 17.22 C
2841 16-07-2016 20:40:00 20.4 C 81 % 17.03 C
2842 16-07-2016 20:45:00 20.3 C 81 % 16.93 C
2843 16-07-2016 20:50:00 20.2 C 81 % 16.84 C
2844 16-07-2016 20:55:00 20.1 C 82 % 16.93 C
2845 16-07-2016 21:00:00 19.9 C 82 % 16.74 C
2846 16-07-2016 21:05:00 19.7 C 82 % 16.54 C
2847 16-07-2016 21:10:00 19.6 C 83 % 16.63 C
2848 16-07-2016 21:15:00 19.4 C 84 % 16.63 C
2849 16-07-2016 21:20:00 19.3 C 84 % 16.53 C
2850 16-07-2016 21:25:00 19.2 C 85 % 16.62 C
Sensor: Nr:Datum:Temp:Feuchte:Taupunkt:
Aussen-T/F 2851 16-07-2016 21:30:00 19 C 85 % 16.42 C
2852 16-07-2016 21:35:00 18.8 C 85 % 16.23 C
2853 16-07-2016 21:40:00 18.7 C 85 % 16.13 C
2854 16-07-2016 21:45:00 18.6 C 85 % 16.03 C
2855 16-07-2016 21:50:00 18.5 C 85 % 15.93 C
2856 16-07-2016 21:55:00 18.5 C 85 % 15.93 C
2857 16-07-2016 22:00:00 18.4 C 85 % 15.83 C
2858 16-07-2016 22:05:00 18.5 C 85 % 15.93 C
2859 16-07-2016 22:10:00 18.5 C 86 % 16.11 C
2860 16-07-2016 22:15:00 18.5 C 86 % 16.11 C
2861 16-07-2016 22:20:00 18.5 C 86 % 16.11 C
2862 16-07-2016 22:25:00 18.5 C 87 % 16.3 C
2863 16-07-2016 22:30:00 18.4 C 87 % 16.2 C
2864 16-07-2016 22:35:00 18.3 C 87 % 16.1 C
2865 16-07-2016 22:40:00 18.3 C 88 % 16.28 C
2866 16-07-2016 22:45:00 18.2 C 88 % 16.18 C
2867 16-07-2016 22:50:00 18.1 C 88 % 16.08 C
2868 16-07-2016 22:55:00 18.1 C 89 % 16.26 C
2869 16-07-2016 23:00:00 18 C 89 % 16.16 C
2870 16-07-2016 23:05:00 17.9 C 89 % 16.06 C
2871 16-07-2016 23:10:00 17.9 C 90 % 16.24 C
2872 16-07-2016 23:15:00 17.8 C 90 % 16.14 C
2873 16-07-2016 23:20:00 17.8 C 90 % 16.14 C
2874 16-07-2016 23:25:00 17.7 C 90 % 16.04 C
2875 16-07-2016 23:30:00 17.6 C 90 % 15.94 C
Sensor: Nr:Datum:Temp:Feuchte:Taupunkt:
Aussen-T/F 2876 16-07-2016 23:35:00 17.5 C 90 % 15.84 C
2877 16-07-2016 23:40:00 17.4 C 90 % 15.74 C
2878 16-07-2016 23:45:00 17.2 C 90 % 15.55 C
2879 16-07-2016 23:50:00 17.1 C 91 % 15.62 C
2880 16-07-2016 23:55:00 17 C 91 % 15.52 C
2881 17-07-2016 00:00:00 16.9 C 91 % 15.42 C
2882 17-07-2016 00:05:00 16.8 C 92 % 15.49 C
2883 17-07-2016 00:10:00 16.8 C 92 % 15.49 C
2884 17-07-2016 00:15:00 16.7 C 92 % 15.39 C
2885 17-07-2016 00:20:00 16.6 C 92 % 15.3 C
2886 17-07-2016 00:25:00 16.5 C 92 % 15.2 C
2887 17-07-2016 00:30:00 16.4 C 92 % 15.1 C
2888 17-07-2016 00:35:00 16.3 C 92 % 15 C
2889 17-07-2016 00:40:00 16.2 C 92 % 14.9 C
2890 17-07-2016 00:45:00 16.2 C 93 % 15.07 C
2891 17-07-2016 00:50:00 16.2 C 93 % 15.07 C
2892 17-07-2016 00:55:00 16.2 C 93 % 15.07 C
2893 17-07-2016 01:00:00 16.3 C 94 % 15.33 C
2894 17-07-2016 01:05:00 16.3 C 94 % 15.33 C
2895 17-07-2016 01:10:00 16.4 C 94 % 15.43 C
2896 17-07-2016 01:15:00 16.5 C 94 % 15.53 C
2897 17-07-2016 01:20:00 16.5 C 94 % 15.53 C
2898 17-07-2016 01:25:00 16.6 C 94 % 15.63 C
2899 17-07-2016 01:30:00 16.6 C 94 % 15.63 C
2900 17-07-2016 01:35:00 16.7 C 94 % 15.73 C
Sensor: Nr:Datum:Temp:Feuchte:Taupunkt:
Aussen-T/F 2901 17-07-2016 01:40:00 16.7 C 94 % 15.73 C
2902 17-07-2016 01:45:00 16.7 C 94 % 15.73 C
2903 17-07-2016 01:50:00 16.7 C 94 % 15.73 C
2904 17-07-2016 01:55:00 16.8 C 94 % 15.83 C
2905 17-07-2016 02:00:00 16.8 C 94 % 15.83 C
2906 17-07-2016 02:05:00 16.9 C 94 % 15.93 C
2907 17-07-2016 02:10:00 16.9 C 94 % 15.93 C
2908 17-07-2016 02:15:00 16.9 C 94 % 15.93 C
2909 17-07-2016 02:20:00 17 C 94 % 16.03 C
2910 17-07-2016 02:25:00 17.1 C 94 % 16.13 C
2911 17-07-2016 02:30:00 17.1 C 94 % 16.13 C
2912 17-07-2016 02:35:00 17.1 C 94 % 16.13 C
2913 17-07-2016 02:40:00 17.1 C 94 % 16.13 C
2914 17-07-2016 02:45:00 17.2 C 94 % 16.23 C
2915 17-07-2016 02:50:00 17.2 C 93 % 16.06 C
2916 17-07-2016 02:55:00 17.2 C 93 % 16.06 C
2917 17-07-2016 03:00:00 17.2 C 93 % 16.06 C
2918 17-07-2016 03:05:00 17.3 C 93 % 16.16 C
2919 17-07-2016 03:10:00 17.3 C 93 % 16.16 C
2920 17-07-2016 03:15:00 17.3 C 93 % 16.16 C
2921 17-07-2016 03:20:00 17.2 C 93 % 16.06 C
2922 17-07-2016 03:25:00 17.2 C 93 % 16.06 C
2923 17-07-2016 03:30:00 17.2 C 93 % 16.06 C
2924 17-07-2016 03:35:00 17.2 C 93 % 16.06 C
2925 17-07-2016 03:40:00 17.2 C 93 % 16.06 C
Sensor: Nr:Datum:Temp:Feuchte:Taupunkt:
Aussen-T/F 2926 17-07-2016 03:45:00 17.2 C 93 % 16.06 C
2927 17-07-2016 03:50:00 17.2 C 93 % 16.06 C
2928 17-07-2016 03:55:00 17.1 C 93 % 15.96 C
2929 17-07-2016 04:00:00 17.1 C 93 % 15.96 C
2930 17-07-2016 04:05:00 17.1 C 94 % 16.13 C
2931 17-07-2016 04:10:00 17.1 C 94 % 16.13 C
2932 17-07-2016 04:15:00 17.2 C 94 % 16.23 C
2933 17-07-2016 04:20:00 17.2 C 94 % 16.23 C
2934 17-07-2016 04:25:00 17.2 C 94 % 16.23 C
2935 17-07-2016 04:30:00 17.2 C 94 % 16.23 C
2936 17-07-2016 04:35:00 17.1 C 94 % 16.13 C
2937 17-07-2016 04:40:00 17.1 C 94 % 16.13 C
2938 17-07-2016 04:45:00 17 C 93 % 15.86 C
2939 17-07-2016 04:50:00 16.9 C 93 % 15.76 C
2940 17-07-2016 04:55:00 16.7 C 93 % 15.56 C
2941 17-07-2016 05:00:00 16.6 C 93 % 15.46 C
2942 17-07-2016 05:05:00 16.5 C 93 % 15.36 C
2943 17-07-2016 05:10:00 16.5 C 93 % 15.36 C
2944 17-07-2016 05:15:00 16.5 C 94 % 15.53 C
2945 17-07-2016 05:20:00 16.5 C 94 % 15.53 C
2946 17-07-2016 05:25:00 16.5 C 94 % 15.53 C
2947 17-07-2016 05:30:00 16.5 C 94 % 15.53 C
2948 17-07-2016 05:35:00 16.5 C 94 % 15.53 C
2949 17-07-2016 05:40:00 16.4 C 94 % 15.43 C
2950 17-07-2016 05:45:00 16.4 C 94 % 15.43 C
Sensor: Nr:Datum:Temp:Feuchte:Taupunkt:
Aussen-T/F 2951 17-07-2016 05:50:00 16.4 C 94 % 15.43 C
2952 17-07-2016 05:55:00 16.5 C 95 % 15.7 C
2953 17-07-2016 06:00:00 16.6 C 95 % 15.8 C
2954 17-07-2016 06:05:00 16.6 C 95 % 15.8 C
2955 17-07-2016 06:10:00 16.6 C 95 % 15.8 C
2956 17-07-2016 06:15:00 16.7 C 95 % 15.9 C
2957 17-07-2016 06:20:00 16.7 C 95 % 15.9 C
2958 17-07-2016 06:25:00 16.8 C 95 % 15.99 C
2959 17-07-2016 06:30:00 16.8 C 95 % 15.99 C
2960 17-07-2016 06:35:00 16.9 C 95 % 16.09 C
2961 17-07-2016 06:40:00 17 C 95 % 16.19 C
2962 17-07-2016 06:45:00 17.1 C 95 % 16.29 C
2963 17-07-2016 06:50:00 17.1 C 95 % 16.29 C
2964 17-07-2016 06:55:00 17.1 C 95 % 16.29 C
2965 17-07-2016 07:00:00 17.2 C 95 % 16.39 C
2966 17-07-2016 07:05:00 17.2 C 95 % 16.39 C
2967 17-07-2016 07:10:00 17.3 C 95 % 16.49 C
2968 17-07-2016 07:15:00 17.4 C 95 % 16.59 C
2969 17-07-2016 07:20:00 17.4 C 95 % 16.59 C
2970 17-07-2016 07:25:00 17.5 C 95 % 16.69 C
2971 17-07-2016 07:30:00 17.6 C 95 % 16.79 C
2972 17-07-2016 07:35:00 17.7 C 95 % 16.89 C
2973 17-07-2016 07:40:00 17.7 C 94 % 16.72 C
2974 17-07-2016 07:45:00 17.8 C 94 % 16.82 C
2975 17-07-2016 07:50:00 17.9 C 94 % 16.92 C
Sensor: Nr:Datum:Temp:Feuchte:Taupunkt:
Aussen-T/F 2976 17-07-2016 07:55:00 18.1 C 93 % 16.95 C
2977 17-07-2016 08:00:00 18.2 C 93 % 17.05 C
2978 17-07-2016 08:05:00 18.3 C 92 % 16.98 C
2979 17-07-2016 08:10:00 18.4 C 92 % 17.08 C
2980 17-07-2016 08:15:00 18.5 C 92 % 17.18 C
2981 17-07-2016 08:20:00 18.6 C 92 % 17.27 C
2982 17-07-2016 08:25:00 18.8 C 92 % 17.47 C
2983 17-07-2016 08:30:00 18.8 C 92 % 17.47 C
2984 17-07-2016 08:35:00 18.9 C 91 % 17.4 C
2985 17-07-2016 08:40:00 19.1 C 90 % 17.42 C
2986 17-07-2016 08:45:00 19.1 C 90 % 17.42 C
2987 17-07-2016 08:50:00 19.3 C 90 % 17.62 C
2988 17-07-2016 08:55:00 19.4 C 89 % 17.54 C
2989 17-07-2016 09:00:00 19.5 C 88 % 17.46 C
2990 17-07-2016 09:05:00 19.6 C 88 % 17.56 C
2991 17-07-2016 09:10:00 19.7 C 88 % 17.66 C
2992 17-07-2016 09:15:00 19.8 C 88 % 17.75 C
2993 17-07-2016 09:20:00 20 C 88 % 17.95 C
2994 17-07-2016 09:25:00 20.2 C 87 % 17.97 C
2995 17-07-2016 09:30:00 20.3 C 87 % 18.06 C
2996 17-07-2016 09:35:00 20.4 C 86 % 17.98 C
2997 17-07-2016 09:40:00 20.6 C 87 % 18.36 C
2998 17-07-2016 09:45:00 20.8 C 85 % 18.18 C
2999 17-07-2016 09:50:00 20.9 C 84 % 18.09 C
3000 17-07-2016 09:55:00 21.2 C 84 % 18.39 C
Sensor: Nr:Datum:Temp:Feuchte:Taupunkt:
Aussen-T/F 3001 17-07-2016 10:00:00 21.4 C 83 % 18.39 C
3002 17-07-2016 10:05:00 21.7 C 82 % 18.49 C
3003 17-07-2016 10:10:00 21.9 C 81 % 18.49 C
3004 17-07-2016 10:15:00 22.1 C 80 % 18.49 C
3005 17-07-2016 10:20:00 22.2 C 80 % 18.58 C
3006 17-07-2016 10:25:00 22.3 C 80 % 18.68 C
3007 17-07-2016 10:30:00 22.5 C 79 % 18.67 C
3008 17-07-2016 10:35:00 22.7 C 77 % 18.46 C
3009 17-07-2016 10:40:00 22.8 C 74 % 17.92 C
3010 17-07-2016 10:45:00 22.9 C 74 % 18.02 C
3011 17-07-2016 10:50:00 23.1 C 75 % 18.43 C
3012 17-07-2016 10:55:00 23.3 C 73 % 18.19 C
3013 17-07-2016 11:00:00 23.4 C 73 % 18.28 C
3014 17-07-2016 11:05:00 23.5 C 72 % 18.16 C
3015 17-07-2016 11:10:00 23.6 C 73 % 18.48 C
3016 17-07-2016 11:15:00 23.7 C 72 % 18.35 C
3017 17-07-2016 11:20:00 23.8 C 69 % 17.77 C
3018 17-07-2016 11:25:00 23.8 C 74 % 18.89 C
3019 17-07-2016 11:30:00 23.7 C 70 % 17.9 C
3020 17-07-2016 11:35:00 23.7 C 70 % 17.9 C
3021 17-07-2016 11:40:00 23.7 C 73 % 18.57 C
3022 17-07-2016 11:45:00 23.7 C 73 % 18.57 C
3023 17-07-2016 11:50:00 23.8 C 73 % 18.67 C
3024 17-07-2016 11:55:00 24 C 71 % 18.42 C
3025 17-07-2016 12:00:00 24.2 C 73 % 19.05 C
Sensor: Nr:Datum:Temp:Feuchte:Taupunkt:
Aussen-T/F 3026 17-07-2016 12:05:00 24.3 C 72 % 18.93 C
3027 17-07-2016 12:10:00 24.4 C 72 % 19.02 C
3028 17-07-2016 12:15:00 24.6 C 76 % 20.09 C
3029 17-07-2016 12:20:00 24.5 C 74 % 19.56 C
3030 17-07-2016 12:25:00 24.6 C 69 % 18.53 C
3031 17-07-2016 12:30:00 24.7 C 74 % 19.75 C
3032 17-07-2016 12:35:00 24.7 C 74 % 19.75 C
3033 17-07-2016 12:40:00 24.4 C 75 % 19.68 C
3034 17-07-2016 12:45:00 24.2 C 76 % 19.7 C
3035 17-07-2016 12:50:00 23.9 C 78 % 19.83 C
3036 17-07-2016 12:55:00 23.7 C 79 % 19.84 C
3037 17-07-2016 13:00:00 23.5 C 79 % 19.65 C
3038 17-07-2016 13:05:00 23.4 C 81 % 19.95 C
3039 17-07-2016 13:10:00 23.4 C 82 % 20.15 C
3040 17-07-2016 13:15:00 23.7 C 75 % 19 C
3041 17-07-2016 13:20:00 24.2 C 76 % 19.7 C
3042 17-07-2016 13:25:00 24.4 C 70 % 18.57 C
3043 17-07-2016 13:30:00 24.7 C 70 % 18.86 C
3044 17-07-2016 13:35:00 24.9 C 69 % 18.82 C
3045 17-07-2016 13:40:00 24.9 C 71 % 19.28 C
3046 17-07-2016 13:45:00 25 C 70 % 19.15 C
3047 17-07-2016 13:50:00 25.2 C 71 % 19.56 C
3048 17-07-2016 13:55:00 25.3 C 69 % 19.2 C
3049 17-07-2016 14:00:00 25.4 C 71 % 19.76 C
3050 17-07-2016 14:05:00 25.4 C 72 % 19.98 C
Sensor: Nr:Datum:Temp:Feuchte:Taupunkt:
Aussen-T/F 3051 17-07-2016 14:10:00 25.6 C 75 % 20.84 C
3052 17-07-2016 14:15:00 25.5 C 75 % 20.74 C
3053 17-07-2016 14:20:00 25.3 C 75 % 20.55 C
3054 17-07-2016 14:25:00 25.2 C 76 % 20.67 C
3055 17-07-2016 14:30:00 25.2 C 77 % 20.88 C
3056 17-07-2016 14:35:00 25.2 C 77 % 20.88 C
3057 17-07-2016 14:40:00 25.3 C 75 % 20.55 C
3058 17-07-2016 14:45:00 25.4 C 75 % 20.64 C
3059 17-07-2016 14:50:00 25.5 C 73 % 20.3 C
3060 17-07-2016 14:55:00 25.6 C 75 % 20.84 C
3061 17-07-2016 15:00:00 25.7 C 75 % 20.93 C
3062 17-07-2016 15:05:00 25.7 C 75 % 20.93 C
3063 17-07-2016 15:10:00 25.7 C 77 % 21.36 C
3064 17-07-2016 15:15:00 25.7 C 78 % 21.57 C
3065 17-07-2016 15:20:00 25.7 C 69 % 19.58 C
3066 17-07-2016 15:25:00 25.8 C 73 % 20.59 C
3067 17-07-2016 15:30:00 25.7 C 71 % 20.04 C
3068 17-07-2016 15:35:00 25.3 C 64 % 18 C
3069 17-07-2016 15:40:00 25.1 C 65 % 18.06 C
3070 17-07-2016 15:45:00 25.1 C 66 % 18.3 C
3071 17-07-2016 15:50:00 25.2 C 66 % 18.39 C
3072 17-07-2016 15:55:00 25.7 C 66 % 18.87 C
3073 17-07-2016 16:00:00 26.3 C 62 % 18.44 C
3074 17-07-2016 16:05:00 26.7 C 60 % 18.29 C
3075 17-07-2016 16:10:00 26.7 C 61 % 18.55 C
Sensor: Nr:Datum:Temp:Feuchte:Taupunkt:
Aussen-T/F 3076 17-07-2016 16:15:00 26.4 C 62 % 18.53 C
3077 17-07-2016 16:20:00 26.1 C 62 % 18.25 C
3078 17-07-2016 16:25:00 26.1 C 62 % 18.25 C
3079 17-07-2016 16:30:00 26.2 C 63 % 18.6 C
3080 17-07-2016 16:35:00 26.6 C 62 % 18.72 C
3081 17-07-2016 16:40:00 27.1 C 60 % 18.66 C
3082 17-07-2016 16:45:00 27.1 C 58 % 18.12 C
3083 17-07-2016 16:50:00 26.8 C 60 % 18.38 C
3084 17-07-2016 16:55:00 26.8 C 61 % 18.65 C
3085 17-07-2016 17:00:00 26.7 C 60 % 18.29 C
3086 17-07-2016 17:05:00 26.4 C 61 % 18.27 C
3087 17-07-2016 17:10:00 26.2 C 61 % 18.08 C
3088 17-07-2016 17:15:00 26.2 C 61 % 18.08 C
3089 17-07-2016 17:20:00 26.3 C 60 % 17.91 C
3090 17-07-2016 17:25:00 26.2 C 60 % 17.82 C
3091 17-07-2016 17:30:00 26.4 C 59 % 17.74 C
3092 17-07-2016 17:35:00 26.5 C 59 % 17.83 C
3093 17-07-2016 17:40:00 26.4 C 58 % 17.47 C
3094 17-07-2016 17:45:00 26.2 C 59 % 17.55 C
3095 17-07-2016 17:50:00 26.2 C 58 % 17.28 C
3096 17-07-2016 17:55:00 26.4 C 57 % 17.19 C
3097 17-07-2016 18:00:00 26.4 C 56 % 16.92 C
3098 17-07-2016 18:05:00 26.1 C 56 % 16.64 C
3099 17-07-2016 18:10:00 25.9 C 59 % 17.27 C
3100 17-07-2016 18:15:00 25.9 C 58 % 17 C
Sensor: Nr:Datum:Temp:Feuchte:Taupunkt:
Aussen-T/F 3101 17-07-2016 18:20:00 26.1 C 58 % 17.19 C
3102 17-07-2016 18:25:00 26.1 C 58 % 17.19 C
3103 17-07-2016 18:30:00 25.8 C 59 % 17.18 C
3104 17-07-2016 18:35:00 25.7 C 60 % 17.35 C
3105 17-07-2016 18:40:00 25.6 C 60 % 17.26 C
3106 17-07-2016 18:45:00 25.7 C 61 % 17.61 C
3107 17-07-2016 18:50:00 25.7 C 65 % 18.62 C
3108 17-07-2016 18:55:00 25.7 C 60 % 17.35 C
3109 17-07-2016 19:00:00 25.6 C 59 % 16.99 C
3110 17-07-2016 19:05:00 25.6 C 62 % 17.78 C
3111 17-07-2016 19:10:00 25.4 C 61 % 17.33 C
3112 17-07-2016 19:15:00 25.3 C 60 % 16.98 C
3113 17-07-2016 19:20:00 25.1 C 60 % 16.79 C
3114 17-07-2016 19:25:00 25 C 61 % 16.96 C
3115 17-07-2016 19:30:00 25 C 70 % 19.15 C
3116 17-07-2016 19:35:00 24.8 C 68 % 18.49 C
3117 17-07-2016 19:40:00 24.7 C 69 % 18.63 C
3118 17-07-2016 19:45:00 24.8 C 63 % 17.28 C
3119 17-07-2016 19:50:00 25.1 C 65 % 18.06 C
3120 17-07-2016 19:55:00 25.4 C 62 % 17.59 C
3121 17-07-2016 20:00:00 25.6 C 61 % 17.52 C
3122 17-07-2016 20:05:00 25.6 C 61 % 17.52 C
3123 17-07-2016 20:10:00 25.6 C 60 % 17.26 C
3124 17-07-2016 20:15:00 25.4 C 62 % 17.59 C
3125 17-07-2016 20:20:00 25.2 C 62 % 17.4 C
Sensor: Nr:Datum:Temp:Feuchte:Taupunkt:
Aussen-T/F 3126 17-07-2016 20:25:00 25 C 64 % 17.72 C
3127 17-07-2016 20:30:00 24.8 C 69 % 18.72 C
3128 17-07-2016 20:35:00 24.5 C 70 % 18.67 C
3129 17-07-2016 20:40:00 24.3 C 71 % 18.7 C
3130 17-07-2016 20:45:00 24.1 C 72 % 18.73 C
3131 17-07-2016 20:50:00 23.8 C 71 % 18.22 C
3132 17-07-2016 20:55:00 23.7 C 70 % 17.9 C
3133 17-07-2016 21:00:00 23.6 C 72 % 18.26 C
3134 17-07-2016 21:05:00 23.5 C 75 % 18.81 C
3135 17-07-2016 21:10:00 23.3 C 75 % 18.62 C
3136 17-07-2016 21:15:00 23 C 76 % 18.54 C
3137 17-07-2016 21:20:00 22.7 C 76 % 18.25 C
3138 17-07-2016 21:25:00 22.5 C 77 % 18.27 C
3139 17-07-2016 21:30:00 22.3 C 78 % 18.28 C
3140 17-07-2016 21:35:00 22.2 C 79 % 18.38 C
3141 17-07-2016 21:40:00 21.9 C 80 % 18.29 C
3142 17-07-2016 21:45:00 21.7 C 81 % 18.3 C
3143 17-07-2016 21:50:00 21.6 C 82 % 18.39 C
3144 17-07-2016 21:55:00 21.4 C 82 % 18.2 C
3145 17-07-2016 22:00:00 21.3 C 83 % 18.29 C
3146 17-07-2016 22:05:00 21.2 C 83 % 18.2 C
3147 17-07-2016 22:10:00 21.1 C 84 % 18.29 C
3148 17-07-2016 22:15:00 21 C 84 % 18.19 C
3149 17-07-2016 22:20:00 20.9 C 84 % 18.09 C
3150 17-07-2016 22:25:00 20.8 C 85 % 18.18 C
Sensor: Nr:Datum:Temp:Feuchte:Taupunkt:
Aussen-T/F 3151 17-07-2016 22:30:00 20.8 C 85 % 18.18 C
3152 17-07-2016 22:35:00 20.7 C 85 % 18.09 C
3153 17-07-2016 22:40:00 20.7 C 86 % 18.27 C
3154 17-07-2016 22:45:00 20.6 C 86 % 18.18 C
3155 17-07-2016 22:50:00 20.6 C 86 % 18.18 C
3156 17-07-2016 22:55:00 20.6 C 86 % 18.18 C
3157 17-07-2016 23:00:00 20.5 C 86 % 18.08 C
3158 17-07-2016 23:05:00 20.4 C 87 % 18.16 C
3159 17-07-2016 23:10:00 20.4 C 87 % 18.16 C
3160 17-07-2016 23:15:00 20.3 C 87 % 18.06 C
3161 17-07-2016 23:20:00 20.3 C 87 % 18.06 C
3162 17-07-2016 23:25:00 20.3 C 87 % 18.06 C
3163 17-07-2016 23:30:00 20.2 C 87 % 17.97 C
3164 17-07-2016 23:35:00 20.2 C 87 % 17.97 C
3165 17-07-2016 23:40:00 20.1 C 88 % 18.05 C
3166 17-07-2016 23:45:00 19.9 C 88 % 17.85 C
3167 17-07-2016 23:50:00 19.9 C 88 % 17.85 C
3168 17-07-2016 23:55:00 19.8 C 88 % 17.75 C
3169 18-07-2016 00:00:00 19.8 C 88 % 17.75 C
3170 18-07-2016 00:05:00 19.8 C 88 % 17.75 C
3171 18-07-2016 00:10:00 19.7 C 89 % 17.84 C
3172 18-07-2016 00:15:00 19.6 C 89 % 17.74 C
3173 18-07-2016 00:20:00 19.5 C 89 % 17.64 C
3174 18-07-2016 00:25:00 19.4 C 89 % 17.54 C
3175 18-07-2016 00:30:00 19.4 C 89 % 17.54 C
Sensor: Nr:Datum:Temp:Feuchte:Taupunkt:
Aussen-T/F 3176 18-07-2016 00:35:00 19.3 C 89 % 17.44 C
3177 18-07-2016 00:40:00 19.3 C 89 % 17.44 C
3178 18-07-2016 00:45:00 19.2 C 90 % 17.52 C
3179 18-07-2016 00:50:00 19.1 C 90 % 17.42 C
3180 18-07-2016 00:55:00 19.1 C 90 % 17.42 C
3181 18-07-2016 01:00:00 19 C 90 % 17.32 C
3182 18-07-2016 01:05:00 18.9 C 90 % 17.22 C
3183 18-07-2016 01:10:00 18.9 C 91 % 17.4 C
3184 18-07-2016 01:15:00 18.8 C 91 % 17.3 C
3185 18-07-2016 01:20:00 18.8 C 91 % 17.3 C
3186 18-07-2016 01:25:00 18.7 C 91 % 17.2 C
3187 18-07-2016 01:30:00 18.7 C 92 % 17.37 C
3188 18-07-2016 01:35:00 18.7 C 92 % 17.37 C
3189 18-07-2016 01:40:00 18.7 C 92 % 17.37 C
3190 18-07-2016 01:45:00 18.7 C 92 % 17.37 C
3191 18-07-2016 01:50:00 18.6 C 92 % 17.27 C
3192 18-07-2016 01:55:00 18.6 C 92 % 17.27 C
3193 18-07-2016 02:00:00 18.4 C 92 % 17.08 C
3194 18-07-2016 02:05:00 18.4 C 92 % 17.08 C
3195 18-07-2016 02:10:00 18.3 C 92 % 16.98 C
3196 18-07-2016 02:15:00 18.3 C 92 % 16.98 C
3197 18-07-2016 02:20:00 18.2 C 92 % 16.88 C
3198 18-07-2016 02:25:00 18.2 C 92 % 16.88 C
3199 18-07-2016 02:30:00 18.1 C 92 % 16.78 C
3200 18-07-2016 02:35:00 18 C 93 % 16.85 C
Sensor: Nr:Datum:Temp:Feuchte:Taupunkt:
Aussen-T/F 3201 18-07-2016 02:40:00 17.9 C 93 % 16.75 C
3202 18-07-2016 02:45:00 17.9 C 93 % 16.75 C
3203 18-07-2016 02:50:00 17.9 C 93 % 16.75 C
3204 18-07-2016 02:55:00 17.8 C 93 % 16.65 C
3205 18-07-2016 03:00:00 17.8 C 93 % 16.65 C
3206 18-07-2016 03:05:00 17.7 C 93 % 16.55 C
3207 18-07-2016 03:10:00 17.7 C 93 % 16.55 C
3208 18-07-2016 03:15:00 17.6 C 93 % 16.45 C
3209 18-07-2016 03:20:00 17.6 C 93 % 16.45 C
3210 18-07-2016 03:25:00 17.6 C 93 % 16.45 C
3211 18-07-2016 03:30:00 17.6 C 93 % 16.45 C
3212 18-07-2016 03:35:00 17.6 C 93 % 16.45 C
3213 18-07-2016 03:40:00 17.6 C 94 % 16.62 C
3214 18-07-2016 03:45:00 17.6 C 94 % 16.62 C
3215 18-07-2016 03:50:00 17.6 C 94 % 16.62 C
3216 18-07-2016 03:55:00 17.6 C 94 % 16.62 C
3217 18-07-2016 04:00:00 17.5 C 94 % 16.52 C
3218 18-07-2016 04:05:00 17.5 C 94 % 16.52 C
3219 18-07-2016 04:10:00 17.4 C 94 % 16.42 C
3220 18-07-2016 04:15:00 17.4 C 94 % 16.42 C
3221 18-07-2016 04:20:00 17.4 C 94 % 16.42 C
3222 18-07-2016 04:25:00 17.3 C 94 % 16.33 C
3223 18-07-2016 04:30:00 17.3 C 93 % 16.16 C
3224 18-07-2016 04:35:00 17.3 C 94 % 16.33 C
3225 18-07-2016 04:40:00 17.3 C 94 % 16.33 C
Sensor: Nr:Datum:Temp:Feuchte:Taupunkt:
Aussen-T/F 3226 18-07-2016 04:45:00 17.3 C 94 % 16.33 C
3227 18-07-2016 04:50:00 17.2 C 94 % 16.23 C
3228 18-07-2016 04:55:00 17.2 C 94 % 16.23 C
3229 18-07-2016 05:00:00 17.1 C 94 % 16.13 C
3230 18-07-2016 05:05:00 16.9 C 93 % 15.76 C
3231 18-07-2016 05:10:00 16.8 C 93 % 15.66 C
3232 18-07-2016 05:15:00 16.8 C 94 % 15.83 C
3233 18-07-2016 05:20:00 16.7 C 94 % 15.73 C
3234 18-07-2016 05:25:00 16.6 C 94 % 15.63 C
3235 18-07-2016 05:30:00 16.5 C 94 % 15.53 C
3236 18-07-2016 05:35:00 16.4 C 94 % 15.43 C
3237 18-07-2016 05:40:00 16.4 C 94 % 15.43 C
3238 18-07-2016 05:45:00 16.3 C 94 % 15.33 C
3239 18-07-2016 05:50:00 16.3 C 94 % 15.33 C
3240 18-07-2016 05:55:00 16.2 C 94 % 15.23 C
3241 18-07-2016 06:00:00 16.2 C 94 % 15.23 C
3242 18-07-2016 06:05:00 16.2 C 94 % 15.23 C
3243 18-07-2016 06:10:00 16.1 C 94 % 15.13 C
3244 18-07-2016 06:15:00 16.2 C 95 % 15.4 C
3245 18-07-2016 06:20:00 16.2 C 95 % 15.4 C
3246 18-07-2016 06:25:00 16.3 C 95 % 15.5 C
3247 18-07-2016 06:30:00 16.3 C 95 % 15.5 C
3248 18-07-2016 06:35:00 16.3 C 95 % 15.5 C
3249 18-07-2016 06:40:00 16.3 C 95 % 15.5 C
3250 18-07-2016 06:45:00 16.3 C 95 % 15.5 C
Sensor: Nr:Datum:Temp:Feuchte:Taupunkt:
Aussen-T/F 3251 18-07-2016 06:50:00 16.4 C 95 % 15.6 C
3252 18-07-2016 06:55:00 16.4 C 95 % 15.6 C
3253 18-07-2016 07:00:00 16.4 C 95 % 15.6 C
3254 18-07-2016 07:05:00 16.3 C 95 % 15.5 C
3255 18-07-2016 07:10:00 16.3 C 95 % 15.5 C
3256 18-07-2016 07:15:00 16.3 C 95 % 15.5 C
3257 18-07-2016 07:20:00 16.3 C 95 % 15.5 C
3258 18-07-2016 07:25:00 16.3 C 95 % 15.5 C
3259 18-07-2016 07:30:00 16.3 C 95 % 15.5 C
3260 18-07-2016 07:35:00 16.3 C 95 % 15.5 C
3261 18-07-2016 07:40:00 16.4 C 95 % 15.6 C
3262 18-07-2016 07:45:00 16.4 C 95 % 15.6 C
3263 18-07-2016 07:50:00 16.4 C 95 % 15.6 C
3264 18-07-2016 07:55:00 16.5 C 95 % 15.7 C
3265 18-07-2016 08:00:00 16.6 C 95 % 15.8 C
3266 18-07-2016 08:05:00 16.6 C 95 % 15.8 C
3267 18-07-2016 08:10:00 16.7 C 95 % 15.9 C
3268 18-07-2016 08:15:00 16.7 C 95 % 15.9 C
3269 18-07-2016 08:20:00 16.8 C 95 % 15.99 C
3270 18-07-2016 08:25:00 16.9 C 96 % 16.26 C
3271 18-07-2016 08:30:00 17 C 96 % 16.36 C
3272 18-07-2016 08:35:00 17.1 C 95 % 16.29 C
3273 18-07-2016 08:40:00 17.2 C 95 % 16.39 C
3274 18-07-2016 08:45:00 17.2 C 96 % 16.56 C
3275 18-07-2016 08:50:00 17.3 C 96 % 16.66 C
Sensor: Nr:Datum:Temp:Feuchte:Taupunkt:
Aussen-T/F 3276 18-07-2016 08:55:00 17.4 C 96 % 16.76 C
3277 18-07-2016 09:00:00 17.5 C 96 % 16.85 C
3278 18-07-2016 09:05:00 17.6 C 96 % 16.95 C
3279 18-07-2016 09:10:00 17.7 C 96 % 17.05 C
3280 18-07-2016 09:15:00 17.8 C 95 % 16.99 C
3281 18-07-2016 09:20:00 17.8 C 95 % 16.99 C
3282 18-07-2016 09:25:00 18 C 96 % 17.35 C
3283 18-07-2016 09:30:00 18.2 C 95 % 17.39 C
3284 18-07-2016 09:35:00 18.3 C 96 % 17.65 C
3285 18-07-2016 09:40:00 18.5 C 95 % 17.68 C
3286 18-07-2016 09:45:00 18.6 C 95 % 17.78 C
3287 18-07-2016 09:50:00 18.7 C 95 % 17.88 C
3288 18-07-2016 09:55:00 18.7 C 95 % 17.88 C
3289 18-07-2016 10:00:00 18.9 C 94 % 17.91 C
3290 18-07-2016 10:05:00 19 C 94 % 18.01 C
3291 18-07-2016 10:10:00 19.2 C 94 % 18.21 C
3292 18-07-2016 10:15:00 19.3 C 93 % 18.14 C
3293 18-07-2016 10:20:00 19.7 C 92 % 18.36 C
3294 18-07-2016 10:25:00 20.1 C 91 % 18.58 C
3295 18-07-2016 10:30:00 20.6 C 88 % 18.54 C
3296 18-07-2016 10:35:00 21.2 C 86 % 18.76 C
3297 18-07-2016 10:40:00 21.8 C 84 % 18.97 C
3298 18-07-2016 10:45:00 22.4 C 80 % 18.78 C
3299 18-07-2016 10:50:00 22.8 C 77 % 18.56 C
3300 18-07-2016 10:55:00 23.1 C 76 % 18.64 C
Sensor: Nr:Datum:Temp:Feuchte:Taupunkt:
Aussen-T/F 3301 18-07-2016 11:00:00 23.2 C 78 % 19.15 C
3302 18-07-2016 11:05:00 23 C 77 % 18.75 C
3303 18-07-2016 11:10:00 22.8 C 78 % 18.76 C
3304 18-07-2016 11:15:00 22.7 C 76 % 18.25 C
3305 18-07-2016 11:20:00 22.6 C 77 % 18.36 C
3306 18-07-2016 11:25:00 22.7 C 73 % 17.61 C
3307 18-07-2016 11:30:00 22.9 C 73 % 17.8 C
3308 18-07-2016 11:35:00 23.1 C 72 % 17.78 C
3309 18-07-2016 11:40:00 23.2 C 72 % 17.87 C
3310 18-07-2016 11:45:00 23.3 C 72 % 17.97 C
3311 18-07-2016 11:50:00 23.4 C 71 % 17.84 C
3312 18-07-2016 11:55:00 23.5 C 67 % 17.02 C
3313 18-07-2016 12:00:00 23.6 C 69 % 17.58 C
3314 18-07-2016 12:05:00 23.7 C 68 % 17.44 C
3315 18-07-2016 12:10:00 23.7 C 68 % 17.44 C
3316 18-07-2016 12:15:00 23.7 C 68 % 17.44 C
3317 18-07-2016 12:20:00 23.7 C 69 % 17.67 C
3318 18-07-2016 12:25:00 23.7 C 67 % 17.21 C
3319 18-07-2016 12:30:00 23.8 C 66 % 17.07 C
3320 18-07-2016 12:35:00 23.9 C 65 % 16.92 C
3321 18-07-2016 12:40:00 24 C 66 % 17.26 C
3322 18-07-2016 12:45:00 24 C 67 % 17.49 C
3323 18-07-2016 12:50:00 24.1 C 65 % 17.11 C
3324 18-07-2016 12:55:00 24.2 C 63 % 16.71 C
3325 18-07-2016 13:00:00 24.3 C 66 % 17.54 C
Sensor: Nr:Datum:Temp:Feuchte:Taupunkt:
Aussen-T/F 3326 18-07-2016 13:05:00 24.3 C 71 % 18.7 C
3327 18-07-2016 13:10:00 24.2 C 64 % 16.96 C
3328 18-07-2016 13:15:00 24.3 C 65 % 17.3 C
3329 18-07-2016 13:20:00 24.4 C 64 % 17.15 C
3330 18-07-2016 13:25:00 24.5 C 68 % 18.2 C
3331 18-07-2016 13:30:00 24.4 C 65 % 17.39 C
3332 18-07-2016 13:35:00 24.3 C 61 % 16.3 C
3333 18-07-2016 13:40:00 24.3 C 61 % 16.3 C
3334 18-07-2016 13:45:00 24.5 C 63 % 16.99 C
3335 18-07-2016 13:50:00 24.5 C 58 % 15.7 C
3336 18-07-2016 13:55:00 24.7 C 59 % 16.15 C
3337 18-07-2016 14:00:00 24.9 C 56 % 15.52 C
3338 18-07-2016 14:05:00 24.9 C 54 % 14.95 C
3339 18-07-2016 14:10:00 24.9 C 57 % 15.8 C
3340 18-07-2016 14:15:00 24.9 C 53 % 14.66 C
3341 18-07-2016 14:20:00 25 C 56 % 15.61 C
3342 18-07-2016 14:25:00 25.2 C 56 % 15.8 C
3343 18-07-2016 14:30:00 25.3 C 53 % 15.03 C
3344 18-07-2016 14:35:00 25.6 C 53 % 15.31 C
3345 18-07-2016 14:40:00 25.7 C 48 % 13.87 C
3346 18-07-2016 14:45:00 25.8 C 52 % 15.2 C
3347 18-07-2016 14:50:00 25.8 C 52 % 15.2 C
3348 18-07-2016 14:55:00 25.9 C 52 % 15.29 C
3349 18-07-2016 15:00:00 26 C 55 % 16.26 C
3350 18-07-2016 15:05:00 26 C 52 % 15.38 C
Sensor: Nr:Datum:Temp:Feuchte:Taupunkt:
Aussen-T/F 3351 18-07-2016 15:10:00 26.1 C 54 % 16.07 C
3352 18-07-2016 15:15:00 26.4 C 51 % 15.45 C
3353 18-07-2016 15:20:00 26.8 C 51 % 15.82 C
3354 18-07-2016 15:25:00 26.9 C 49 % 15.28 C
3355 18-07-2016 15:30:00 26.9 C 49 % 15.28 C
3356 18-07-2016 15:35:00 27.3 C 46 % 14.67 C
3357 18-07-2016 15:40:00 27.8 C 45 % 14.78 C
3358 18-07-2016 15:45:00 28.1 C 46 % 15.39 C
3359 18-07-2016 15:50:00 28.2 C 53 % 17.71 C
3360 18-07-2016 15:55:00 28.3 C 55 % 18.39 C
3361 18-07-2016 16:00:00 28.5 C 43 % 14.71 C
3362 18-07-2016 16:05:00 28.7 C 45 % 15.59 C
3363 18-07-2016 16:10:00 29.1 C 44 % 15.6 C
3364 18-07-2016 16:15:00 29.3 C 49 % 17.48 C
3365 18-07-2016 16:20:00 29.5 C 44 % 15.96 C
3366 18-07-2016 16:25:00 29.4 C 43 % 15.51 C
3367 18-07-2016 16:30:00 29.2 C 43 % 15.33 C
3368 18-07-2016 16:35:00 29.1 C 44 % 15.6 C
3369 18-07-2016 16:40:00 28.9 C 43 % 15.06 C
3370 18-07-2016 16:45:00 28.7 C 46 % 15.94 C
3371 18-07-2016 16:50:00 28.7 C 46 % 15.94 C
3372 18-07-2016 16:55:00 28.9 C 47 % 16.45 C
3373 18-07-2016 17:00:00 29.1 C 42 % 14.88 C
3374 18-07-2016 17:05:00 29.4 C 48 % 17.24 C
3375 18-07-2016 17:10:00 29.5 C 44 % 15.96 C
Sensor: Nr:Datum:Temp:Feuchte:Taupunkt:
Aussen-T/F 3376 18-07-2016 17:15:00 29.7 C 46 % 16.84 C
3377 18-07-2016 17:20:00 29.7 C 44 % 16.14 C
3378 18-07-2016 17:25:00 29.8 C 47 % 17.27 C
3379 18-07-2016 17:30:00 29.9 C 47 % 17.36 C
3380 18-07-2016 17:35:00 30 C 45 % 16.77 C
3381 18-07-2016 17:40:00 30.2 C 44 % 16.59 C
3382 18-07-2016 17:45:00 30.2 C 43 % 16.23 C
3383 18-07-2016 17:50:00 30.2 C 43 % 16.23 C
3384 18-07-2016 17:55:00 30.1 C 44 % 16.5 C
3385 18-07-2016 18:00:00 30 C 43 % 16.05 C
3386 18-07-2016 18:05:00 29.9 C 41 % 15.22 C
3387 18-07-2016 18:10:00 29.8 C 42 % 15.51 C
3388 18-07-2016 18:15:00 29.8 C 41 % 15.13 C
3389 18-07-2016 18:20:00 29.9 C 42 % 15.6 C
3390 18-07-2016 18:25:00 29.9 C 44 % 16.32 C
3391 18-07-2016 18:30:00 30 C 50 % 18.44 C
3392 18-07-2016 18:35:00 30.3 C 53 % 19.65 C
3393 18-07-2016 18:40:00 30.6 C 42 % 16.22 C
3394 18-07-2016 18:45:00 30.7 C 40 % 15.55 C
3395 18-07-2016 18:50:00 30.3 C 42 % 15.95 C
3396 18-07-2016 18:55:00 30.1 C 40 % 15.01 C
3397 18-07-2016 19:00:00 30.1 C 43 % 16.14 C
3398 18-07-2016 19:05:00 30.2 C 46 % 17.3 C
3399 18-07-2016 19:10:00 30.3 C 42 % 15.95 C
3400 18-07-2016 19:15:00 30.2 C 42 % 15.86 C
Sensor: Nr:Datum:Temp:Feuchte:Taupunkt:
Aussen-T/F 3401 18-07-2016 19:20:00 30.1 C 49 % 18.21 C
3402 18-07-2016 19:25:00 29.8 C 52 % 18.88 C
3403 18-07-2016 19:30:00 29.4 C 54 % 19.12 C
3404 18-07-2016 19:35:00 29 C 55 % 19.04 C
3405 18-07-2016 19:40:00 28.6 C 56 % 18.96 C
3406 18-07-2016 19:45:00 28.2 C 57 % 18.87 C
3407 18-07-2016 19:50:00 27.7 C 58 % 18.68 C
3408 18-07-2016 19:55:00 27.2 C 60 % 18.76 C
3409 18-07-2016 20:00:00 26.7 C 61 % 18.55 C
3410 18-07-2016 20:05:00 26.4 C 62 % 18.53 C
3411 18-07-2016 20:10:00 26.2 C 63 % 18.6 C
3412 18-07-2016 20:15:00 25.9 C 63 % 18.31 C
3413 18-07-2016 20:20:00 25.7 C 64 % 18.38 C
3414 18-07-2016 20:25:00 25.5 C 64 % 18.19 C
3415 18-07-2016 20:30:00 25.3 C 65 % 18.25 C
3416 18-07-2016 20:35:00 25.1 C 64 % 17.81 C
3417 18-07-2016 20:40:00 24.9 C 65 % 17.87 C
3418 18-07-2016 20:45:00 24.6 C 65 % 17.58 C
3419 18-07-2016 20:50:00 24.3 C 66 % 17.54 C
3420 18-07-2016 20:55:00 24.1 C 67 % 17.59 C
3421 18-07-2016 21:00:00 23.7 C 67 % 17.21 C
3422 18-07-2016 21:05:00 23.4 C 68 % 17.16 C
3423 18-07-2016 21:10:00 23.2 C 69 % 17.2 C
3424 18-07-2016 21:15:00 22.8 C 70 % 17.04 C
3425 18-07-2016 21:20:00 22.6 C 71 % 17.07 C
Sensor: Nr:Datum:Temp:Feuchte:Taupunkt:
Aussen-T/F 3426 18-07-2016 21:25:00 22.2 C 71 % 16.69 C
3427 18-07-2016 21:30:00 22.1 C 71 % 16.6 C
3428 18-07-2016 21:35:00 21.8 C 72 % 16.53 C
3429 18-07-2016 21:40:00 21.7 C 72 % 16.43 C
3430 18-07-2016 21:45:00 21.6 C 73 % 16.55 C
3431 18-07-2016 21:50:00 21.4 C 74 % 16.57 C
3432 18-07-2016 21:55:00 21.2 C 74 % 16.38 C
3433 18-07-2016 22:00:00 20.9 C 75 % 16.3 C
3434 18-07-2016 22:05:00 20.8 C 75 % 16.21 C
3435 18-07-2016 22:10:00 20.7 C 76 % 16.32 C
3436 18-07-2016 22:15:00 20.6 C 77 % 16.43 C
3437 18-07-2016 22:20:00 20.4 C 77 % 16.23 C
3438 18-07-2016 22:25:00 20.2 C 78 % 16.24 C
3439 18-07-2016 22:30:00 20 C 78 % 16.05 C
3440 18-07-2016 22:35:00 19.8 C 79 % 16.05 C
3441 18-07-2016 22:40:00 19.7 C 80 % 16.15 C
3442 18-07-2016 22:45:00 19.5 C 79 % 15.76 C
3443 18-07-2016 22:50:00 19.4 C 80 % 15.86 C
3444 18-07-2016 22:55:00 19.3 C 80 % 15.76 C
3445 18-07-2016 23:00:00 19.2 C 80 % 15.67 C
3446 18-07-2016 23:05:00 19 C 81 % 15.67 C
3447 18-07-2016 23:10:00 18.9 C 81 % 15.57 C
3448 18-07-2016 23:15:00 18.8 C 81 % 15.47 C
3449 18-07-2016 23:20:00 18.7 C 82 % 15.57 C
3450 18-07-2016 23:25:00 18.6 C 83 % 15.66 C
Sensor: Nr:Datum:Temp:Feuchte:Taupunkt:
Aussen-T/F 3451 18-07-2016 23:30:00 18.4 C 83 % 15.46 C
3452 18-07-2016 23:35:00 18.3 C 83 % 15.36 C
3453 18-07-2016 23:40:00 18.3 C 83 % 15.36 C
3454 18-07-2016 23:45:00 18.2 C 83 % 15.27 C
3455 18-07-2016 23:50:00 18.2 C 83 % 15.27 C
3456 18-07-2016 23:55:00 18.1 C 84 % 15.35 C
3457 19-07-2016 00:00:00 18 C 84 % 15.26 C
3458 19-07-2016 00:05:00 17.8 C 85 % 15.25 C
3459 19-07-2016 00:10:00 17.8 C 85 % 15.25 C
3460 19-07-2016 00:15:00 17.7 C 85 % 15.15 C
3461 19-07-2016 00:20:00 17.6 C 86 % 15.23 C
3462 19-07-2016 00:25:00 17.4 C 86 % 15.03 C
3463 19-07-2016 00:30:00 17.4 C 86 % 15.03 C
3464 19-07-2016 00:35:00 17.3 C 86 % 14.94 C
3465 19-07-2016 00:40:00 17.3 C 86 % 14.94 C
3466 19-07-2016 00:45:00 17.3 C 86 % 14.94 C
3467 19-07-2016 00:50:00 17.2 C 87 % 15.02 C
3468 19-07-2016 00:55:00 17.1 C 87 % 14.92 C
3469 19-07-2016 01:00:00 17 C 87 % 14.82 C
3470 19-07-2016 01:05:00 16.9 C 87 % 14.72 C
3471 19-07-2016 01:10:00 16.8 C 88 % 14.8 C
3472 19-07-2016 01:15:00 16.8 C 88 % 14.8 C
3473 19-07-2016 01:20:00 16.7 C 88 % 14.7 C
3474 19-07-2016 01:25:00 16.7 C 88 % 14.7 C
3475 19-07-2016 01:30:00 16.7 C 89 % 14.88 C
Sensor: Nr:Datum:Temp:Feuchte:Taupunkt:
Aussen-T/F 3476 19-07-2016 01:35:00 16.6 C 89 % 14.78 C
3477 19-07-2016 01:40:00 16.6 C 89 % 14.78 C
3478 19-07-2016 01:45:00 16.5 C 89 % 14.68 C
3479 19-07-2016 01:50:00 16.4 C 89 % 14.58 C
3480 19-07-2016 01:55:00 16.4 C 90 % 14.76 C
3481 19-07-2016 02:00:00 16.4 C 90 % 14.76 C
3482 19-07-2016 02:05:00 16.3 C 90 % 14.66 C
3483 19-07-2016 02:10:00 16.3 C 90 % 14.66 C
3484 19-07-2016 02:15:00 16.3 C 90 % 14.66 C
3485 19-07-2016 02:20:00 16.2 C 90 % 14.56 C
3486 19-07-2016 02:25:00 16.2 C 90 % 14.56 C
3487 19-07-2016 02:30:00 16.1 C 90 % 14.46 C
3488 19-07-2016 02:35:00 16 C 90 % 14.36 C
3489 19-07-2016 02:40:00 15.9 C 91 % 14.43 C
3490 19-07-2016 02:45:00 15.9 C 91 % 14.43 C
3491 19-07-2016 02:50:00 15.8 C 91 % 14.33 C
3492 19-07-2016 02:55:00 15.8 C 91 % 14.33 C
3493 19-07-2016 03:00:00 15.8 C 92 % 14.5 C
3494 19-07-2016 03:05:00 15.7 C 92 % 14.4 C
3495 19-07-2016 03:10:00 15.6 C 92 % 14.31 C
3496 19-07-2016 03:15:00 15.6 C 92 % 14.31 C
3497 19-07-2016 03:20:00 15.5 C 92 % 14.21 C
3498 19-07-2016 03:25:00 15.4 C 92 % 14.11 C
3499 19-07-2016 03:30:00 15.4 C 92 % 14.11 C
3500 19-07-2016 03:35:00 15.4 C 93 % 14.27 C
Sensor: Nr:Datum:Temp:Feuchte:Taupunkt:
Aussen-T/F 3501 19-07-2016 03:40:00 15.4 C 93 % 14.27 C
3502 19-07-2016 03:45:00 15.3 C 93 % 14.18 C
3503 19-07-2016 03:50:00 15.3 C 93 % 14.18 C
3504 19-07-2016 03:55:00 15.3 C 93 % 14.18 C
3505 19-07-2016 04:00:00 15.2 C 93 % 14.08 C
3506 19-07-2016 04:05:00 15.2 C 93 % 14.08 C
3507 19-07-2016 04:10:00 15.2 C 93 % 14.08 C
3508 19-07-2016 04:15:00 15.2 C 93 % 14.08 C
3509 19-07-2016 04:20:00 15.1 C 93 % 13.98 C
3510 19-07-2016 04:25:00 15.1 C 93 % 13.98 C
3511 19-07-2016 04:30:00 14.9 C 93 % 13.78 C
3512 19-07-2016 04:35:00 15 C 93 % 13.88 C
3513 19-07-2016 04:40:00 14.9 C 93 % 13.78 C
3514 19-07-2016 04:45:00 14.9 C 94 % 13.94 C
3515 19-07-2016 04:50:00 14.9 C 94 % 13.94 C
3516 19-07-2016 04:55:00 14.9 C 94 % 13.94 C
3517 19-07-2016 05:00:00 14.8 C 94 % 13.84 C
3518 19-07-2016 05:05:00 14.8 C 94 % 13.84 C
3519 19-07-2016 05:10:00 14.7 C 94 % 13.74 C
3520 19-07-2016 05:15:00 14.7 C 94 % 13.74 C
3521 19-07-2016 05:20:00 14.7 C 94 % 13.74 C
3522 19-07-2016 05:25:00 14.7 C 94 % 13.74 C
3523 19-07-2016 05:30:00 14.7 C 94 % 13.74 C
3524 19-07-2016 05:35:00 14.6 C 94 % 13.65 C
3525 19-07-2016 05:40:00 14.5 C 94 % 13.55 C
Sensor: Nr:Datum:Temp:Feuchte:Taupunkt:
Aussen-T/F 3526 19-07-2016 05:45:00 14.4 C 94 % 13.45 C
3527 19-07-2016 05:50:00 14.4 C 94 % 13.45 C
3528 19-07-2016 05:55:00 14.4 C 94 % 13.45 C
3529 19-07-2016 06:00:00 14.5 C 94 % 13.55 C
3530 19-07-2016 06:05:00 14.5 C 94 % 13.55 C
3531 19-07-2016 06:10:00 14.6 C 95 % 13.81 C
3532 19-07-2016 06:15:00 14.6 C 95 % 13.81 C
3533 19-07-2016 06:20:00 14.6 C 95 % 13.81 C
3534 19-07-2016 06:25:00 14.6 C 95 % 13.81 C
3535 19-07-2016 06:30:00 14.6 C 95 % 13.81 C
3536 19-07-2016 06:35:00 14.6 C 95 % 13.81 C
3537 19-07-2016 06:40:00 14.7 C 95 % 13.91 C
3538 19-07-2016 06:45:00 14.7 C 95 % 13.91 C
3539 19-07-2016 06:50:00 14.7 C 95 % 13.91 C
3540 19-07-2016 06:55:00 14.7 C 95 % 13.91 C
3541 19-07-2016 07:00:00 14.7 C 95 % 13.91 C
3542 19-07-2016 07:05:00 14.7 C 95 % 13.91 C
3543 19-07-2016 07:10:00 14.8 C 95 % 14.01 C
3544 19-07-2016 07:15:00 14.8 C 95 % 14.01 C
3545 19-07-2016 07:20:00 14.9 C 95 % 14.11 C
3546 19-07-2016 07:25:00 14.9 C 95 % 14.11 C
3547 19-07-2016 07:30:00 15 C 95 % 14.21 C
3548 19-07-2016 07:35:00 15.1 C 95 % 14.31 C
3549 19-07-2016 07:40:00 15.1 C 95 % 14.31 C
3550 19-07-2016 07:45:00 15.2 C 95 % 14.4 C
Sensor: Nr:Datum:Temp:Feuchte:Taupunkt:
Aussen-T/F 3551 19-07-2016 07:50:00 15.3 C 95 % 14.5 C
3552 19-07-2016 07:55:00 15.3 C 95 % 14.5 C
3553 19-07-2016 08:00:00 15.4 C 95 % 14.6 C
3554 19-07-2016 08:05:00 15.5 C 95 % 14.7 C
3555 19-07-2016 08:10:00 15.6 C 95 % 14.8 C
3556 19-07-2016 08:15:00 15.7 C 95 % 14.9 C
3557 19-07-2016 08:20:00 15.8 C 95 % 15 C
3558 19-07-2016 08:25:00 15.8 C 95 % 15 C
3559 19-07-2016 08:30:00 15.9 C 95 % 15.1 C
3560 19-07-2016 08:35:00 16 C 95 % 15.2 C
3561 19-07-2016 08:40:00 16.1 C 95 % 15.3 C
3562 19-07-2016 08:45:00 16.2 C 95 % 15.4 C
3563 19-07-2016 08:50:00 16.3 C 95 % 15.5 C
3564 19-07-2016 08:55:00 16.4 C 95 % 15.6 C
3565 19-07-2016 09:00:00 16.6 C 95 % 15.8 C
3566 19-07-2016 09:05:00 16.7 C 95 % 15.9 C
3567 19-07-2016 09:10:00 16.8 C 95 % 15.99 C
3568 19-07-2016 09:15:00 16.9 C 95 % 16.09 C
3569 19-07-2016 09:20:00 17 C 95 % 16.19 C
3570 19-07-2016 09:25:00 17.2 C 95 % 16.39 C
3571 19-07-2016 09:30:00 17.3 C 95 % 16.49 C
3572 19-07-2016 09:35:00 17.4 C 95 % 16.59 C
3573 19-07-2016 09:40:00 17.6 C 95 % 16.79 C
3574 19-07-2016 09:45:00 17.7 C 94 % 16.72 C
3575 19-07-2016 09:50:00 17.9 C 94 % 16.92 C
Sensor: Nr:Datum:Temp:Feuchte:Taupunkt:
Aussen-T/F 3576 19-07-2016 09:55:00 18 C 94 % 17.02 C
3577 19-07-2016 10:00:00 18.2 C 94 % 17.22 C
3578 19-07-2016 10:05:00 18.3 C 94 % 17.32 C
3579 19-07-2016 10:10:00 18.6 C 94 % 17.62 C
3580 19-07-2016 10:15:00 18.8 C 94 % 17.81 C
3581 19-07-2016 10:20:00 19 C 93 % 17.84 C
3582 19-07-2016 10:25:00 19.3 C 93 % 18.14 C
3583 19-07-2016 10:30:00 19.7 C 92 % 18.36 C
3584 19-07-2016 10:35:00 20.1 C 91 % 18.58 C
3585 19-07-2016 10:40:00 20.5 C 90 % 18.8 C
3586 19-07-2016 10:45:00 20.8 C 89 % 18.92 C
3587 19-07-2016 10:50:00 21.2 C 88 % 19.13 C
3588 19-07-2016 10:55:00 21.3 C 87 % 19.05 C
3589 19-07-2016 11:00:00 21.4 C 87 % 19.15 C
3590 19-07-2016 11:05:00 21.5 C 87 % 19.24 C
3591 19-07-2016 11:10:00 21.6 C 87 % 19.34 C
3592 19-07-2016 11:15:00 21.6 C 87 % 19.34 C
3593 19-07-2016 11:20:00 21.7 C 87 % 19.44 C
3594 19-07-2016 11:25:00 21.9 C 87 % 19.64 C
3595 19-07-2016 11:30:00 22.1 C 87 % 19.83 C
3596 19-07-2016 11:35:00 22.4 C 85 % 19.75 C
3597 19-07-2016 11:40:00 22.7 C 84 % 19.86 C
3598 19-07-2016 11:45:00 22.9 C 83 % 19.86 C
3599 19-07-2016 11:50:00 23.2 C 80 % 19.56 C
3600 19-07-2016 11:55:00 23.4 C 80 % 19.75 C
Sensor: Nr:Datum:Temp:Feuchte:Taupunkt:
Aussen-T/F 3601 19-07-2016 12:00:00 23.6 C 77 % 19.33 C
3602 19-07-2016 12:05:00 23.9 C 76 % 19.41 C
3603 19-07-2016 12:10:00 24.2 C 71 % 18.61 C
3604 19-07-2016 12:15:00 24.6 C 69 % 18.53 C
3605 19-07-2016 12:20:00 24.9 C 69 % 18.82 C
3606 19-07-2016 12:25:00 25 C 67 % 18.44 C
3607 19-07-2016 12:30:00 25.2 C 71 % 19.56 C
3608 19-07-2016 12:35:00 25.3 C 70 % 19.43 C
3609 19-07-2016 12:40:00 25.4 C 65 % 18.34 C
3610 19-07-2016 12:45:00 25.7 C 62 % 17.87 C
3611 19-07-2016 12:50:00 25.9 C 64 % 18.57 C
3612 19-07-2016 12:55:00 26.1 C 60 % 17.73 C
3613 19-07-2016 13:00:00 26.3 C 60 % 17.91 C
3614 19-07-2016 13:05:00 26.3 C 63 % 18.69 C
3615 19-07-2016 13:10:00 26.3 C 60 % 17.91 C
3616 19-07-2016 13:15:00 26.4 C 58 % 17.47 C
3617 19-07-2016 13:20:00 26.4 C 58 % 17.47 C
3618 19-07-2016 13:25:00 26.6 C 58 % 17.66 C
3619 19-07-2016 13:30:00 26.7 C 58 % 17.75 C
3620 19-07-2016 13:35:00 26.8 C 57 % 17.57 C
3621 19-07-2016 13:40:00 26.9 C 56 % 17.38 C
3622 19-07-2016 13:45:00 27.2 C 55 % 17.37 C
3623 19-07-2016 13:50:00 27.2 C 56 % 17.66 C
3624 19-07-2016 13:55:00 27.2 C 56 % 17.66 C
3625 19-07-2016 14:00:00 27.2 C 63 % 19.54 C
Sensor: Nr:Datum:Temp:Feuchte:Taupunkt:
Aussen-T/F 3626 19-07-2016 14:05:00 26.9 C 67 % 20.25 C
3627 19-07-2016 14:10:00 26.4 C 60 % 18.01 C
3628 19-07-2016 14:15:00 26.2 C 61 % 18.08 C
3629 19-07-2016 14:20:00 26.3 C 64 % 18.94 C
3630 19-07-2016 14:25:00 26.3 C 60 % 17.91 C
3631 19-07-2016 14:30:00 26.4 C 71 % 20.71 C
3632 19-07-2016 14:35:00 26.4 C 72 % 20.94 C
3633 19-07-2016 14:40:00 26.2 C 72 % 20.75 C
3634 19-07-2016 14:45:00 25.9 C 73 % 20.69 C
3635 19-07-2016 14:50:00 25.8 C 75 % 21.03 C
3636 19-07-2016 14:55:00 25.5 C 74 % 20.52 C
3637 19-07-2016 15:00:00 25.4 C 77 % 21.07 C
3638 19-07-2016 15:05:00 25.3 C 66 % 18.49 C
3639 19-07-2016 15:10:00 25.6 C 65 % 18.53 C
3640 19-07-2016 15:15:00 26 C 74 % 21 C
3641 19-07-2016 15:20:00 26.2 C 76 % 21.63 C
3642 19-07-2016 15:25:00 26.2 C 73 % 20.97 C
3643 19-07-2016 15:30:00 26.2 C 73 % 20.97 C
3644 19-07-2016 15:35:00 26.2 C 73 % 20.97 C
3645 19-07-2016 15:40:00 26.4 C 65 % 19.29 C
3646 19-07-2016 15:45:00 27.3 C 59 % 18.58 C
3647 19-07-2016 15:50:00 28.2 C 64 % 20.74 C
3648 19-07-2016 15:55:00 28.6 C 66 % 21.62 C
3649 19-07-2016 16:00:00 28.6 C 67 % 21.87 C
3650 19-07-2016 16:05:00 28.8 C 66 % 21.81 C
Sensor: Nr:Datum:Temp:Feuchte:Taupunkt:
Aussen-T/F 3651 19-07-2016 16:10:00 28.8 C 66 % 21.81 C
3652 19-07-2016 16:15:00 28.8 C 68 % 22.3 C
3653 19-07-2016 16:20:00 28.9 C 67 % 22.15 C
3654 19-07-2016 16:25:00 29.2 C 66 % 22.19 C
3655 19-07-2016 16:30:00 29.7 C 65 % 22.41 C
3656 19-07-2016 16:35:00 30.3 C 63 % 22.46 C
3657 19-07-2016 16:40:00 30.6 C 56 % 20.82 C
3658 19-07-2016 16:45:00 31.1 C 50 % 19.44 C
3659 19-07-2016 16:50:00 31.2 C 62 % 23.05 C
3660 19-07-2016 16:55:00 31.2 C 58 % 21.95 C
3661 19-07-2016 17:00:00 31.2 C 53 % 20.48 C
3662 19-07-2016 17:05:00 31.2 C 58 % 21.95 C
3663 19-07-2016 17:10:00 31.2 C 56 % 21.37 C
3664 19-07-2016 17:15:00 31.3 C 58 % 22.04 C
3665 19-07-2016 17:20:00 31 C 60 % 22.32 C
3666 19-07-2016 17:25:00 31.1 C 56 % 21.28 C
3667 19-07-2016 17:30:00 31.3 C 57 % 21.76 C
3668 19-07-2016 17:35:00 31.8 C 58 % 22.51 C
3669 19-07-2016 17:40:00 32.2 C 56 % 22.3 C
3670 19-07-2016 17:45:00 32.3 C 55 % 22.1 C
3671 19-07-2016 17:50:00 32.4 C 52 % 21.27 C
3672 19-07-2016 17:55:00 32.4 C 53 % 21.58 C
3673 19-07-2016 18:00:00 32.4 C 53 % 21.58 C
3674 19-07-2016 18:05:00 32.4 C 52 % 21.27 C
3675 19-07-2016 18:10:00 32.4 C 52 % 21.27 C
Sensor: Nr:Datum:Temp:Feuchte:Taupunkt:
Aussen-T/F 3676 19-07-2016 18:15:00 32.4 C 54 % 21.89 C
3677 19-07-2016 18:20:00 32.3 C 44 % 18.48 C
3678 19-07-2016 18:25:00 32.3 C 53 % 21.49 C
3679 19-07-2016 18:30:00 32.2 C 53 % 21.4 C
3680 19-07-2016 18:35:00 32 C 55 % 21.82 C
3681 19-07-2016 18:40:00 31.8 C 54 % 21.34 C
3682 19-07-2016 18:45:00 31.7 C 57 % 22.13 C
3683 19-07-2016 18:50:00 31.6 C 55 % 21.45 C
3684 19-07-2016 18:55:00 31.4 C 56 % 21.56 C
3685 19-07-2016 19:00:00 31.3 C 56 % 21.47 C
3686 19-07-2016 19:05:00 31.1 C 57 % 21.57 C
3687 19-07-2016 19:10:00 30.9 C 56 % 21.09 C
3688 19-07-2016 19:15:00 30.7 C 57 % 21.2 C
3689 19-07-2016 19:20:00 30.6 C 57 % 21.1 C
3690 19-07-2016 19:25:00 30.3 C 59 % 21.39 C
3691 19-07-2016 19:30:00 29.9 C 59 % 21.01 C
3692 19-07-2016 19:35:00 29.6 C 59 % 20.73 C
3693 19-07-2016 19:40:00 29.2 C 59 % 20.36 C
3694 19-07-2016 19:45:00 28.9 C 60 % 20.35 C
3695 19-07-2016 19:50:00 28.6 C 60 % 20.07 C
3696 19-07-2016 19:55:00 28.3 C 60 % 19.79 C
3697 19-07-2016 20:00:00 28 C 60 % 19.51 C
3698 19-07-2016 20:05:00 27.7 C 60 % 19.23 C
3699 19-07-2016 20:10:00 27.4 C 61 % 19.21 C
3700 19-07-2016 20:15:00 27.2 C 61 % 19.02 C
Sensor: Nr:Datum:Temp:Feuchte:Taupunkt:
Aussen-T/F 3701 19-07-2016 20:20:00 27.1 C 63 % 19.45 C
3702 19-07-2016 20:25:00 26.8 C 63 % 19.16 C
3703 19-07-2016 20:30:00 26.7 C 63 % 19.07 C
3704 19-07-2016 20:35:00 26.4 C 63 % 18.79 C
3705 19-07-2016 20:40:00 26.2 C 63 % 18.6 C
3706 19-07-2016 20:45:00 26 C 64 % 18.66 C
3707 19-07-2016 20:50:00 25.7 C 64 % 18.38 C
3708 19-07-2016 20:55:00 25.4 C 63 % 17.84 C
3709 19-07-2016 21:00:00 25.2 C 64 % 17.9 C
3710 19-07-2016 21:05:00 24.9 C 64 % 17.62 C
3711 19-07-2016 21:10:00 24.7 C 65 % 17.68 C
3712 19-07-2016 21:15:00 24.4 C 66 % 17.64 C
3713 19-07-2016 21:20:00 24.1 C 66 % 17.35 C
3714 19-07-2016 21:25:00 23.8 C 68 % 17.54 C
3715 19-07-2016 21:30:00 23.5 C 67 % 17.02 C
3716 19-07-2016 21:35:00 23.2 C 68 % 16.97 C
3717 19-07-2016 21:40:00 22.9 C 69 % 16.91 C
3718 19-07-2016 21:45:00 22.7 C 71 % 17.17 C
3719 19-07-2016 21:50:00 22.3 C 72 % 17.01 C
3720 19-07-2016 21:55:00 22.1 C 72 % 16.82 C
3721 19-07-2016 22:00:00 21.8 C 71 % 16.31 C
3722 19-07-2016 22:05:00 21.6 C 71 % 16.12 C
3723 19-07-2016 22:10:00 21.5 C 72 % 16.24 C
3724 19-07-2016 22:15:00 21.4 C 73 % 16.36 C
3725 19-07-2016 22:20:00 21.3 C 72 % 16.05 C
Sensor: Nr:Datum:Temp:Feuchte:Taupunkt:
Aussen-T/F 3726 19-07-2016 22:25:00 21.1 C 73 % 16.07 C
3727 19-07-2016 22:30:00 21 C 75 % 16.4 C
3728 19-07-2016 22:35:00 20.8 C 73 % 15.78 C
3729 19-07-2016 22:40:00 20.7 C 74 % 15.9 C
3730 19-07-2016 22:45:00 20.6 C 75 % 16.01 C
3731 19-07-2016 22:50:00 20.4 C 76 % 16.03 C
3732 19-07-2016 22:55:00 20.3 C 77 % 16.14 C
3733 19-07-2016 23:00:00 20.1 C 76 % 15.74 C
3734 19-07-2016 23:05:00 20 C 77 % 15.85 C
3735 19-07-2016 23:10:00 19.8 C 78 % 15.85 C
3736 19-07-2016 23:15:00 19.7 C 78 % 15.76 C
3737 19-07-2016 23:20:00 19.6 C 77 % 15.46 C
3738 19-07-2016 23:25:00 19.5 C 78 % 15.56 C
3739 19-07-2016 23:30:00 19.5 C 79 % 15.76 C
3740 19-07-2016 23:35:00 19.4 C 79 % 15.66 C
3741 19-07-2016 23:40:00 19.4 C 79 % 15.66 C
3742 19-07-2016 23:45:00 19.3 C 79 % 15.57 C
3743 19-07-2016 23:50:00 19.2 C 80 % 15.67 C
3744 19-07-2016 23:55:00 19.1 C 81 % 15.76 C
3745 20-07-2016 00:00:00 18.9 C 81 % 15.57 C
3746 20-07-2016 00:05:00 18.8 C 82 % 15.66 C
3747 20-07-2016 00:10:00 18.6 C 82 % 15.47 C
3748 20-07-2016 00:15:00 18.4 C 83 % 15.46 C
3749 20-07-2016 00:20:00 18.3 C 83 % 15.36 C
3750 20-07-2016 00:25:00 18.2 C 84 % 15.45 C
Sensor: Nr:Datum:Temp:Feuchte:Taupunkt:
Aussen-T/F 3751 20-07-2016 00:30:00 18.2 C 84 % 15.45 C
3752 20-07-2016 00:35:00 18.1 C 84 % 15.35 C
3753 20-07-2016 00:40:00 18 C 85 % 15.44 C
3754 20-07-2016 00:45:00 17.9 C 85 % 15.34 C
3755 20-07-2016 00:50:00 17.8 C 86 % 15.43 C
3756 20-07-2016 00:55:00 17.8 C 86 % 15.43 C
3757 20-07-2016 01:00:00 17.7 C 86 % 15.33 C
3758 20-07-2016 01:05:00 17.6 C 87 % 15.41 C
3759 20-07-2016 01:10:00 17.5 C 87 % 15.31 C
3760 20-07-2016 01:15:00 17.4 C 87 % 15.21 C
3761 20-07-2016 01:20:00 17.3 C 87 % 15.12 C
3762 20-07-2016 01:25:00 17.3 C 87 % 15.12 C
3763 20-07-2016 01:30:00 17.3 C 88 % 15.29 C
3764 20-07-2016 01:35:00 17.3 C 88 % 15.29 C
3765 20-07-2016 01:40:00 17.2 C 88 % 15.2 C
3766 20-07-2016 01:45:00 17.1 C 88 % 15.1 C
3767 20-07-2016 01:50:00 17.1 C 88 % 15.1 C
3768 20-07-2016 01:55:00 17.1 C 88 % 15.1 C
3769 20-07-2016 02:00:00 17 C 88 % 15 C
3770 20-07-2016 02:05:00 17 C 89 % 15.17 C
3771 20-07-2016 02:10:00 16.9 C 89 % 15.08 C
3772 20-07-2016 02:15:00 16.9 C 89 % 15.08 C
3773 20-07-2016 02:20:00 16.8 C 89 % 14.98 C
3774 20-07-2016 02:25:00 16.7 C 89 % 14.88 C
3775 20-07-2016 02:30:00 16.7 C 89 % 14.88 C
Sensor: Nr:Datum:Temp:Feuchte:Taupunkt:
Aussen-T/F 3776 20-07-2016 02:35:00 16.6 C 90 % 14.95 C
3777 20-07-2016 02:40:00 16.6 C 90 % 14.95 C
3778 20-07-2016 02:45:00 16.5 C 90 % 14.85 C
3779 20-07-2016 02:50:00 16.5 C 90 % 14.85 C
3780 20-07-2016 02:55:00 16.4 C 90 % 14.76 C
3781 20-07-2016 03:00:00 16.4 C 90 % 14.76 C
3782 20-07-2016 03:05:00 16.3 C 91 % 14.83 C
3783 20-07-2016 03:10:00 16.3 C 91 % 14.83 C
3784 20-07-2016 03:15:00 16.2 C 91 % 14.73 C
3785 20-07-2016 03:20:00 16.2 C 91 % 14.73 C
3786 20-07-2016 03:25:00 16.1 C 91 % 14.63 C
3787 20-07-2016 03:30:00 16.1 C 91 % 14.63 C
3788 20-07-2016 03:35:00 15.9 C 91 % 14.43 C
3789 20-07-2016 03:40:00 15.9 C 91 % 14.43 C
3790 20-07-2016 03:45:00 15.9 C 92 % 14.6 C
3791 20-07-2016 03:50:00 15.8 C 92 % 14.5 C
3792 20-07-2016 03:55:00 15.8 C 92 % 14.5 C
3793 20-07-2016 04:00:00 15.7 C 92 % 14.4 C
3794 20-07-2016 04:05:00 15.8 C 93 % 14.67 C
3795 20-07-2016 04:10:00 15.7 C 92 % 14.4 C
3796 20-07-2016 04:15:00 15.6 C 92 % 14.31 C
3797 20-07-2016 04:20:00 15.6 C 92 % 14.31 C
3798 20-07-2016 04:25:00 15.6 C 92 % 14.31 C
3799 20-07-2016 04:30:00 15.5 C 92 % 14.21 C
3800 20-07-2016 04:35:00 15.4 C 93 % 14.27 C
Sensor: Nr:Datum:Temp:Feuchte:Taupunkt:
Aussen-T/F 3801 20-07-2016 04:40:00 15.3 C 93 % 14.18 C
3802 20-07-2016 04:45:00 15.3 C 93 % 14.18 C
3803 20-07-2016 04:50:00 15.3 C 93 % 14.18 C
3804 20-07-2016 04:55:00 15.3 C 93 % 14.18 C
3805 20-07-2016 05:00:00 15.3 C 93 % 14.18 C
3806 20-07-2016 05:05:00 15.2 C 93 % 14.08 C
3807 20-07-2016 05:10:00 15.2 C 93 % 14.08 C
3808 20-07-2016 05:15:00 15.1 C 93 % 13.98 C
3809 20-07-2016 05:20:00 15.1 C 93 % 13.98 C
3810 20-07-2016 05:25:00 15 C 93 % 13.88 C
3811 20-07-2016 05:30:00 15 C 94 % 14.04 C
3812 20-07-2016 05:35:00 14.9 C 93 % 13.78 C
3813 20-07-2016 05:40:00 14.9 C 94 % 13.94 C
3814 20-07-2016 05:45:00 14.9 C 94 % 13.94 C
3815 20-07-2016 05:50:00 14.8 C 94 % 13.84 C
3816 20-07-2016 05:55:00 14.8 C 94 % 13.84 C
3817 20-07-2016 06:00:00 14.8 C 94 % 13.84 C
3818 20-07-2016 06:05:00 14.9 C 94 % 13.94 C
3819 20-07-2016 06:10:00 14.8 C 94 % 13.84 C
3820 20-07-2016 06:15:00 14.8 C 94 % 13.84 C
3821 20-07-2016 06:20:00 14.7 C 94 % 13.74 C
3822 20-07-2016 06:25:00 14.7 C 94 % 13.74 C
3823 20-07-2016 06:30:00 14.7 C 94 % 13.74 C
3824 20-07-2016 06:35:00 14.7 C 94 % 13.74 C
3825 20-07-2016 06:40:00 14.8 C 94 % 13.84 C
Sensor: Nr:Datum:Temp:Feuchte:Taupunkt:
Aussen-T/F 3826 20-07-2016 06:45:00 14.8 C 94 % 13.84 C
3827 20-07-2016 06:50:00 14.8 C 94 % 13.84 C
3828 20-07-2016 06:55:00 14.8 C 95 % 14.01 C
3829 20-07-2016 07:00:00 14.9 C 95 % 14.11 C
3830 20-07-2016 07:05:00 14.9 C 95 % 14.11 C
3831 20-07-2016 07:10:00 15 C 95 % 14.21 C
3832 20-07-2016 07:15:00 15.1 C 95 % 14.31 C
3833 20-07-2016 07:20:00 15.2 C 95 % 14.4 C
3834 20-07-2016 07:25:00 15.2 C 95 % 14.4 C
3835 20-07-2016 07:30:00 15.2 C 95 % 14.4 C
3836 20-07-2016 07:35:00 15.3 C 95 % 14.5 C
3837 20-07-2016 07:40:00 15.3 C 95 % 14.5 C
3838 20-07-2016 07:45:00 15.4 C 95 % 14.6 C
3839 20-07-2016 07:50:00 15.4 C 95 % 14.6 C
3840 20-07-2016 07:55:00 15.5 C 95 % 14.7 C
3841 20-07-2016 08:00:00 15.6 C 95 % 14.8 C
3842 20-07-2016 08:05:00 15.7 C 95 % 14.9 C
3843 20-07-2016 08:10:00 15.8 C 95 % 15 C
3844 20-07-2016 08:15:00 15.8 C 95 % 15 C
3845 20-07-2016 08:20:00 15.9 C 95 % 15.1 C
3846 20-07-2016 08:25:00 16 C 95 % 15.2 C
3847 20-07-2016 08:30:00 16.1 C 95 % 15.3 C
3848 20-07-2016 08:35:00 16.2 C 96 % 15.56 C
3849 20-07-2016 08:40:00 16.4 C 95 % 15.6 C
3850 20-07-2016 08:45:00 16.6 C 96 % 15.96 C
Sensor: Nr:Datum:Temp:Feuchte:Taupunkt:
Aussen-T/F 3851 20-07-2016 08:50:00 16.7 C 96 % 16.06 C
3852 20-07-2016 08:55:00 16.9 C 96 % 16.26 C
3853 20-07-2016 09:00:00 17.1 C 96 % 16.46 C
3854 20-07-2016 09:05:00 17.2 C 96 % 16.56 C
3855 20-07-2016 09:10:00 17.3 C 96 % 16.66 C
3856 20-07-2016 09:15:00 17.5 C 95 % 16.69 C
3857 20-07-2016 09:20:00 17.6 C 95 % 16.79 C
3858 20-07-2016 09:25:00 17.8 C 95 % 16.99 C
3859 20-07-2016 09:30:00 17.9 C 95 % 17.09 C
3860 20-07-2016 09:35:00 18.1 C 95 % 17.29 C
3861 20-07-2016 09:40:00 18.2 C 95 % 17.39 C
3862 20-07-2016 09:45:00 18.4 C 94 % 17.42 C
3863 20-07-2016 09:50:00 18.5 C 94 % 17.52 C
3864 20-07-2016 09:55:00 18.7 C 94 % 17.71 C
3865 20-07-2016 10:00:00 18.9 C 94 % 17.91 C
3866 20-07-2016 10:05:00 19.1 C 93 % 17.94 C
3867 20-07-2016 10:10:00 19.3 C 93 % 18.14 C
3868 20-07-2016 10:15:00 19.5 C 93 % 18.34 C
3869 20-07-2016 10:20:00 19.7 C 92 % 18.36 C
3870 20-07-2016 10:25:00 20.1 C 92 % 18.76 C
3871 20-07-2016 10:30:00 20.6 C 91 % 19.08 C
3872 20-07-2016 10:35:00 21.1 C 88 % 19.03 C
3873 20-07-2016 10:40:00 21.7 C 88 % 19.62 C
3874 20-07-2016 10:45:00 22.2 C 86 % 19.75 C
3875 20-07-2016 10:50:00 22.4 C 85 % 19.75 C
Sensor: Nr:Datum:Temp:Feuchte:Taupunkt:
Aussen-T/F 3876 20-07-2016 10:55:00 22.4 C 85 % 19.75 C